<?xml version="1.0" encoding="UTF-8" standalone="no" ?>
<gpx xmlns="http://www.topografix.com/GPX/1/1" xmlns:xsi="http://www.w3.org/2001/XMLSchema-instance" xsi:schemaLocation="http://www.topografix.com/GPX/1/1 http://www.topografix.com/GPX/1/1/gpx.xsd" version="1.1" creator="VisuGPX - https://www.visugpx.com">
  <metadata>
    <name>Jour 14 - Le Chemin Sauvage</name>
  </metadata>
  <trk>
    <name><![CDATA[2026-05-15 13:31:36]]></name>
    <trkseg>
      <trkpt lat="44.80477" lon="1.62844">
        <ele>254.41</ele>
        <time>2026-05-15T04:53:14Z</time>
      </trkpt>
      <trkpt lat="44.80477" lon="1.62844">
        <ele>254.41</ele>
        <time>2026-05-15T04:53:16Z</time>
      </trkpt>
      <trkpt lat="44.80473" lon="1.62823">
        <ele>253.44</ele>
        <time>2026-05-15T04:53:37Z</time>
      </trkpt>
      <trkpt lat="44.80472" lon="1.62816">
        <ele>252.96</ele>
        <time>2026-05-15T04:53:41Z</time>
      </trkpt>
      <trkpt lat="44.80473" lon="1.62794">
        <ele>252.48</ele>
        <time>2026-05-15T04:53:55Z</time>
      </trkpt>
      <trkpt lat="44.80467" lon="1.6279">
        <ele>254.41</ele>
        <time>2026-05-15T04:54:01Z</time>
      </trkpt>
      <trkpt lat="44.80462" lon="1.62788">
        <ele>255.37</ele>
        <time>2026-05-15T04:54:16Z</time>
      </trkpt>
      <trkpt lat="44.8046" lon="1.62795">
        <ele>252</ele>
        <time>2026-05-15T04:54:37Z</time>
      </trkpt>
      <trkpt lat="44.8046" lon="1.62795">
        <ele>255.37</ele>
        <time>2026-05-15T04:54:38Z</time>
      </trkpt>
      <trkpt lat="44.8046" lon="1.628">
        <ele>253.44</ele>
        <time>2026-05-15T04:54:45Z</time>
      </trkpt>
      <trkpt lat="44.8046" lon="1.62802">
        <ele>254.89</ele>
        <time>2026-05-15T04:54:47Z</time>
      </trkpt>
      <trkpt lat="44.80456" lon="1.62809">
        <ele>254.41</ele>
        <time>2026-05-15T04:54:53Z</time>
      </trkpt>
      <trkpt lat="44.80447" lon="1.62776">
        <ele>254.89</ele>
        <time>2026-05-15T04:55:08Z</time>
      </trkpt>
      <trkpt lat="44.80446" lon="1.62772">
        <ele>255.37</ele>
        <time>2026-05-15T04:55:19Z</time>
      </trkpt>
      <trkpt lat="44.80445" lon="1.62764">
        <ele>253.44</ele>
        <time>2026-05-15T04:55:28Z</time>
      </trkpt>
      <trkpt lat="44.80438" lon="1.62738">
        <ele>255.85</ele>
        <time>2026-05-15T04:55:46Z</time>
      </trkpt>
      <trkpt lat="44.8044" lon="1.62712">
        <ele>256.33</ele>
        <time>2026-05-15T04:56:04Z</time>
      </trkpt>
      <trkpt lat="44.8044" lon="1.62711">
        <ele>256.33</ele>
        <time>2026-05-15T04:56:05Z</time>
      </trkpt>
      <trkpt lat="44.80444" lon="1.6271">
        <ele>256.33</ele>
        <time>2026-05-15T04:56:09Z</time>
      </trkpt>
      <trkpt lat="44.80454" lon="1.62706">
        <ele>256.33</ele>
        <time>2026-05-15T04:56:18Z</time>
      </trkpt>
      <trkpt lat="44.8047" lon="1.627">
        <ele>256.33</ele>
        <time>2026-05-15T04:56:33Z</time>
      </trkpt>
      <trkpt lat="44.80475" lon="1.62693">
        <ele>256.33</ele>
        <time>2026-05-15T04:56:43Z</time>
      </trkpt>
      <trkpt lat="44.80474" lon="1.62677">
        <ele>256.33</ele>
        <time>2026-05-15T04:56:54Z</time>
      </trkpt>
      <trkpt lat="44.80473" lon="1.62647">
        <ele>256.33</ele>
        <time>2026-05-15T04:57:12Z</time>
      </trkpt>
      <trkpt lat="44.80477" lon="1.62621">
        <ele>257.29</ele>
        <time>2026-05-15T04:57:28Z</time>
      </trkpt>
      <trkpt lat="44.80475" lon="1.6262">
        <ele>257.77</ele>
        <time>2026-05-15T04:57:34Z</time>
      </trkpt>
      <trkpt lat="44.80458" lon="1.6261">
        <ele>256.81</ele>
        <time>2026-05-15T04:57:52Z</time>
      </trkpt>
      <trkpt lat="44.80455" lon="1.62609">
        <ele>256.33</ele>
        <time>2026-05-15T04:57:54Z</time>
      </trkpt>
      <trkpt lat="44.80446" lon="1.62607">
        <ele>253.93</ele>
        <time>2026-05-15T04:58:01Z</time>
      </trkpt>
      <trkpt lat="44.80445" lon="1.62606">
        <ele>256.81</ele>
        <time>2026-05-15T04:58:03Z</time>
      </trkpt>
      <trkpt lat="44.80443" lon="1.62605">
        <ele>255.37</ele>
        <time>2026-05-15T04:58:05Z</time>
      </trkpt>
      <trkpt lat="44.80436" lon="1.62609">
        <ele>254.89</ele>
        <time>2026-05-15T04:58:18Z</time>
      </trkpt>
      <trkpt lat="44.80412" lon="1.62616">
        <ele>252.48</ele>
        <time>2026-05-15T04:58:38Z</time>
      </trkpt>
      <trkpt lat="44.80408" lon="1.6261">
        <ele>250.56</ele>
        <time>2026-05-15T04:58:51Z</time>
      </trkpt>
      <trkpt lat="44.80411" lon="1.62601">
        <ele>249.6</ele>
        <time>2026-05-15T04:59:16Z</time>
      </trkpt>
      <trkpt lat="44.80412" lon="1.62598">
        <ele>249.6</ele>
        <time>2026-05-15T04:59:18Z</time>
      </trkpt>
      <trkpt lat="44.80414" lon="1.62571">
        <ele>245.75</ele>
        <time>2026-05-15T04:59:34Z</time>
      </trkpt>
      <trkpt lat="44.80413" lon="1.62541">
        <ele>242.39</ele>
        <time>2026-05-15T04:59:54Z</time>
      </trkpt>
      <trkpt lat="44.80413" lon="1.62539">
        <ele>240.95</ele>
        <time>2026-05-15T05:00:19Z</time>
      </trkpt>
      <trkpt lat="44.80414" lon="1.62524">
        <ele>239.51</ele>
        <time>2026-05-15T05:00:41Z</time>
      </trkpt>
      <trkpt lat="44.8041" lon="1.62515">
        <ele>239.51</ele>
        <time>2026-05-15T05:00:50Z</time>
      </trkpt>
      <trkpt lat="44.80412" lon="1.62505">
        <ele>238.06</ele>
        <time>2026-05-15T05:01:04Z</time>
      </trkpt>
      <trkpt lat="44.80413" lon="1.62483">
        <ele>234.7</ele>
        <time>2026-05-15T05:01:21Z</time>
      </trkpt>
      <trkpt lat="44.80415" lon="1.62464">
        <ele>232.3</ele>
        <time>2026-05-15T05:01:35Z</time>
      </trkpt>
      <trkpt lat="44.80412" lon="1.62432">
        <ele>229.41</ele>
        <time>2026-05-15T05:01:52Z</time>
      </trkpt>
      <trkpt lat="44.8041" lon="1.62409">
        <ele>226.05</ele>
        <time>2026-05-15T05:02:05Z</time>
      </trkpt>
      <trkpt lat="44.80405" lon="1.62379">
        <ele>223.16</ele>
        <time>2026-05-15T05:02:21Z</time>
      </trkpt>
      <trkpt lat="44.80399" lon="1.62351">
        <ele>219.8</ele>
        <time>2026-05-15T05:02:37Z</time>
      </trkpt>
      <trkpt lat="44.80394" lon="1.62328">
        <ele>216.43</ele>
        <time>2026-05-15T05:02:52Z</time>
      </trkpt>
      <trkpt lat="44.80392" lon="1.62311">
        <ele>213.07</ele>
        <time>2026-05-15T05:03:06Z</time>
      </trkpt>
      <trkpt lat="44.80376" lon="1.6229">
        <ele>209.7</ele>
        <time>2026-05-15T05:03:20Z</time>
      </trkpt>
      <trkpt lat="44.80371" lon="1.62279">
        <ele>208.26</ele>
        <time>2026-05-15T05:03:26Z</time>
      </trkpt>
      <trkpt lat="44.80356" lon="1.62254">
        <ele>204.9</ele>
        <time>2026-05-15T05:03:41Z</time>
      </trkpt>
      <trkpt lat="44.80339" lon="1.62231">
        <ele>202.49</ele>
        <time>2026-05-15T05:03:57Z</time>
      </trkpt>
      <trkpt lat="44.80334" lon="1.62224">
        <ele>201.05</ele>
        <time>2026-05-15T05:04:16Z</time>
      </trkpt>
      <trkpt lat="44.80327" lon="1.62216">
        <ele>200.09</ele>
        <time>2026-05-15T05:04:40Z</time>
      </trkpt>
      <trkpt lat="44.80321" lon="1.62205">
        <ele>198.65</ele>
        <time>2026-05-15T05:04:48Z</time>
      </trkpt>
      <trkpt lat="44.80317" lon="1.62201">
        <ele>197.69</ele>
        <time>2026-05-15T05:04:52Z</time>
      </trkpt>
      <trkpt lat="44.80305" lon="1.62181">
        <ele>195.28</ele>
        <time>2026-05-15T05:05:08Z</time>
      </trkpt>
      <trkpt lat="44.80297" lon="1.62168">
        <ele>191.92</ele>
        <time>2026-05-15T05:05:21Z</time>
      </trkpt>
      <trkpt lat="44.80285" lon="1.62151">
        <ele>189.04</ele>
        <time>2026-05-15T05:05:36Z</time>
      </trkpt>
      <trkpt lat="44.80274" lon="1.62138">
        <ele>187.59</ele>
        <time>2026-05-15T05:05:51Z</time>
      </trkpt>
      <trkpt lat="44.80262" lon="1.62114">
        <ele>186.15</ele>
        <time>2026-05-15T05:06:07Z</time>
      </trkpt>
      <trkpt lat="44.8025" lon="1.62092">
        <ele>184.71</ele>
        <time>2026-05-15T05:06:22Z</time>
      </trkpt>
      <trkpt lat="44.80244" lon="1.62081">
        <ele>183.75</ele>
        <time>2026-05-15T05:06:30Z</time>
      </trkpt>
      <trkpt lat="44.80234" lon="1.62068">
        <ele>182.79</ele>
        <time>2026-05-15T05:06:47Z</time>
      </trkpt>
      <trkpt lat="44.80223" lon="1.62057">
        <ele>181.35</ele>
        <time>2026-05-15T05:06:58Z</time>
      </trkpt>
      <trkpt lat="44.8021" lon="1.62044">
        <ele>179.9</ele>
        <time>2026-05-15T05:07:11Z</time>
      </trkpt>
      <trkpt lat="44.80193" lon="1.62032">
        <ele>177.5</ele>
        <time>2026-05-15T05:07:27Z</time>
      </trkpt>
      <trkpt lat="44.80185" lon="1.62017">
        <ele>177.02</ele>
        <time>2026-05-15T05:07:40Z</time>
      </trkpt>
      <trkpt lat="44.80175" lon="1.62003">
        <ele>175.58</ele>
        <time>2026-05-15T05:07:56Z</time>
      </trkpt>
      <trkpt lat="44.80164" lon="1.61984">
        <ele>174.14</ele>
        <time>2026-05-15T05:08:13Z</time>
      </trkpt>
      <trkpt lat="44.80158" lon="1.61967">
        <ele>172.69</ele>
        <time>2026-05-15T05:08:24Z</time>
      </trkpt>
      <trkpt lat="44.80154" lon="1.6195">
        <ele>171.25</ele>
        <time>2026-05-15T05:08:40Z</time>
      </trkpt>
      <trkpt lat="44.80144" lon="1.61931">
        <ele>169.81</ele>
        <time>2026-05-15T05:08:58Z</time>
      </trkpt>
      <trkpt lat="44.80141" lon="1.61928">
        <ele>169.81</ele>
        <time>2026-05-15T05:09:00Z</time>
      </trkpt>
      <trkpt lat="44.80139" lon="1.6192">
        <ele>171.25</ele>
        <time>2026-05-15T05:09:04Z</time>
      </trkpt>
      <trkpt lat="44.80137" lon="1.61918">
        <ele>169.81</ele>
        <time>2026-05-15T05:09:06Z</time>
      </trkpt>
      <trkpt lat="44.80127" lon="1.61924">
        <ele>170.29</ele>
        <time>2026-05-15T05:09:19Z</time>
      </trkpt>
      <trkpt lat="44.80127" lon="1.61924">
        <ele>170.29</ele>
        <time>2026-05-15T05:09:20Z</time>
      </trkpt>
      <trkpt lat="44.80131" lon="1.61931">
        <ele>170.29</ele>
        <time>2026-05-15T05:09:25Z</time>
      </trkpt>
      <trkpt lat="44.80138" lon="1.61943">
        <ele>170.77</ele>
        <time>2026-05-15T05:09:35Z</time>
      </trkpt>
      <trkpt lat="44.80135" lon="1.61951">
        <ele>170.77</ele>
        <time>2026-05-15T05:09:39Z</time>
      </trkpt>
      <trkpt lat="44.80133" lon="1.6196">
        <ele>170.77</ele>
        <time>2026-05-15T05:09:43Z</time>
      </trkpt>
      <trkpt lat="44.80137" lon="1.61975">
        <ele>169.33</ele>
        <time>2026-05-15T05:09:54Z</time>
      </trkpt>
      <trkpt lat="44.80134" lon="1.61974">
        <ele>168.85</ele>
        <time>2026-05-15T05:10:04Z</time>
      </trkpt>
      <trkpt lat="44.80131" lon="1.61971">
        <ele>168.85</ele>
        <time>2026-05-15T05:10:17Z</time>
      </trkpt>
      <trkpt lat="44.80134" lon="1.61977">
        <ele>167.89</ele>
        <time>2026-05-15T05:10:25Z</time>
      </trkpt>
      <trkpt lat="44.80141" lon="1.61989">
        <ele>165</ele>
        <time>2026-05-15T05:10:36Z</time>
      </trkpt>
      <trkpt lat="44.80145" lon="1.62">
        <ele>162.12</ele>
        <time>2026-05-15T05:10:46Z</time>
      </trkpt>
      <trkpt lat="44.8015" lon="1.62014">
        <ele>158.75</ele>
        <time>2026-05-15T05:10:58Z</time>
      </trkpt>
      <trkpt lat="44.80156" lon="1.6203">
        <ele>155.87</ele>
        <time>2026-05-15T05:11:10Z</time>
      </trkpt>
      <trkpt lat="44.80161" lon="1.62043">
        <ele>152.51</ele>
        <time>2026-05-15T05:11:22Z</time>
      </trkpt>
      <trkpt lat="44.80165" lon="1.62051">
        <ele>149.14</ele>
        <time>2026-05-15T05:11:33Z</time>
      </trkpt>
      <trkpt lat="44.80168" lon="1.62064">
        <ele>145.78</ele>
        <time>2026-05-15T05:11:46Z</time>
      </trkpt>
      <trkpt lat="44.80168" lon="1.62078">
        <ele>141.93</ele>
        <time>2026-05-15T05:11:58Z</time>
      </trkpt>
      <trkpt lat="44.80188" lon="1.62096">
        <ele>139.05</ele>
        <time>2026-05-15T05:12:12Z</time>
      </trkpt>
      <trkpt lat="44.80192" lon="1.62098">
        <ele>139.05</ele>
        <time>2026-05-15T05:12:15Z</time>
      </trkpt>
      <trkpt lat="44.802" lon="1.62117">
        <ele>138.57</ele>
        <time>2026-05-15T05:12:30Z</time>
      </trkpt>
      <trkpt lat="44.80185" lon="1.62127">
        <ele>136.16</ele>
        <time>2026-05-15T05:12:39Z</time>
      </trkpt>
      <trkpt lat="44.80183" lon="1.62128">
        <ele>135.2</ele>
        <time>2026-05-15T05:12:41Z</time>
      </trkpt>
      <trkpt lat="44.8018" lon="1.62132">
        <ele>133.76</ele>
        <time>2026-05-15T05:12:47Z</time>
      </trkpt>
      <trkpt lat="44.80178" lon="1.62135">
        <ele>132.8</ele>
        <time>2026-05-15T05:12:49Z</time>
      </trkpt>
      <trkpt lat="44.80177" lon="1.6214">
        <ele>133.76</ele>
        <time>2026-05-15T05:12:52Z</time>
      </trkpt>
      <trkpt lat="44.8017" lon="1.6214">
        <ele>132.8</ele>
        <time>2026-05-15T05:13:03Z</time>
      </trkpt>
      <trkpt lat="44.80169" lon="1.62152">
        <ele>131.36</ele>
        <time>2026-05-15T05:13:09Z</time>
      </trkpt>
      <trkpt lat="44.80171" lon="1.62158">
        <ele>131.36</ele>
        <time>2026-05-15T05:13:13Z</time>
      </trkpt>
      <trkpt lat="44.80179" lon="1.62181">
        <ele>131.36</ele>
        <time>2026-05-15T05:13:28Z</time>
      </trkpt>
      <trkpt lat="44.80186" lon="1.62206">
        <ele>131.36</ele>
        <time>2026-05-15T05:13:43Z</time>
      </trkpt>
      <trkpt lat="44.8019" lon="1.62227">
        <ele>132.8</ele>
        <time>2026-05-15T05:13:58Z</time>
      </trkpt>
      <trkpt lat="44.80193" lon="1.62235">
        <ele>133.76</ele>
        <time>2026-05-15T05:14:04Z</time>
      </trkpt>
      <trkpt lat="44.80206" lon="1.62246">
        <ele>134.72</ele>
        <time>2026-05-15T05:14:18Z</time>
      </trkpt>
      <trkpt lat="44.80208" lon="1.62252">
        <ele>135.2</ele>
        <time>2026-05-15T05:14:35Z</time>
      </trkpt>
      <trkpt lat="44.80212" lon="1.62268">
        <ele>133.76</ele>
        <time>2026-05-15T05:14:54Z</time>
      </trkpt>
      <trkpt lat="44.80227" lon="1.62293">
        <ele>133.28</ele>
        <time>2026-05-15T05:15:13Z</time>
      </trkpt>
      <trkpt lat="44.80243" lon="1.62317">
        <ele>133.28</ele>
        <time>2026-05-15T05:15:27Z</time>
      </trkpt>
      <trkpt lat="44.80244" lon="1.62321">
        <ele>133.28</ele>
        <time>2026-05-15T05:15:30Z</time>
      </trkpt>
      <trkpt lat="44.80249" lon="1.62337">
        <ele>133.28</ele>
        <time>2026-05-15T05:15:41Z</time>
      </trkpt>
      <trkpt lat="44.80253" lon="1.62352">
        <ele>133.28</ele>
        <time>2026-05-15T05:15:51Z</time>
      </trkpt>
      <trkpt lat="44.80252" lon="1.62367">
        <ele>133.28</ele>
        <time>2026-05-15T05:15:59Z</time>
      </trkpt>
      <trkpt lat="44.80254" lon="1.624">
        <ele>132.8</ele>
        <time>2026-05-15T05:16:19Z</time>
      </trkpt>
      <trkpt lat="44.80234" lon="1.62431">
        <ele>131.84</ele>
        <time>2026-05-15T05:16:37Z</time>
      </trkpt>
      <trkpt lat="44.8022" lon="1.62449">
        <ele>131.84</ele>
        <time>2026-05-15T05:16:47Z</time>
      </trkpt>
      <trkpt lat="44.80206" lon="1.6247">
        <ele>131.84</ele>
        <time>2026-05-15T05:17:05Z</time>
      </trkpt>
      <trkpt lat="44.80194" lon="1.62487">
        <ele>131.84</ele>
        <time>2026-05-15T05:17:23Z</time>
      </trkpt>
      <trkpt lat="44.8017" lon="1.62509">
        <ele>131.84</ele>
        <time>2026-05-15T05:17:38Z</time>
      </trkpt>
      <trkpt lat="44.80159" lon="1.62521">
        <ele>133.28</ele>
        <time>2026-05-15T05:17:47Z</time>
      </trkpt>
      <trkpt lat="44.80158" lon="1.62523">
        <ele>133.28</ele>
        <time>2026-05-15T05:17:49Z</time>
      </trkpt>
      <trkpt lat="44.80152" lon="1.62538">
        <ele>133.28</ele>
        <time>2026-05-15T05:17:57Z</time>
      </trkpt>
      <trkpt lat="44.80142" lon="1.62562">
        <ele>133.76</ele>
        <time>2026-05-15T05:18:13Z</time>
      </trkpt>
      <trkpt lat="44.80132" lon="1.62588">
        <ele>133.76</ele>
        <time>2026-05-15T05:18:29Z</time>
      </trkpt>
      <trkpt lat="44.80129" lon="1.62602">
        <ele>134.24</ele>
        <time>2026-05-15T05:18:37Z</time>
      </trkpt>
      <trkpt lat="44.80113" lon="1.62628">
        <ele>134.24</ele>
        <time>2026-05-15T05:18:52Z</time>
      </trkpt>
      <trkpt lat="44.80107" lon="1.62655">
        <ele>134.72</ele>
        <time>2026-05-15T05:19:08Z</time>
      </trkpt>
      <trkpt lat="44.80102" lon="1.62679">
        <ele>134.72</ele>
        <time>2026-05-15T05:19:22Z</time>
      </trkpt>
      <trkpt lat="44.80099" lon="1.6269">
        <ele>135.2</ele>
        <time>2026-05-15T05:19:27Z</time>
      </trkpt>
      <trkpt lat="44.80099" lon="1.62694">
        <ele>135.2</ele>
        <time>2026-05-15T05:19:29Z</time>
      </trkpt>
      <trkpt lat="44.80097" lon="1.62697">
        <ele>135.2</ele>
        <time>2026-05-15T05:19:30Z</time>
      </trkpt>
      <trkpt lat="44.80089" lon="1.62719">
        <ele>135.2</ele>
        <time>2026-05-15T05:19:43Z</time>
      </trkpt>
      <trkpt lat="44.80091" lon="1.62724">
        <ele>135.2</ele>
        <time>2026-05-15T05:19:46Z</time>
      </trkpt>
      <trkpt lat="44.80088" lon="1.62742">
        <ele>135.2</ele>
        <time>2026-05-15T05:19:58Z</time>
      </trkpt>
      <trkpt lat="44.80088" lon="1.62749">
        <ele>135.2</ele>
        <time>2026-05-15T05:20:02Z</time>
      </trkpt>
      <trkpt lat="44.80086" lon="1.6277">
        <ele>136.16</ele>
        <time>2026-05-15T05:20:14Z</time>
      </trkpt>
      <trkpt lat="44.80086" lon="1.62775">
        <ele>136.64</ele>
        <time>2026-05-15T05:20:16Z</time>
      </trkpt>
      <trkpt lat="44.80084" lon="1.62804">
        <ele>137.61</ele>
        <time>2026-05-15T05:20:33Z</time>
      </trkpt>
      <trkpt lat="44.80082" lon="1.62823">
        <ele>139.05</ele>
        <time>2026-05-15T05:20:44Z</time>
      </trkpt>
      <trkpt lat="44.80078" lon="1.62852">
        <ele>138.57</ele>
        <time>2026-05-15T05:21:00Z</time>
      </trkpt>
      <trkpt lat="44.80077" lon="1.62888">
        <ele>139.05</ele>
        <time>2026-05-15T05:21:18Z</time>
      </trkpt>
      <trkpt lat="44.80077" lon="1.62891">
        <ele>137.13</ele>
        <time>2026-05-15T05:21:20Z</time>
      </trkpt>
      <trkpt lat="44.80067" lon="1.62926">
        <ele>138.09</ele>
        <time>2026-05-15T05:21:39Z</time>
      </trkpt>
      <trkpt lat="44.80065" lon="1.62928">
        <ele>138.09</ele>
        <time>2026-05-15T05:21:40Z</time>
      </trkpt>
      <trkpt lat="44.80051" lon="1.62966">
        <ele>136.64</ele>
        <time>2026-05-15T05:22:01Z</time>
      </trkpt>
      <trkpt lat="44.80038" lon="1.62992">
        <ele>136.64</ele>
        <time>2026-05-15T05:22:16Z</time>
      </trkpt>
      <trkpt lat="44.80031" lon="1.63023">
        <ele>138.09</ele>
        <time>2026-05-15T05:22:35Z</time>
      </trkpt>
      <trkpt lat="44.80018" lon="1.63055">
        <ele>137.61</ele>
        <time>2026-05-15T05:22:55Z</time>
      </trkpt>
      <trkpt lat="44.80008" lon="1.63087">
        <ele>138.09</ele>
        <time>2026-05-15T05:23:15Z</time>
      </trkpt>
      <trkpt lat="44.79995" lon="1.63118">
        <ele>138.57</ele>
        <time>2026-05-15T05:23:33Z</time>
      </trkpt>
      <trkpt lat="44.79984" lon="1.63148">
        <ele>137.61</ele>
        <time>2026-05-15T05:23:50Z</time>
      </trkpt>
      <trkpt lat="44.79969" lon="1.6318">
        <ele>135.2</ele>
        <time>2026-05-15T05:24:11Z</time>
      </trkpt>
      <trkpt lat="44.7997" lon="1.63218">
        <ele>134.72</ele>
        <time>2026-05-15T05:24:30Z</time>
      </trkpt>
      <trkpt lat="44.79967" lon="1.63254">
        <ele>137.13</ele>
        <time>2026-05-15T05:24:49Z</time>
      </trkpt>
      <trkpt lat="44.7995" lon="1.63274">
        <ele>140.01</ele>
        <time>2026-05-15T05:25:06Z</time>
      </trkpt>
      <trkpt lat="44.79949" lon="1.63298">
        <ele>140.97</ele>
        <time>2026-05-15T05:25:21Z</time>
      </trkpt>
      <trkpt lat="44.79951" lon="1.63307">
        <ele>142.41</ele>
        <time>2026-05-15T05:25:26Z</time>
      </trkpt>
      <trkpt lat="44.79954" lon="1.63347">
        <ele>143.37</ele>
        <time>2026-05-15T05:25:47Z</time>
      </trkpt>
      <trkpt lat="44.79955" lon="1.63384">
        <ele>140.49</ele>
        <time>2026-05-15T05:26:06Z</time>
      </trkpt>
      <trkpt lat="44.79952" lon="1.63402">
        <ele>139.53</ele>
        <time>2026-05-15T05:26:16Z</time>
      </trkpt>
      <trkpt lat="44.79952" lon="1.63441">
        <ele>138.57</ele>
        <time>2026-05-15T05:26:36Z</time>
      </trkpt>
      <trkpt lat="44.79939" lon="1.63475">
        <ele>138.09</ele>
        <time>2026-05-15T05:26:55Z</time>
      </trkpt>
      <trkpt lat="44.79928" lon="1.6351">
        <ele>138.09</ele>
        <time>2026-05-15T05:27:15Z</time>
      </trkpt>
      <trkpt lat="44.79922" lon="1.63542">
        <ele>138.09</ele>
        <time>2026-05-15T05:27:35Z</time>
      </trkpt>
      <trkpt lat="44.79907" lon="1.63574">
        <ele>137.61</ele>
        <time>2026-05-15T05:27:56Z</time>
      </trkpt>
      <trkpt lat="44.79881" lon="1.63587">
        <ele>136.16</ele>
        <time>2026-05-15T05:28:15Z</time>
      </trkpt>
      <trkpt lat="44.79854" lon="1.63603">
        <ele>134.72</ele>
        <time>2026-05-15T05:28:36Z</time>
      </trkpt>
      <trkpt lat="44.79827" lon="1.63618">
        <ele>134.72</ele>
        <time>2026-05-15T05:28:57Z</time>
      </trkpt>
      <trkpt lat="44.79803" lon="1.63622">
        <ele>136.64</ele>
        <time>2026-05-15T05:29:18Z</time>
      </trkpt>
      <trkpt lat="44.79778" lon="1.63618">
        <ele>138.09</ele>
        <time>2026-05-15T05:29:39Z</time>
      </trkpt>
      <trkpt lat="44.79762" lon="1.63613">
        <ele>135.68</ele>
        <time>2026-05-15T05:29:53Z</time>
      </trkpt>
      <trkpt lat="44.79734" lon="1.63599">
        <ele>136.64</ele>
        <time>2026-05-15T05:30:13Z</time>
      </trkpt>
      <trkpt lat="44.79705" lon="1.63585">
        <ele>135.68</ele>
        <time>2026-05-15T05:30:35Z</time>
      </trkpt>
      <trkpt lat="44.79683" lon="1.63588">
        <ele>136.16</ele>
        <time>2026-05-15T05:30:54Z</time>
      </trkpt>
      <trkpt lat="44.79659" lon="1.63597">
        <ele>136.16</ele>
        <time>2026-05-15T05:31:14Z</time>
      </trkpt>
      <trkpt lat="44.79649" lon="1.636">
        <ele>137.61</ele>
        <time>2026-05-15T05:31:23Z</time>
      </trkpt>
      <trkpt lat="44.79625" lon="1.63621">
        <ele>138.57</ele>
        <time>2026-05-15T05:31:44Z</time>
      </trkpt>
      <trkpt lat="44.79605" lon="1.63644">
        <ele>138.09</ele>
        <time>2026-05-15T05:32:04Z</time>
      </trkpt>
      <trkpt lat="44.79585" lon="1.63679">
        <ele>139.53</ele>
        <time>2026-05-15T05:32:27Z</time>
      </trkpt>
      <trkpt lat="44.79573" lon="1.63708">
        <ele>141.45</ele>
        <time>2026-05-15T05:32:48Z</time>
      </trkpt>
      <trkpt lat="44.79561" lon="1.63742">
        <ele>142.41</ele>
        <time>2026-05-15T05:33:09Z</time>
      </trkpt>
      <trkpt lat="44.7955" lon="1.63776">
        <ele>143.85</ele>
        <time>2026-05-15T05:33:30Z</time>
      </trkpt>
      <trkpt lat="44.79541" lon="1.63807">
        <ele>143.37</ele>
        <time>2026-05-15T05:33:47Z</time>
      </trkpt>
      <trkpt lat="44.79534" lon="1.63836">
        <ele>140.97</ele>
        <time>2026-05-15T05:34:04Z</time>
      </trkpt>
      <trkpt lat="44.79528" lon="1.63859">
        <ele>140.49</ele>
        <time>2026-05-15T05:34:17Z</time>
      </trkpt>
      <trkpt lat="44.79521" lon="1.63899">
        <ele>140.49</ele>
        <time>2026-05-15T05:34:38Z</time>
      </trkpt>
      <trkpt lat="44.79512" lon="1.63932">
        <ele>140.49</ele>
        <time>2026-05-15T05:34:57Z</time>
      </trkpt>
      <trkpt lat="44.79499" lon="1.6396">
        <ele>140.01</ele>
        <time>2026-05-15T05:35:15Z</time>
      </trkpt>
      <trkpt lat="44.79489" lon="1.63979">
        <ele>139.53</ele>
        <time>2026-05-15T05:35:27Z</time>
      </trkpt>
      <trkpt lat="44.7948" lon="1.64006">
        <ele>139.05</ele>
        <time>2026-05-15T05:35:45Z</time>
      </trkpt>
      <trkpt lat="44.79475" lon="1.64046">
        <ele>140.49</ele>
        <time>2026-05-15T05:36:05Z</time>
      </trkpt>
      <trkpt lat="44.7947" lon="1.64083">
        <ele>139.05</ele>
        <time>2026-05-15T05:36:26Z</time>
      </trkpt>
      <trkpt lat="44.7948" lon="1.64105">
        <ele>139.05</ele>
        <time>2026-05-15T05:36:38Z</time>
      </trkpt>
      <trkpt lat="44.79496" lon="1.64145">
        <ele>140.01</ele>
        <time>2026-05-15T05:37:01Z</time>
      </trkpt>
      <trkpt lat="44.79511" lon="1.64178">
        <ele>140.97</ele>
        <time>2026-05-15T05:37:23Z</time>
      </trkpt>
      <trkpt lat="44.79527" lon="1.64202">
        <ele>144.34</ele>
        <time>2026-05-15T05:37:43Z</time>
      </trkpt>
      <trkpt lat="44.79543" lon="1.64226">
        <ele>143.37</ele>
        <time>2026-05-15T05:38:01Z</time>
      </trkpt>
      <trkpt lat="44.79563" lon="1.64253">
        <ele>145.78</ele>
        <time>2026-05-15T05:38:21Z</time>
      </trkpt>
      <trkpt lat="44.79571" lon="1.64266">
        <ele>146.26</ele>
        <time>2026-05-15T05:38:32Z</time>
      </trkpt>
      <trkpt lat="44.79598" lon="1.64289">
        <ele>146.74</ele>
        <time>2026-05-15T05:38:54Z</time>
      </trkpt>
      <trkpt lat="44.79624" lon="1.64288">
        <ele>147.22</ele>
        <time>2026-05-15T05:39:13Z</time>
      </trkpt>
      <trkpt lat="44.79639" lon="1.64278">
        <ele>148.18</ele>
        <time>2026-05-15T05:39:30Z</time>
      </trkpt>
      <trkpt lat="44.79659" lon="1.64263">
        <ele>149.14</ele>
        <time>2026-05-15T05:39:48Z</time>
      </trkpt>
      <trkpt lat="44.79663" lon="1.6426">
        <ele>150.58</ele>
        <time>2026-05-15T05:39:51Z</time>
      </trkpt>
      <trkpt lat="44.7968" lon="1.64244">
        <ele>152.03</ele>
        <time>2026-05-15T05:40:08Z</time>
      </trkpt>
      <trkpt lat="44.79692" lon="1.64235">
        <ele>151.06</ele>
        <time>2026-05-15T05:40:18Z</time>
      </trkpt>
      <trkpt lat="44.79706" lon="1.64228">
        <ele>150.58</ele>
        <time>2026-05-15T05:40:31Z</time>
      </trkpt>
      <trkpt lat="44.79721" lon="1.64229">
        <ele>146.74</ele>
        <time>2026-05-15T05:40:45Z</time>
      </trkpt>
      <trkpt lat="44.79722" lon="1.64229">
        <ele>150.1</ele>
        <time>2026-05-15T05:40:46Z</time>
      </trkpt>
      <trkpt lat="44.79729" lon="1.6423">
        <ele>148.66</ele>
        <time>2026-05-15T05:40:51Z</time>
      </trkpt>
      <trkpt lat="44.79733" lon="1.64231">
        <ele>148.18</ele>
        <time>2026-05-15T05:41:11Z</time>
      </trkpt>
      <trkpt lat="44.79756" lon="1.64229">
        <ele>148.18</ele>
        <time>2026-05-15T05:41:28Z</time>
      </trkpt>
      <trkpt lat="44.79777" lon="1.64227">
        <ele>149.62</ele>
        <time>2026-05-15T05:41:47Z</time>
      </trkpt>
      <trkpt lat="44.79811" lon="1.64227">
        <ele>151.54</ele>
        <time>2026-05-15T05:42:10Z</time>
      </trkpt>
      <trkpt lat="44.79834" lon="1.64214">
        <ele>150.1</ele>
        <time>2026-05-15T05:42:26Z</time>
      </trkpt>
      <trkpt lat="44.79844" lon="1.64199">
        <ele>146.74</ele>
        <time>2026-05-15T05:42:42Z</time>
      </trkpt>
      <trkpt lat="44.7987" lon="1.64192">
        <ele>146.74</ele>
        <time>2026-05-15T05:43:02Z</time>
      </trkpt>
      <trkpt lat="44.79896" lon="1.64221">
        <ele>143.85</ele>
        <time>2026-05-15T05:43:23Z</time>
      </trkpt>
      <trkpt lat="44.7991" lon="1.64254">
        <ele>142.89</ele>
        <time>2026-05-15T05:43:42Z</time>
      </trkpt>
      <trkpt lat="44.79911" lon="1.64257">
        <ele>143.85</ele>
        <time>2026-05-15T05:43:44Z</time>
      </trkpt>
      <trkpt lat="44.7992" lon="1.6428">
        <ele>146.26</ele>
        <time>2026-05-15T05:44:01Z</time>
      </trkpt>
      <trkpt lat="44.79925" lon="1.64296">
        <ele>147.7</ele>
        <time>2026-05-15T05:44:11Z</time>
      </trkpt>
      <trkpt lat="44.79927" lon="1.64303">
        <ele>148.18</ele>
        <time>2026-05-15T05:44:15Z</time>
      </trkpt>
      <trkpt lat="44.79929" lon="1.64328">
        <ele>149.14</ele>
        <time>2026-05-15T05:44:33Z</time>
      </trkpt>
      <trkpt lat="44.79928" lon="1.64334">
        <ele>148.66</ele>
        <time>2026-05-15T05:44:55Z</time>
      </trkpt>
      <trkpt lat="44.79929" lon="1.64338">
        <ele>150.1</ele>
        <time>2026-05-15T05:45:02Z</time>
      </trkpt>
      <trkpt lat="44.79932" lon="1.64342">
        <ele>148.66</ele>
        <time>2026-05-15T05:45:29Z</time>
      </trkpt>
      <trkpt lat="44.79925" lon="1.64369">
        <ele>147.22</ele>
        <time>2026-05-15T05:45:49Z</time>
      </trkpt>
      <trkpt lat="44.79925" lon="1.64372">
        <ele>147.22</ele>
        <time>2026-05-15T05:45:51Z</time>
      </trkpt>
      <trkpt lat="44.79925" lon="1.64378">
        <ele>146.26</ele>
        <time>2026-05-15T05:45:55Z</time>
      </trkpt>
      <trkpt lat="44.79924" lon="1.64413">
        <ele>145.3</ele>
        <time>2026-05-15T05:46:14Z</time>
      </trkpt>
      <trkpt lat="44.7993" lon="1.64446">
        <ele>146.74</ele>
        <time>2026-05-15T05:46:33Z</time>
      </trkpt>
      <trkpt lat="44.79937" lon="1.64486">
        <ele>146.74</ele>
        <time>2026-05-15T05:46:55Z</time>
      </trkpt>
      <trkpt lat="44.79943" lon="1.64522">
        <ele>147.7</ele>
        <time>2026-05-15T05:47:15Z</time>
      </trkpt>
      <trkpt lat="44.79944" lon="1.64556">
        <ele>147.7</ele>
        <time>2026-05-15T05:47:33Z</time>
      </trkpt>
      <trkpt lat="44.79949" lon="1.64589">
        <ele>148.18</ele>
        <time>2026-05-15T05:47:51Z</time>
      </trkpt>
      <trkpt lat="44.79949" lon="1.64592">
        <ele>148.18</ele>
        <time>2026-05-15T05:47:53Z</time>
      </trkpt>
      <trkpt lat="44.79948" lon="1.64624">
        <ele>150.1</ele>
        <time>2026-05-15T05:48:12Z</time>
      </trkpt>
      <trkpt lat="44.7995" lon="1.64633">
        <ele>150.1</ele>
        <time>2026-05-15T05:48:17Z</time>
      </trkpt>
      <trkpt lat="44.79957" lon="1.64667">
        <ele>150.58</ele>
        <time>2026-05-15T05:48:35Z</time>
      </trkpt>
      <trkpt lat="44.79957" lon="1.6467">
        <ele>149.14</ele>
        <time>2026-05-15T05:48:37Z</time>
      </trkpt>
      <trkpt lat="44.79963" lon="1.64688">
        <ele>146.26</ele>
        <time>2026-05-15T05:48:52Z</time>
      </trkpt>
      <trkpt lat="44.79964" lon="1.6469">
        <ele>146.26</ele>
        <time>2026-05-15T05:48:53Z</time>
      </trkpt>
      <trkpt lat="44.79971" lon="1.64703">
        <ele>146.26</ele>
        <time>2026-05-15T05:48:57Z</time>
      </trkpt>
      <trkpt lat="44.79984" lon="1.64742">
        <ele>145.3</ele>
        <time>2026-05-15T05:49:19Z</time>
      </trkpt>
      <trkpt lat="44.79986" lon="1.6475">
        <ele>146.74</ele>
        <time>2026-05-15T05:49:25Z</time>
      </trkpt>
      <trkpt lat="44.79993" lon="1.64774">
        <ele>147.22</ele>
        <time>2026-05-15T05:49:42Z</time>
      </trkpt>
      <trkpt lat="44.79998" lon="1.64809">
        <ele>147.22</ele>
        <time>2026-05-15T05:50:02Z</time>
      </trkpt>
      <trkpt lat="44.80004" lon="1.64832">
        <ele>148.66</ele>
        <time>2026-05-15T05:50:17Z</time>
      </trkpt>
      <trkpt lat="44.79998" lon="1.64865">
        <ele>148.18</ele>
        <time>2026-05-15T05:50:36Z</time>
      </trkpt>
      <trkpt lat="44.7999" lon="1.64874">
        <ele>146.74</ele>
        <time>2026-05-15T05:50:42Z</time>
      </trkpt>
      <trkpt lat="44.79985" lon="1.64889">
        <ele>148.18</ele>
        <time>2026-05-15T05:50:52Z</time>
      </trkpt>
      <trkpt lat="44.79969" lon="1.64914">
        <ele>145.78</ele>
        <time>2026-05-15T05:51:14Z</time>
      </trkpt>
      <trkpt lat="44.79958" lon="1.64946">
        <ele>144.34</ele>
        <time>2026-05-15T05:51:34Z</time>
      </trkpt>
      <trkpt lat="44.79956" lon="1.64973">
        <ele>144.82</ele>
        <time>2026-05-15T05:51:55Z</time>
      </trkpt>
      <trkpt lat="44.79966" lon="1.65011">
        <ele>145.78</ele>
        <time>2026-05-15T05:52:19Z</time>
      </trkpt>
      <trkpt lat="44.79977" lon="1.65032">
        <ele>146.26</ele>
        <time>2026-05-15T05:52:40Z</time>
      </trkpt>
      <trkpt lat="44.79962" lon="1.65042">
        <ele>145.78</ele>
        <time>2026-05-15T05:53:02Z</time>
      </trkpt>
      <trkpt lat="44.79951" lon="1.65054">
        <ele>146.74</ele>
        <time>2026-05-15T05:53:19Z</time>
      </trkpt>
      <trkpt lat="44.79961" lon="1.6508">
        <ele>147.22</ele>
        <time>2026-05-15T05:53:38Z</time>
      </trkpt>
      <trkpt lat="44.79975" lon="1.65113">
        <ele>146.74</ele>
        <time>2026-05-15T05:54:03Z</time>
      </trkpt>
      <trkpt lat="44.8" lon="1.65144">
        <ele>147.7</ele>
        <time>2026-05-15T05:54:26Z</time>
      </trkpt>
      <trkpt lat="44.79998" lon="1.65168">
        <ele>146.26</ele>
        <time>2026-05-15T05:54:41Z</time>
      </trkpt>
      <trkpt lat="44.79995" lon="1.65199">
        <ele>146.26</ele>
        <time>2026-05-15T05:54:59Z</time>
      </trkpt>
      <trkpt lat="44.7999" lon="1.65229">
        <ele>148.18</ele>
        <time>2026-05-15T05:55:18Z</time>
      </trkpt>
      <trkpt lat="44.79973" lon="1.65248">
        <ele>148.18</ele>
        <time>2026-05-15T05:55:38Z</time>
      </trkpt>
      <trkpt lat="44.79967" lon="1.65244">
        <ele>145.78</ele>
        <time>2026-05-15T05:56:00Z</time>
      </trkpt>
      <trkpt lat="44.79967" lon="1.65245">
        <ele>149.14</ele>
        <time>2026-05-15T05:56:01Z</time>
      </trkpt>
      <trkpt lat="44.79952" lon="1.65254">
        <ele>148.66</ele>
        <time>2026-05-15T05:56:23Z</time>
      </trkpt>
      <trkpt lat="44.79915" lon="1.65278">
        <ele>149.14</ele>
        <time>2026-05-15T05:56:50Z</time>
      </trkpt>
      <trkpt lat="44.79901" lon="1.65293">
        <ele>149.62</ele>
        <time>2026-05-15T05:57:08Z</time>
      </trkpt>
      <trkpt lat="44.79889" lon="1.65313">
        <ele>151.54</ele>
        <time>2026-05-15T05:57:30Z</time>
      </trkpt>
      <trkpt lat="44.79886" lon="1.65326">
        <ele>155.39</ele>
        <time>2026-05-15T05:57:44Z</time>
      </trkpt>
      <trkpt lat="44.79883" lon="1.65345">
        <ele>156.35</ele>
        <time>2026-05-15T05:58:01Z</time>
      </trkpt>
      <trkpt lat="44.79872" lon="1.65372">
        <ele>158.27</ele>
        <time>2026-05-15T05:58:22Z</time>
      </trkpt>
      <trkpt lat="44.79868" lon="1.65402">
        <ele>161.16</ele>
        <time>2026-05-15T05:58:44Z</time>
      </trkpt>
      <trkpt lat="44.79867" lon="1.65421">
        <ele>161.16</ele>
        <time>2026-05-15T05:58:58Z</time>
      </trkpt>
      <trkpt lat="44.79864" lon="1.65435">
        <ele>159.72</ele>
        <time>2026-05-15T05:59:09Z</time>
      </trkpt>
      <trkpt lat="44.79865" lon="1.6544">
        <ele>156.83</ele>
        <time>2026-05-15T05:59:17Z</time>
      </trkpt>
      <trkpt lat="44.79865" lon="1.65457">
        <ele>153.47</ele>
        <time>2026-05-15T05:59:31Z</time>
      </trkpt>
      <trkpt lat="44.79877" lon="1.65484">
        <ele>151.54</ele>
        <time>2026-05-15T05:59:51Z</time>
      </trkpt>
      <trkpt lat="44.79884" lon="1.65498">
        <ele>153.47</ele>
        <time>2026-05-15T06:00:05Z</time>
      </trkpt>
      <trkpt lat="44.79892" lon="1.65511">
        <ele>153.47</ele>
        <time>2026-05-15T06:00:29Z</time>
      </trkpt>
      <trkpt lat="44.79893" lon="1.65509">
        <ele>152.51</ele>
        <time>2026-05-15T06:00:32Z</time>
      </trkpt>
      <trkpt lat="44.799" lon="1.655">
        <ele>152.51</ele>
        <time>2026-05-15T06:00:49Z</time>
      </trkpt>
      <trkpt lat="44.79889" lon="1.65525">
        <ele>151.54</ele>
        <time>2026-05-15T06:01:11Z</time>
      </trkpt>
      <trkpt lat="44.79889" lon="1.65525">
        <ele>151.54</ele>
        <time>2026-05-15T06:01:12Z</time>
      </trkpt>
      <trkpt lat="44.79887" lon="1.65523">
        <ele>153.95</ele>
        <time>2026-05-15T06:01:15Z</time>
      </trkpt>
      <trkpt lat="44.79886" lon="1.65525">
        <ele>153.47</ele>
        <time>2026-05-15T06:01:27Z</time>
      </trkpt>
      <trkpt lat="44.79874" lon="1.65542">
        <ele>153.47</ele>
        <time>2026-05-15T06:01:46Z</time>
      </trkpt>
      <trkpt lat="44.79874" lon="1.65565">
        <ele>156.83</ele>
        <time>2026-05-15T06:02:03Z</time>
      </trkpt>
      <trkpt lat="44.79869" lon="1.65577">
        <ele>158.27</ele>
        <time>2026-05-15T06:02:11Z</time>
      </trkpt>
      <trkpt lat="44.79865" lon="1.65588">
        <ele>160.2</ele>
        <time>2026-05-15T06:02:25Z</time>
      </trkpt>
      <trkpt lat="44.7986" lon="1.65599">
        <ele>161.16</ele>
        <time>2026-05-15T06:02:44Z</time>
      </trkpt>
      <trkpt lat="44.79868" lon="1.65612">
        <ele>161.16</ele>
        <time>2026-05-15T06:03:11Z</time>
      </trkpt>
      <trkpt lat="44.79867" lon="1.65609">
        <ele>160.68</ele>
        <time>2026-05-15T06:03:40Z</time>
      </trkpt>
      <trkpt lat="44.79876" lon="1.656">
        <ele>160.68</ele>
        <time>2026-05-15T06:04:02Z</time>
      </trkpt>
      <trkpt lat="44.79892" lon="1.65607">
        <ele>160.68</ele>
        <time>2026-05-15T06:04:26Z</time>
      </trkpt>
      <trkpt lat="44.79882" lon="1.65599">
        <ele>159.24</ele>
        <time>2026-05-15T06:04:44Z</time>
      </trkpt>
      <trkpt lat="44.79886" lon="1.65599">
        <ele>158.75</ele>
        <time>2026-05-15T06:05:07Z</time>
      </trkpt>
      <trkpt lat="44.7987" lon="1.65587">
        <ele>158.75</ele>
        <time>2026-05-15T06:05:33Z</time>
      </trkpt>
      <trkpt lat="44.79889" lon="1.65595">
        <ele>158.27</ele>
        <time>2026-05-15T06:06:05Z</time>
      </trkpt>
      <trkpt lat="44.79887" lon="1.65595">
        <ele>158.27</ele>
        <time>2026-05-15T06:06:25Z</time>
      </trkpt>
      <trkpt lat="44.79878" lon="1.65598">
        <ele>158.75</ele>
        <time>2026-05-15T06:06:52Z</time>
      </trkpt>
      <trkpt lat="44.79849" lon="1.65587">
        <ele>158.75</ele>
        <time>2026-05-15T06:07:23Z</time>
      </trkpt>
      <trkpt lat="44.79846" lon="1.65587">
        <ele>158.75</ele>
        <time>2026-05-15T06:07:51Z</time>
      </trkpt>
      <trkpt lat="44.79864" lon="1.65598">
        <ele>158.75</ele>
        <time>2026-05-15T06:08:23Z</time>
      </trkpt>
      <trkpt lat="44.79861" lon="1.6559">
        <ele>158.75</ele>
        <time>2026-05-15T06:08:46Z</time>
      </trkpt>
      <trkpt lat="44.79859" lon="1.65593">
        <ele>155.39</ele>
        <time>2026-05-15T06:08:59Z</time>
      </trkpt>
      <trkpt lat="44.79858" lon="1.65593">
        <ele>155.39</ele>
        <time>2026-05-15T06:09:00Z</time>
      </trkpt>
      <trkpt lat="44.79858" lon="1.65593">
        <ele>161.16</ele>
        <time>2026-05-15T06:09:01Z</time>
      </trkpt>
      <trkpt lat="44.79858" lon="1.65594">
        <ele>159.72</ele>
        <time>2026-05-15T06:09:02Z</time>
      </trkpt>
      <trkpt lat="44.79866" lon="1.65591">
        <ele>158.75</ele>
        <time>2026-05-15T06:09:26Z</time>
      </trkpt>
      <trkpt lat="44.79871" lon="1.65594">
        <ele>158.75</ele>
        <time>2026-05-15T06:09:49Z</time>
      </trkpt>
      <trkpt lat="44.79867" lon="1.65615">
        <ele>158.75</ele>
        <time>2026-05-15T06:10:14Z</time>
      </trkpt>
      <trkpt lat="44.79864" lon="1.65616">
        <ele>158.75</ele>
        <time>2026-05-15T06:10:35Z</time>
      </trkpt>
      <trkpt lat="44.7988" lon="1.65589">
        <ele>158.75</ele>
        <time>2026-05-15T06:10:57Z</time>
      </trkpt>
      <trkpt lat="44.79873" lon="1.6559">
        <ele>158.27</ele>
        <time>2026-05-15T06:11:16Z</time>
      </trkpt>
      <trkpt lat="44.7987" lon="1.65607">
        <ele>158.27</ele>
        <time>2026-05-15T06:11:35Z</time>
      </trkpt>
      <trkpt lat="44.79871" lon="1.6561">
        <ele>159.24</ele>
        <time>2026-05-15T06:11:58Z</time>
      </trkpt>
      <trkpt lat="44.79866" lon="1.65607">
        <ele>159.24</ele>
        <time>2026-05-15T06:12:21Z</time>
      </trkpt>
      <trkpt lat="44.79865" lon="1.656">
        <ele>159.24</ele>
        <time>2026-05-15T06:12:43Z</time>
      </trkpt>
      <trkpt lat="44.79861" lon="1.65603">
        <ele>159.24</ele>
        <time>2026-05-15T06:13:05Z</time>
      </trkpt>
      <trkpt lat="44.79864" lon="1.65609">
        <ele>159.72</ele>
        <time>2026-05-15T06:13:30Z</time>
      </trkpt>
      <trkpt lat="44.79871" lon="1.65604">
        <ele>157.79</ele>
        <time>2026-05-15T06:13:57Z</time>
      </trkpt>
      <trkpt lat="44.7987" lon="1.65603">
        <ele>154.91</ele>
        <time>2026-05-15T06:14:07Z</time>
      </trkpt>
      <trkpt lat="44.7987" lon="1.65602">
        <ele>153.47</ele>
        <time>2026-05-15T06:14:11Z</time>
      </trkpt>
      <trkpt lat="44.79861" lon="1.65615">
        <ele>152.03</ele>
        <time>2026-05-15T06:14:30Z</time>
      </trkpt>
      <trkpt lat="44.79868" lon="1.65632">
        <ele>153.95</ele>
        <time>2026-05-15T06:14:48Z</time>
      </trkpt>
      <trkpt lat="44.79888" lon="1.65635">
        <ele>153.47</ele>
        <time>2026-05-15T06:15:06Z</time>
      </trkpt>
      <trkpt lat="44.79903" lon="1.65628">
        <ele>153.47</ele>
        <time>2026-05-15T06:15:22Z</time>
      </trkpt>
      <trkpt lat="44.79923" lon="1.65632">
        <ele>153.95</ele>
        <time>2026-05-15T06:15:40Z</time>
      </trkpt>
      <trkpt lat="44.7994" lon="1.65641">
        <ele>155.39</ele>
        <time>2026-05-15T06:15:58Z</time>
      </trkpt>
      <trkpt lat="44.79957" lon="1.65645">
        <ele>155.39</ele>
        <time>2026-05-15T06:16:15Z</time>
      </trkpt>
      <trkpt lat="44.7998" lon="1.65647">
        <ele>155.87</ele>
        <time>2026-05-15T06:16:31Z</time>
      </trkpt>
      <trkpt lat="44.79993" lon="1.65653">
        <ele>155.87</ele>
        <time>2026-05-15T06:16:46Z</time>
      </trkpt>
      <trkpt lat="44.80004" lon="1.65649">
        <ele>157.31</ele>
        <time>2026-05-15T06:16:59Z</time>
      </trkpt>
      <trkpt lat="44.80009" lon="1.65658">
        <ele>155.87</ele>
        <time>2026-05-15T06:17:08Z</time>
      </trkpt>
      <trkpt lat="44.80017" lon="1.65675">
        <ele>155.87</ele>
        <time>2026-05-15T06:17:22Z</time>
      </trkpt>
      <trkpt lat="44.8003" lon="1.65703">
        <ele>155.87</ele>
        <time>2026-05-15T06:17:41Z</time>
      </trkpt>
      <trkpt lat="44.80038" lon="1.65721">
        <ele>157.31</ele>
        <time>2026-05-15T06:17:54Z</time>
      </trkpt>
      <trkpt lat="44.8005" lon="1.65741">
        <ele>159.72</ele>
        <time>2026-05-15T06:18:12Z</time>
      </trkpt>
      <trkpt lat="44.80061" lon="1.65765">
        <ele>160.68</ele>
        <time>2026-05-15T06:18:31Z</time>
      </trkpt>
      <trkpt lat="44.80061" lon="1.65769">
        <ele>159.24</ele>
        <time>2026-05-15T06:18:35Z</time>
      </trkpt>
      <trkpt lat="44.80064" lon="1.65776">
        <ele>159.72</ele>
        <time>2026-05-15T06:18:50Z</time>
      </trkpt>
      <trkpt lat="44.80067" lon="1.65778">
        <ele>158.27</ele>
        <time>2026-05-15T06:18:58Z</time>
      </trkpt>
      <trkpt lat="44.80068" lon="1.65795">
        <ele>157.79</ele>
        <time>2026-05-15T06:19:13Z</time>
      </trkpt>
      <trkpt lat="44.80066" lon="1.65807">
        <ele>157.79</ele>
        <time>2026-05-15T06:19:30Z</time>
      </trkpt>
      <trkpt lat="44.80063" lon="1.65812">
        <ele>159.24</ele>
        <time>2026-05-15T06:19:37Z</time>
      </trkpt>
      <trkpt lat="44.80061" lon="1.65816">
        <ele>157.79</ele>
        <time>2026-05-15T06:19:39Z</time>
      </trkpt>
      <trkpt lat="44.80055" lon="1.6584">
        <ele>159.72</ele>
        <time>2026-05-15T06:20:03Z</time>
      </trkpt>
      <trkpt lat="44.80038" lon="1.65869">
        <ele>159.72</ele>
        <time>2026-05-15T06:20:25Z</time>
      </trkpt>
      <trkpt lat="44.8003" lon="1.65887">
        <ele>158.27</ele>
        <time>2026-05-15T06:20:45Z</time>
      </trkpt>
      <trkpt lat="44.8003" lon="1.65888">
        <ele>160.2</ele>
        <time>2026-05-15T06:20:46Z</time>
      </trkpt>
      <trkpt lat="44.8003" lon="1.65892">
        <ele>158.75</ele>
        <time>2026-05-15T06:20:50Z</time>
      </trkpt>
      <trkpt lat="44.80029" lon="1.65893">
        <ele>160.2</ele>
        <time>2026-05-15T06:20:51Z</time>
      </trkpt>
      <trkpt lat="44.80028" lon="1.65907">
        <ele>162.12</ele>
        <time>2026-05-15T06:21:13Z</time>
      </trkpt>
      <trkpt lat="44.80026" lon="1.65917">
        <ele>165.48</ele>
        <time>2026-05-15T06:21:25Z</time>
      </trkpt>
      <trkpt lat="44.80017" lon="1.65936">
        <ele>166.45</ele>
        <time>2026-05-15T06:21:42Z</time>
      </trkpt>
      <trkpt lat="44.80012" lon="1.65938">
        <ele>165</ele>
        <time>2026-05-15T06:21:46Z</time>
      </trkpt>
      <trkpt lat="44.79992" lon="1.65956">
        <ele>161.64</ele>
        <time>2026-05-15T06:22:08Z</time>
      </trkpt>
      <trkpt lat="44.79982" lon="1.65972">
        <ele>160.68</ele>
        <time>2026-05-15T06:22:22Z</time>
      </trkpt>
      <trkpt lat="44.79972" lon="1.66011">
        <ele>162.12</ele>
        <time>2026-05-15T06:22:47Z</time>
      </trkpt>
      <trkpt lat="44.79971" lon="1.66015">
        <ele>161.64</ele>
        <time>2026-05-15T06:22:51Z</time>
      </trkpt>
      <trkpt lat="44.79967" lon="1.66034">
        <ele>160.68</ele>
        <time>2026-05-15T06:23:05Z</time>
      </trkpt>
      <trkpt lat="44.79968" lon="1.66036">
        <ele>163.08</ele>
        <time>2026-05-15T06:23:07Z</time>
      </trkpt>
      <trkpt lat="44.79967" lon="1.66049">
        <ele>161.16</ele>
        <time>2026-05-15T06:23:14Z</time>
      </trkpt>
      <trkpt lat="44.79956" lon="1.66079">
        <ele>162.12</ele>
        <time>2026-05-15T06:23:35Z</time>
      </trkpt>
      <trkpt lat="44.79941" lon="1.6611">
        <ele>162.12</ele>
        <time>2026-05-15T06:23:57Z</time>
      </trkpt>
      <trkpt lat="44.79928" lon="1.66113">
        <ele>162.12</ele>
        <time>2026-05-15T06:24:06Z</time>
      </trkpt>
      <trkpt lat="44.79897" lon="1.66114">
        <ele>163.56</ele>
        <time>2026-05-15T06:24:30Z</time>
      </trkpt>
      <trkpt lat="44.79889" lon="1.66113">
        <ele>163.56</ele>
        <time>2026-05-15T06:24:36Z</time>
      </trkpt>
      <trkpt lat="44.79883" lon="1.6611">
        <ele>161.64</ele>
        <time>2026-05-15T06:24:43Z</time>
      </trkpt>
      <trkpt lat="44.7988" lon="1.66109">
        <ele>163.08</ele>
        <time>2026-05-15T06:24:45Z</time>
      </trkpt>
      <trkpt lat="44.79855" lon="1.66108">
        <ele>163.08</ele>
        <time>2026-05-15T06:25:04Z</time>
      </trkpt>
      <trkpt lat="44.79833" lon="1.66108">
        <ele>162.12</ele>
        <time>2026-05-15T06:25:23Z</time>
      </trkpt>
      <trkpt lat="44.79825" lon="1.6611">
        <ele>163.08</ele>
        <time>2026-05-15T06:25:29Z</time>
      </trkpt>
      <trkpt lat="44.7982" lon="1.66113">
        <ele>161.64</ele>
        <time>2026-05-15T06:25:34Z</time>
      </trkpt>
      <trkpt lat="44.79815" lon="1.66112">
        <ele>163.08</ele>
        <time>2026-05-15T06:25:38Z</time>
      </trkpt>
      <trkpt lat="44.79792" lon="1.66119">
        <ele>163.08</ele>
        <time>2026-05-15T06:25:57Z</time>
      </trkpt>
      <trkpt lat="44.79768" lon="1.6613">
        <ele>162.6</ele>
        <time>2026-05-15T06:26:19Z</time>
      </trkpt>
      <trkpt lat="44.79742" lon="1.66141">
        <ele>162.6</ele>
        <time>2026-05-15T06:26:41Z</time>
      </trkpt>
      <trkpt lat="44.79738" lon="1.66141">
        <ele>164.04</ele>
        <time>2026-05-15T06:26:44Z</time>
      </trkpt>
      <trkpt lat="44.7973" lon="1.66148">
        <ele>165</ele>
        <time>2026-05-15T06:26:53Z</time>
      </trkpt>
      <trkpt lat="44.79721" lon="1.66167">
        <ele>166.45</ele>
        <time>2026-05-15T06:27:05Z</time>
      </trkpt>
      <trkpt lat="44.79716" lon="1.66171">
        <ele>165.96</ele>
        <time>2026-05-15T06:27:09Z</time>
      </trkpt>
      <trkpt lat="44.79715" lon="1.66173">
        <ele>166.45</ele>
        <time>2026-05-15T06:27:27Z</time>
      </trkpt>
      <trkpt lat="44.79726" lon="1.66168">
        <ele>166.45</ele>
        <time>2026-05-15T06:27:51Z</time>
      </trkpt>
      <trkpt lat="44.79722" lon="1.66183">
        <ele>165.48</ele>
        <time>2026-05-15T06:28:13Z</time>
      </trkpt>
      <trkpt lat="44.79716" lon="1.66184">
        <ele>166.93</ele>
        <time>2026-05-15T06:28:16Z</time>
      </trkpt>
      <trkpt lat="44.79703" lon="1.66186">
        <ele>168.37</ele>
        <time>2026-05-15T06:28:23Z</time>
      </trkpt>
      <trkpt lat="44.7968" lon="1.66196">
        <ele>169.81</ele>
        <time>2026-05-15T06:28:41Z</time>
      </trkpt>
      <trkpt lat="44.79661" lon="1.66215">
        <ele>171.73</ele>
        <time>2026-05-15T06:29:01Z</time>
      </trkpt>
      <trkpt lat="44.79661" lon="1.66216">
        <ele>172.21</ele>
        <time>2026-05-15T06:29:02Z</time>
      </trkpt>
      <trkpt lat="44.79657" lon="1.66217">
        <ele>170.77</ele>
        <time>2026-05-15T06:29:05Z</time>
      </trkpt>
      <trkpt lat="44.79654" lon="1.66218">
        <ele>172.21</ele>
        <time>2026-05-15T06:29:07Z</time>
      </trkpt>
      <trkpt lat="44.79643" lon="1.66225">
        <ele>170.77</ele>
        <time>2026-05-15T06:29:16Z</time>
      </trkpt>
      <trkpt lat="44.79625" lon="1.66241">
        <ele>170.29</ele>
        <time>2026-05-15T06:29:33Z</time>
      </trkpt>
      <trkpt lat="44.79599" lon="1.66261">
        <ele>169.81</ele>
        <time>2026-05-15T06:29:54Z</time>
      </trkpt>
      <trkpt lat="44.79577" lon="1.66273">
        <ele>166.45</ele>
        <time>2026-05-15T06:30:15Z</time>
      </trkpt>
      <trkpt lat="44.79565" lon="1.66295">
        <ele>167.89</ele>
        <time>2026-05-15T06:30:36Z</time>
      </trkpt>
      <trkpt lat="44.79545" lon="1.66305">
        <ele>167.89</ele>
        <time>2026-05-15T06:30:57Z</time>
      </trkpt>
      <trkpt lat="44.79521" lon="1.66316">
        <ele>169.33</ele>
        <time>2026-05-15T06:31:18Z</time>
      </trkpt>
      <trkpt lat="44.795" lon="1.66323">
        <ele>171.73</ele>
        <time>2026-05-15T06:31:34Z</time>
      </trkpt>
      <trkpt lat="44.795" lon="1.66328">
        <ele>171.25</ele>
        <time>2026-05-15T06:31:55Z</time>
      </trkpt>
      <trkpt lat="44.79493" lon="1.66327">
        <ele>169.33</ele>
        <time>2026-05-15T06:32:14Z</time>
      </trkpt>
      <trkpt lat="44.79475" lon="1.66333">
        <ele>168.37</ele>
        <time>2026-05-15T06:32:31Z</time>
      </trkpt>
      <trkpt lat="44.79461" lon="1.66364">
        <ele>169.81</ele>
        <time>2026-05-15T06:32:51Z</time>
      </trkpt>
      <trkpt lat="44.7945" lon="1.66387">
        <ele>169.81</ele>
        <time>2026-05-15T06:33:06Z</time>
      </trkpt>
      <trkpt lat="44.79442" lon="1.66409">
        <ele>170.29</ele>
        <time>2026-05-15T06:33:20Z</time>
      </trkpt>
      <trkpt lat="44.79434" lon="1.66432">
        <ele>171.25</ele>
        <time>2026-05-15T06:33:36Z</time>
      </trkpt>
      <trkpt lat="44.79425" lon="1.66456">
        <ele>171.25</ele>
        <time>2026-05-15T06:33:51Z</time>
      </trkpt>
      <trkpt lat="44.79412" lon="1.66477">
        <ele>170.77</ele>
        <time>2026-05-15T06:34:07Z</time>
      </trkpt>
      <trkpt lat="44.79403" lon="1.66496">
        <ele>170.29</ele>
        <time>2026-05-15T06:34:23Z</time>
      </trkpt>
      <trkpt lat="44.79396" lon="1.66517">
        <ele>171.25</ele>
        <time>2026-05-15T06:34:41Z</time>
      </trkpt>
      <trkpt lat="44.79389" lon="1.66549">
        <ele>171.73</ele>
        <time>2026-05-15T06:34:55Z</time>
      </trkpt>
      <trkpt lat="44.79386" lon="1.66577">
        <ele>172.69</ele>
        <time>2026-05-15T06:35:10Z</time>
      </trkpt>
      <trkpt lat="44.79383" lon="1.66599">
        <ele>172.69</ele>
        <time>2026-05-15T06:35:28Z</time>
      </trkpt>
      <trkpt lat="44.79384" lon="1.66626">
        <ele>172.69</ele>
        <time>2026-05-15T06:35:51Z</time>
      </trkpt>
      <trkpt lat="44.79397" lon="1.66647">
        <ele>175.58</ele>
        <time>2026-05-15T06:36:11Z</time>
      </trkpt>
      <trkpt lat="44.79407" lon="1.66681">
        <ele>178.94</ele>
        <time>2026-05-15T06:36:32Z</time>
      </trkpt>
      <trkpt lat="44.79413" lon="1.66702">
        <ele>179.9</ele>
        <time>2026-05-15T06:36:53Z</time>
      </trkpt>
      <trkpt lat="44.79418" lon="1.66708">
        <ele>179.42</ele>
        <time>2026-05-15T06:37:17Z</time>
      </trkpt>
      <trkpt lat="44.79419" lon="1.6671">
        <ele>181.35</ele>
        <time>2026-05-15T06:37:20Z</time>
      </trkpt>
      <trkpt lat="44.7942" lon="1.66711">
        <ele>179.42</ele>
        <time>2026-05-15T06:37:22Z</time>
      </trkpt>
      <trkpt lat="44.79423" lon="1.66715">
        <ele>176.06</ele>
        <time>2026-05-15T06:37:37Z</time>
      </trkpt>
      <trkpt lat="44.79425" lon="1.66723">
        <ele>174.14</ele>
        <time>2026-05-15T06:37:43Z</time>
      </trkpt>
      <trkpt lat="44.79425" lon="1.66736">
        <ele>172.69</ele>
        <time>2026-05-15T06:37:53Z</time>
      </trkpt>
      <trkpt lat="44.79424" lon="1.66739">
        <ele>174.62</ele>
        <time>2026-05-15T06:37:55Z</time>
      </trkpt>
      <trkpt lat="44.79418" lon="1.66759">
        <ele>172.69</ele>
        <time>2026-05-15T06:38:06Z</time>
      </trkpt>
      <trkpt lat="44.79417" lon="1.66762">
        <ele>174.14</ele>
        <time>2026-05-15T06:38:08Z</time>
      </trkpt>
      <trkpt lat="44.7941" lon="1.66778">
        <ele>172.69</ele>
        <time>2026-05-15T06:38:31Z</time>
      </trkpt>
      <trkpt lat="44.79406" lon="1.66774">
        <ele>172.21</ele>
        <time>2026-05-15T06:38:42Z</time>
      </trkpt>
      <trkpt lat="44.79404" lon="1.66774">
        <ele>174.14</ele>
        <time>2026-05-15T06:38:45Z</time>
      </trkpt>
      <trkpt lat="44.79402" lon="1.66775">
        <ele>173.17</ele>
        <time>2026-05-15T06:38:49Z</time>
      </trkpt>
      <trkpt lat="44.79402" lon="1.66775">
        <ele>171.25</ele>
        <time>2026-05-15T06:38:50Z</time>
      </trkpt>
      <trkpt lat="44.79402" lon="1.66776">
        <ele>173.66</ele>
        <time>2026-05-15T06:38:51Z</time>
      </trkpt>
      <trkpt lat="44.79402" lon="1.66777">
        <ele>172.21</ele>
        <time>2026-05-15T06:38:54Z</time>
      </trkpt>
      <trkpt lat="44.79402" lon="1.66777">
        <ele>173.66</ele>
        <time>2026-05-15T06:38:55Z</time>
      </trkpt>
      <trkpt lat="44.79402" lon="1.66777">
        <ele>171.73</ele>
        <time>2026-05-15T06:38:56Z</time>
      </trkpt>
      <trkpt lat="44.79402" lon="1.66777">
        <ele>174.14</ele>
        <time>2026-05-15T06:38:57Z</time>
      </trkpt>
      <trkpt lat="44.79402" lon="1.66777">
        <ele>171.73</ele>
        <time>2026-05-15T06:38:58Z</time>
      </trkpt>
      <trkpt lat="44.79402" lon="1.66777">
        <ele>174.14</ele>
        <time>2026-05-15T06:38:59Z</time>
      </trkpt>
      <trkpt lat="44.79402" lon="1.66777">
        <ele>172.69</ele>
        <time>2026-05-15T06:39:00Z</time>
      </trkpt>
      <trkpt lat="44.79403" lon="1.66777">
        <ele>174.14</ele>
        <time>2026-05-15T06:39:03Z</time>
      </trkpt>
      <trkpt lat="44.79409" lon="1.66785">
        <ele>173.17</ele>
        <time>2026-05-15T06:39:10Z</time>
      </trkpt>
      <trkpt lat="44.79399" lon="1.66816">
        <ele>173.66</ele>
        <time>2026-05-15T06:39:24Z</time>
      </trkpt>
      <trkpt lat="44.79397" lon="1.66819">
        <ele>175.1</ele>
        <time>2026-05-15T06:39:26Z</time>
      </trkpt>
      <trkpt lat="44.79383" lon="1.66846">
        <ele>175.58</ele>
        <time>2026-05-15T06:39:51Z</time>
      </trkpt>
      <trkpt lat="44.79377" lon="1.66855">
        <ele>174.14</ele>
        <time>2026-05-15T06:39:57Z</time>
      </trkpt>
      <trkpt lat="44.79361" lon="1.66885">
        <ele>176.06</ele>
        <time>2026-05-15T06:40:21Z</time>
      </trkpt>
      <trkpt lat="44.79344" lon="1.66916">
        <ele>175.1</ele>
        <time>2026-05-15T06:40:45Z</time>
      </trkpt>
      <trkpt lat="44.79343" lon="1.6692">
        <ele>176.54</ele>
        <time>2026-05-15T06:40:47Z</time>
      </trkpt>
      <trkpt lat="44.79325" lon="1.66935">
        <ele>175.58</ele>
        <time>2026-05-15T06:41:09Z</time>
      </trkpt>
      <trkpt lat="44.7931" lon="1.66947">
        <ele>177.02</ele>
        <time>2026-05-15T06:41:25Z</time>
      </trkpt>
      <trkpt lat="44.79302" lon="1.66953">
        <ele>177.5</ele>
        <time>2026-05-15T06:41:33Z</time>
      </trkpt>
      <trkpt lat="44.79294" lon="1.66966">
        <ele>176.06</ele>
        <time>2026-05-15T06:41:51Z</time>
      </trkpt>
      <trkpt lat="44.79293" lon="1.66968">
        <ele>177.5</ele>
        <time>2026-05-15T06:41:53Z</time>
      </trkpt>
      <trkpt lat="44.79287" lon="1.66989">
        <ele>177.5</ele>
        <time>2026-05-15T06:42:11Z</time>
      </trkpt>
      <trkpt lat="44.79272" lon="1.66988">
        <ele>177.98</ele>
        <time>2026-05-15T06:42:28Z</time>
      </trkpt>
      <trkpt lat="44.79254" lon="1.66999">
        <ele>177.02</ele>
        <time>2026-05-15T06:42:49Z</time>
      </trkpt>
      <trkpt lat="44.79252" lon="1.66999">
        <ele>177.02</ele>
        <time>2026-05-15T06:42:50Z</time>
      </trkpt>
      <trkpt lat="44.79249" lon="1.67">
        <ele>177.98</ele>
        <time>2026-05-15T06:42:52Z</time>
      </trkpt>
      <trkpt lat="44.79228" lon="1.67017">
        <ele>177.5</ele>
        <time>2026-05-15T06:43:15Z</time>
      </trkpt>
      <trkpt lat="44.792" lon="1.67027">
        <ele>178.94</ele>
        <time>2026-05-15T06:43:36Z</time>
      </trkpt>
      <trkpt lat="44.79199" lon="1.67027">
        <ele>178.94</ele>
        <time>2026-05-15T06:43:37Z</time>
      </trkpt>
      <trkpt lat="44.79195" lon="1.67029">
        <ele>177.5</ele>
        <time>2026-05-15T06:43:40Z</time>
      </trkpt>
      <trkpt lat="44.79177" lon="1.67023">
        <ele>179.42</ele>
        <time>2026-05-15T06:43:59Z</time>
      </trkpt>
      <trkpt lat="44.7917" lon="1.67025">
        <ele>177.98</ele>
        <time>2026-05-15T06:44:06Z</time>
      </trkpt>
      <trkpt lat="44.79167" lon="1.67026">
        <ele>179.42</ele>
        <time>2026-05-15T06:44:09Z</time>
      </trkpt>
      <trkpt lat="44.79162" lon="1.67025">
        <ele>177.98</ele>
        <time>2026-05-15T06:44:16Z</time>
      </trkpt>
      <trkpt lat="44.79154" lon="1.6702">
        <ele>179.9</ele>
        <time>2026-05-15T06:44:25Z</time>
      </trkpt>
      <trkpt lat="44.7914" lon="1.6701">
        <ele>182.31</ele>
        <time>2026-05-15T06:44:48Z</time>
      </trkpt>
      <trkpt lat="44.79135" lon="1.67012">
        <ele>181.35</ele>
        <time>2026-05-15T06:44:59Z</time>
      </trkpt>
      <trkpt lat="44.79129" lon="1.6701">
        <ele>181.35</ele>
        <time>2026-05-15T06:45:32Z</time>
      </trkpt>
      <trkpt lat="44.79133" lon="1.67017">
        <ele>183.27</ele>
        <time>2026-05-15T06:45:55Z</time>
      </trkpt>
      <trkpt lat="44.7914" lon="1.6703">
        <ele>184.23</ele>
        <time>2026-05-15T06:46:06Z</time>
      </trkpt>
      <trkpt lat="44.7914" lon="1.6703">
        <ele>185.67</ele>
        <time>2026-05-15T06:46:07Z</time>
      </trkpt>
      <trkpt lat="44.79141" lon="1.6703">
        <ele>184.23</ele>
        <time>2026-05-15T06:46:08Z</time>
      </trkpt>
      <trkpt lat="44.79141" lon="1.67031">
        <ele>186.15</ele>
        <time>2026-05-15T06:46:10Z</time>
      </trkpt>
      <trkpt lat="44.79144" lon="1.67038">
        <ele>186.63</ele>
        <time>2026-05-15T06:46:21Z</time>
      </trkpt>
      <trkpt lat="44.79145" lon="1.67038">
        <ele>188.08</ele>
        <time>2026-05-15T06:46:22Z</time>
      </trkpt>
      <trkpt lat="44.79148" lon="1.67046">
        <ele>189.52</ele>
        <time>2026-05-15T06:46:35Z</time>
      </trkpt>
      <trkpt lat="44.79145" lon="1.67046">
        <ele>190</ele>
        <time>2026-05-15T06:46:49Z</time>
      </trkpt>
      <trkpt lat="44.79145" lon="1.67046">
        <ele>191.44</ele>
        <time>2026-05-15T06:46:50Z</time>
      </trkpt>
      <trkpt lat="44.79132" lon="1.67045">
        <ele>194.32</ele>
        <time>2026-05-15T06:47:12Z</time>
      </trkpt>
      <trkpt lat="44.79131" lon="1.67045">
        <ele>195.77</ele>
        <time>2026-05-15T06:47:14Z</time>
      </trkpt>
      <trkpt lat="44.79121" lon="1.6704">
        <ele>197.21</ele>
        <time>2026-05-15T06:47:33Z</time>
      </trkpt>
      <trkpt lat="44.79116" lon="1.67043">
        <ele>199.61</ele>
        <time>2026-05-15T06:47:46Z</time>
      </trkpt>
      <trkpt lat="44.79117" lon="1.67044">
        <ele>201.05</ele>
        <time>2026-05-15T06:47:52Z</time>
      </trkpt>
      <trkpt lat="44.79122" lon="1.67056">
        <ele>202.01</ele>
        <time>2026-05-15T06:48:15Z</time>
      </trkpt>
      <trkpt lat="44.79122" lon="1.67057">
        <ele>203.94</ele>
        <time>2026-05-15T06:48:16Z</time>
      </trkpt>
      <trkpt lat="44.79123" lon="1.6706">
        <ele>202.98</ele>
        <time>2026-05-15T06:48:21Z</time>
      </trkpt>
      <trkpt lat="44.79124" lon="1.67061">
        <ele>204.9</ele>
        <time>2026-05-15T06:48:22Z</time>
      </trkpt>
      <trkpt lat="44.79125" lon="1.67063">
        <ele>204.42</ele>
        <time>2026-05-15T06:48:27Z</time>
      </trkpt>
      <trkpt lat="44.79125" lon="1.67064">
        <ele>205.38</ele>
        <time>2026-05-15T06:48:28Z</time>
      </trkpt>
      <trkpt lat="44.79126" lon="1.67064">
        <ele>203.94</ele>
        <time>2026-05-15T06:48:29Z</time>
      </trkpt>
      <trkpt lat="44.79126" lon="1.67064">
        <ele>205.86</ele>
        <time>2026-05-15T06:48:30Z</time>
      </trkpt>
      <trkpt lat="44.79127" lon="1.6707">
        <ele>208.26</ele>
        <time>2026-05-15T06:48:41Z</time>
      </trkpt>
      <trkpt lat="44.79127" lon="1.67071">
        <ele>206.82</ele>
        <time>2026-05-15T06:48:42Z</time>
      </trkpt>
      <trkpt lat="44.79124" lon="1.67073">
        <ele>208.26</ele>
        <time>2026-05-15T06:48:45Z</time>
      </trkpt>
      <trkpt lat="44.79122" lon="1.67071">
        <ele>208.26</ele>
        <time>2026-05-15T06:48:54Z</time>
      </trkpt>
      <trkpt lat="44.79121" lon="1.67071">
        <ele>210.67</ele>
        <time>2026-05-15T06:48:55Z</time>
      </trkpt>
      <trkpt lat="44.79119" lon="1.67071">
        <ele>211.15</ele>
        <time>2026-05-15T06:49:00Z</time>
      </trkpt>
      <trkpt lat="44.79118" lon="1.67071">
        <ele>209.22</ele>
        <time>2026-05-15T06:49:01Z</time>
      </trkpt>
      <trkpt lat="44.79118" lon="1.67071">
        <ele>211.63</ele>
        <time>2026-05-15T06:49:02Z</time>
      </trkpt>
      <trkpt lat="44.79115" lon="1.67072">
        <ele>212.11</ele>
        <time>2026-05-15T06:49:07Z</time>
      </trkpt>
      <trkpt lat="44.79115" lon="1.67072">
        <ele>210.67</ele>
        <time>2026-05-15T06:49:08Z</time>
      </trkpt>
      <trkpt lat="44.79115" lon="1.67072">
        <ele>212.11</ele>
        <time>2026-05-15T06:49:09Z</time>
      </trkpt>
      <trkpt lat="44.79114" lon="1.67072">
        <ele>210.19</ele>
        <time>2026-05-15T06:49:10Z</time>
      </trkpt>
      <trkpt lat="44.79114" lon="1.67072">
        <ele>212.59</ele>
        <time>2026-05-15T06:49:11Z</time>
      </trkpt>
      <trkpt lat="44.79113" lon="1.67072">
        <ele>211.15</ele>
        <time>2026-05-15T06:49:12Z</time>
      </trkpt>
      <trkpt lat="44.79112" lon="1.67072">
        <ele>212.59</ele>
        <time>2026-05-15T06:49:13Z</time>
      </trkpt>
      <trkpt lat="44.79109" lon="1.67066">
        <ele>212.11</ele>
        <time>2026-05-15T06:49:19Z</time>
      </trkpt>
      <trkpt lat="44.79108" lon="1.67066">
        <ele>214.03</ele>
        <time>2026-05-15T06:49:20Z</time>
      </trkpt>
      <trkpt lat="44.79106" lon="1.67064">
        <ele>213.07</ele>
        <time>2026-05-15T06:49:24Z</time>
      </trkpt>
      <trkpt lat="44.79105" lon="1.67063">
        <ele>214.99</ele>
        <time>2026-05-15T06:49:25Z</time>
      </trkpt>
      <trkpt lat="44.79104" lon="1.67063">
        <ele>213.55</ele>
        <time>2026-05-15T06:49:26Z</time>
      </trkpt>
      <trkpt lat="44.79104" lon="1.67062">
        <ele>214.99</ele>
        <time>2026-05-15T06:49:27Z</time>
      </trkpt>
      <trkpt lat="44.79099" lon="1.67051">
        <ele>217.88</ele>
        <time>2026-05-15T06:49:41Z</time>
      </trkpt>
      <trkpt lat="44.79095" lon="1.6705">
        <ele>217.4</ele>
        <time>2026-05-15T06:49:50Z</time>
      </trkpt>
      <trkpt lat="44.79091" lon="1.67043">
        <ele>218.36</ele>
        <time>2026-05-15T06:49:58Z</time>
      </trkpt>
      <trkpt lat="44.79089" lon="1.67038">
        <ele>217.4</ele>
        <time>2026-05-15T06:50:05Z</time>
      </trkpt>
      <trkpt lat="44.79088" lon="1.67015">
        <ele>216.43</ele>
        <time>2026-05-15T06:50:25Z</time>
      </trkpt>
      <trkpt lat="44.7909" lon="1.66996">
        <ele>217.88</ele>
        <time>2026-05-15T06:50:39Z</time>
      </trkpt>
      <trkpt lat="44.79099" lon="1.66969">
        <ele>216.91</ele>
        <time>2026-05-15T06:50:53Z</time>
      </trkpt>
      <trkpt lat="44.79103" lon="1.66965">
        <ele>215.47</ele>
        <time>2026-05-15T06:51:00Z</time>
      </trkpt>
      <trkpt lat="44.79121" lon="1.66961">
        <ele>216.43</ele>
        <time>2026-05-15T06:51:25Z</time>
      </trkpt>
      <trkpt lat="44.79123" lon="1.66961">
        <ele>214.99</ele>
        <time>2026-05-15T06:51:28Z</time>
      </trkpt>
      <trkpt lat="44.79111" lon="1.66946">
        <ele>213.07</ele>
        <time>2026-05-15T06:51:48Z</time>
      </trkpt>
      <trkpt lat="44.79124" lon="1.66937">
        <ele>214.03</ele>
        <time>2026-05-15T06:52:10Z</time>
      </trkpt>
      <trkpt lat="44.79108" lon="1.66935">
        <ele>211.63</ele>
        <time>2026-05-15T06:52:22Z</time>
      </trkpt>
      <trkpt lat="44.79104" lon="1.66931">
        <ele>208.26</ele>
        <time>2026-05-15T06:52:30Z</time>
      </trkpt>
      <trkpt lat="44.79101" lon="1.66922">
        <ele>207.78</ele>
        <time>2026-05-15T06:52:37Z</time>
      </trkpt>
      <trkpt lat="44.79103" lon="1.66901">
        <ele>206.82</ele>
        <time>2026-05-15T06:52:55Z</time>
      </trkpt>
      <trkpt lat="44.79104" lon="1.66901">
        <ele>206.82</ele>
        <time>2026-05-15T06:52:56Z</time>
      </trkpt>
      <trkpt lat="44.79097" lon="1.6689">
        <ele>203.46</ele>
        <time>2026-05-15T06:53:14Z</time>
      </trkpt>
      <trkpt lat="44.79085" lon="1.6689">
        <ele>200.09</ele>
        <time>2026-05-15T06:53:30Z</time>
      </trkpt>
      <trkpt lat="44.79084" lon="1.6689">
        <ele>200.09</ele>
        <time>2026-05-15T06:53:31Z</time>
      </trkpt>
      <trkpt lat="44.7907" lon="1.66887">
        <ele>196.73</ele>
        <time>2026-05-15T06:53:44Z</time>
      </trkpt>
      <trkpt lat="44.79066" lon="1.66893">
        <ele>194.32</ele>
        <time>2026-05-15T06:54:07Z</time>
      </trkpt>
      <trkpt lat="44.79067" lon="1.66903">
        <ele>193.84</ele>
        <time>2026-05-15T06:54:29Z</time>
      </trkpt>
      <trkpt lat="44.79067" lon="1.66909">
        <ele>195.28</ele>
        <time>2026-05-15T06:54:41Z</time>
      </trkpt>
      <trkpt lat="44.79066" lon="1.6691">
        <ele>193.36</ele>
        <time>2026-05-15T06:54:44Z</time>
      </trkpt>
      <trkpt lat="44.79063" lon="1.66919">
        <ele>195.28</ele>
        <time>2026-05-15T06:55:03Z</time>
      </trkpt>
      <trkpt lat="44.79067" lon="1.66946">
        <ele>196.73</ele>
        <time>2026-05-15T06:55:27Z</time>
      </trkpt>
      <trkpt lat="44.79054" lon="1.66959">
        <ele>199.61</ele>
        <time>2026-05-15T06:55:49Z</time>
      </trkpt>
      <trkpt lat="44.79043" lon="1.66968">
        <ele>202.49</ele>
        <time>2026-05-15T06:56:05Z</time>
      </trkpt>
      <trkpt lat="44.79033" lon="1.6693">
        <ele>205.86</ele>
        <time>2026-05-15T06:56:25Z</time>
      </trkpt>
      <trkpt lat="44.79019" lon="1.66939">
        <ele>207.3</ele>
        <time>2026-05-15T06:56:43Z</time>
      </trkpt>
      <trkpt lat="44.79018" lon="1.66933">
        <ele>205.86</ele>
        <time>2026-05-15T06:56:57Z</time>
      </trkpt>
      <trkpt lat="44.79017" lon="1.66933">
        <ele>207.3</ele>
        <time>2026-05-15T06:57:01Z</time>
      </trkpt>
      <trkpt lat="44.79017" lon="1.66934">
        <ele>206.34</ele>
        <time>2026-05-15T06:57:05Z</time>
      </trkpt>
      <trkpt lat="44.79005" lon="1.66949">
        <ele>207.78</ele>
        <time>2026-05-15T06:57:23Z</time>
      </trkpt>
      <trkpt lat="44.79007" lon="1.66973">
        <ele>210.67</ele>
        <time>2026-05-15T06:57:39Z</time>
      </trkpt>
      <trkpt lat="44.79005" lon="1.66976">
        <ele>211.15</ele>
        <time>2026-05-15T06:57:43Z</time>
      </trkpt>
      <trkpt lat="44.79002" lon="1.67008">
        <ele>211.63</ele>
        <time>2026-05-15T06:58:01Z</time>
      </trkpt>
      <trkpt lat="44.79" lon="1.67037">
        <ele>213.07</ele>
        <time>2026-05-15T06:58:22Z</time>
      </trkpt>
      <trkpt lat="44.78999" lon="1.67079">
        <ele>215.47</ele>
        <time>2026-05-15T06:58:48Z</time>
      </trkpt>
      <trkpt lat="44.78988" lon="1.67115">
        <ele>216.43</ele>
        <time>2026-05-15T06:59:12Z</time>
      </trkpt>
      <trkpt lat="44.78979" lon="1.67158">
        <ele>218.36</ele>
        <time>2026-05-15T06:59:36Z</time>
      </trkpt>
      <trkpt lat="44.78978" lon="1.67183">
        <ele>217.4</ele>
        <time>2026-05-15T06:59:50Z</time>
      </trkpt>
      <trkpt lat="44.78979" lon="1.67186">
        <ele>222.68</ele>
        <time>2026-05-15T06:59:51Z</time>
      </trkpt>
      <trkpt lat="44.78979" lon="1.67188">
        <ele>220.28</ele>
        <time>2026-05-15T06:59:52Z</time>
      </trkpt>
      <trkpt lat="44.78979" lon="1.67213">
        <ele>223.16</ele>
        <time>2026-05-15T07:00:12Z</time>
      </trkpt>
      <trkpt lat="44.78978" lon="1.67229">
        <ele>223.16</ele>
        <time>2026-05-15T07:00:33Z</time>
      </trkpt>
      <trkpt lat="44.7897" lon="1.67247">
        <ele>219.8</ele>
        <time>2026-05-15T07:00:48Z</time>
      </trkpt>
      <trkpt lat="44.78966" lon="1.67285">
        <ele>218.36</ele>
        <time>2026-05-15T07:01:10Z</time>
      </trkpt>
      <trkpt lat="44.78966" lon="1.67318">
        <ele>217.88</ele>
        <time>2026-05-15T07:01:28Z</time>
      </trkpt>
      <trkpt lat="44.78949" lon="1.67338">
        <ele>217.4</ele>
        <time>2026-05-15T07:01:48Z</time>
      </trkpt>
      <trkpt lat="44.78945" lon="1.67357">
        <ele>219.32</ele>
        <time>2026-05-15T07:02:01Z</time>
      </trkpt>
      <trkpt lat="44.78936" lon="1.67383">
        <ele>222.2</ele>
        <time>2026-05-15T07:02:23Z</time>
      </trkpt>
      <trkpt lat="44.78932" lon="1.674">
        <ele>225.57</ele>
        <time>2026-05-15T07:02:42Z</time>
      </trkpt>
      <trkpt lat="44.78928" lon="1.67414">
        <ele>228.45</ele>
        <time>2026-05-15T07:03:01Z</time>
      </trkpt>
      <trkpt lat="44.78921" lon="1.67424">
        <ele>232.3</ele>
        <time>2026-05-15T07:03:21Z</time>
      </trkpt>
      <trkpt lat="44.78919" lon="1.67436">
        <ele>234.22</ele>
        <time>2026-05-15T07:03:33Z</time>
      </trkpt>
      <trkpt lat="44.78926" lon="1.67454">
        <ele>237.1</ele>
        <time>2026-05-15T07:03:52Z</time>
      </trkpt>
      <trkpt lat="44.78918" lon="1.67464">
        <ele>239.99</ele>
        <time>2026-05-15T07:04:13Z</time>
      </trkpt>
      <trkpt lat="44.78908" lon="1.67449">
        <ele>242.39</ele>
        <time>2026-05-15T07:04:33Z</time>
      </trkpt>
      <trkpt lat="44.789" lon="1.67441">
        <ele>245.27</ele>
        <time>2026-05-15T07:04:52Z</time>
      </trkpt>
      <trkpt lat="44.78888" lon="1.67449">
        <ele>248.16</ele>
        <time>2026-05-15T07:05:12Z</time>
      </trkpt>
      <trkpt lat="44.78889" lon="1.6744">
        <ele>250.56</ele>
        <time>2026-05-15T07:05:31Z</time>
      </trkpt>
      <trkpt lat="44.78895" lon="1.67421">
        <ele>252.48</ele>
        <time>2026-05-15T07:05:47Z</time>
      </trkpt>
      <trkpt lat="44.78903" lon="1.67397">
        <ele>254.89</ele>
        <time>2026-05-15T07:06:07Z</time>
      </trkpt>
      <trkpt lat="44.7891" lon="1.67378">
        <ele>255.85</ele>
        <time>2026-05-15T07:06:24Z</time>
      </trkpt>
      <trkpt lat="44.78911" lon="1.67356">
        <ele>258.25</ele>
        <time>2026-05-15T07:06:45Z</time>
      </trkpt>
      <trkpt lat="44.78908" lon="1.67336">
        <ele>259.69</ele>
        <time>2026-05-15T07:07:00Z</time>
      </trkpt>
      <trkpt lat="44.78901" lon="1.6734">
        <ele>262.58</ele>
        <time>2026-05-15T07:07:16Z</time>
      </trkpt>
      <trkpt lat="44.78888" lon="1.67354">
        <ele>264.02</ele>
        <time>2026-05-15T07:07:34Z</time>
      </trkpt>
      <trkpt lat="44.78873" lon="1.67349">
        <ele>266.42</ele>
        <time>2026-05-15T07:07:50Z</time>
      </trkpt>
      <trkpt lat="44.78865" lon="1.67344">
        <ele>267.38</ele>
        <time>2026-05-15T07:08:05Z</time>
      </trkpt>
      <trkpt lat="44.78864" lon="1.67345">
        <ele>268.35</ele>
        <time>2026-05-15T07:08:08Z</time>
      </trkpt>
      <trkpt lat="44.78861" lon="1.67346">
        <ele>268.83</ele>
        <time>2026-05-15T07:08:15Z</time>
      </trkpt>
      <trkpt lat="44.7886" lon="1.67346">
        <ele>267.86</ele>
        <time>2026-05-15T07:08:19Z</time>
      </trkpt>
      <trkpt lat="44.7886" lon="1.67343">
        <ele>267.38</ele>
        <time>2026-05-15T07:08:33Z</time>
      </trkpt>
      <trkpt lat="44.78861" lon="1.67342">
        <ele>267.38</ele>
        <time>2026-05-15T07:09:07Z</time>
      </trkpt>
      <trkpt lat="44.78855" lon="1.6734">
        <ele>268.83</ele>
        <time>2026-05-15T07:09:45Z</time>
      </trkpt>
      <trkpt lat="44.78841" lon="1.67342">
        <ele>270.27</ele>
        <time>2026-05-15T07:10:03Z</time>
      </trkpt>
      <trkpt lat="44.78827" lon="1.6734">
        <ele>273.15</ele>
        <time>2026-05-15T07:10:20Z</time>
      </trkpt>
      <trkpt lat="44.78821" lon="1.6734">
        <ele>274.59</ele>
        <time>2026-05-15T07:10:27Z</time>
      </trkpt>
      <trkpt lat="44.78809" lon="1.67344">
        <ele>273.63</ele>
        <time>2026-05-15T07:10:43Z</time>
      </trkpt>
      <trkpt lat="44.78808" lon="1.67345">
        <ele>277.48</ele>
        <time>2026-05-15T07:10:52Z</time>
      </trkpt>
      <trkpt lat="44.78808" lon="1.67345">
        <ele>269.79</ele>
        <time>2026-05-15T07:10:54Z</time>
      </trkpt>
      <trkpt lat="44.78808" lon="1.67345">
        <ele>272.19</ele>
        <time>2026-05-15T07:10:55Z</time>
      </trkpt>
      <trkpt lat="44.78808" lon="1.67345">
        <ele>275.07</ele>
        <time>2026-05-15T07:10:57Z</time>
      </trkpt>
      <trkpt lat="44.78807" lon="1.67345">
        <ele>273.63</ele>
        <time>2026-05-15T07:11:02Z</time>
      </trkpt>
      <trkpt lat="44.78804" lon="1.67351">
        <ele>273.15</ele>
        <time>2026-05-15T07:11:16Z</time>
      </trkpt>
      <trkpt lat="44.7879" lon="1.6737">
        <ele>273.15</ele>
        <time>2026-05-15T07:11:36Z</time>
      </trkpt>
      <trkpt lat="44.78784" lon="1.67397">
        <ele>273.15</ele>
        <time>2026-05-15T07:11:56Z</time>
      </trkpt>
      <trkpt lat="44.78781" lon="1.67427">
        <ele>274.59</ele>
        <time>2026-05-15T07:12:11Z</time>
      </trkpt>
      <trkpt lat="44.7878" lon="1.67449">
        <ele>276.04</ele>
        <time>2026-05-15T07:12:29Z</time>
      </trkpt>
      <trkpt lat="44.78779" lon="1.67478">
        <ele>277.48</ele>
        <time>2026-05-15T07:12:50Z</time>
      </trkpt>
      <trkpt lat="44.78774" lon="1.67504">
        <ele>278.92</ele>
        <time>2026-05-15T07:13:08Z</time>
      </trkpt>
      <trkpt lat="44.78764" lon="1.67537">
        <ele>281.32</ele>
        <time>2026-05-15T07:13:29Z</time>
      </trkpt>
      <trkpt lat="44.78746" lon="1.67584">
        <ele>282.28</ele>
        <time>2026-05-15T07:13:51Z</time>
      </trkpt>
      <trkpt lat="44.78734" lon="1.67616">
        <ele>283.25</ele>
        <time>2026-05-15T07:14:10Z</time>
      </trkpt>
      <trkpt lat="44.78722" lon="1.67652">
        <ele>283.25</ele>
        <time>2026-05-15T07:14:30Z</time>
      </trkpt>
      <trkpt lat="44.78722" lon="1.67674">
        <ele>283.25</ele>
        <time>2026-05-15T07:14:50Z</time>
      </trkpt>
      <trkpt lat="44.78717" lon="1.67721">
        <ele>283.73</ele>
        <time>2026-05-15T07:15:12Z</time>
      </trkpt>
      <trkpt lat="44.78721" lon="1.67744">
        <ele>285.65</ele>
        <time>2026-05-15T07:15:31Z</time>
      </trkpt>
      <trkpt lat="44.7873" lon="1.67777">
        <ele>288.53</ele>
        <time>2026-05-15T07:15:53Z</time>
      </trkpt>
      <trkpt lat="44.78732" lon="1.67815">
        <ele>289.97</ele>
        <time>2026-05-15T07:16:16Z</time>
      </trkpt>
      <trkpt lat="44.78724" lon="1.67849">
        <ele>291.9</ele>
        <time>2026-05-15T07:16:38Z</time>
      </trkpt>
      <trkpt lat="44.78714" lon="1.6788">
        <ele>293.82</ele>
        <time>2026-05-15T07:16:59Z</time>
      </trkpt>
      <trkpt lat="44.78703" lon="1.67907">
        <ele>295.74</ele>
        <time>2026-05-15T07:17:17Z</time>
      </trkpt>
      <trkpt lat="44.78693" lon="1.67933">
        <ele>297.67</ele>
        <time>2026-05-15T07:17:36Z</time>
      </trkpt>
      <trkpt lat="44.7869" lon="1.67963">
        <ele>300.07</ele>
        <time>2026-05-15T07:17:57Z</time>
      </trkpt>
      <trkpt lat="44.78686" lon="1.68002">
        <ele>301.51</ele>
        <time>2026-05-15T07:18:16Z</time>
      </trkpt>
      <trkpt lat="44.7869" lon="1.68044">
        <ele>302.47</ele>
        <time>2026-05-15T07:18:37Z</time>
      </trkpt>
      <trkpt lat="44.78691" lon="1.68053">
        <ele>302.47</ele>
        <time>2026-05-15T07:18:43Z</time>
      </trkpt>
      <trkpt lat="44.78686" lon="1.68093">
        <ele>302.95</ele>
        <time>2026-05-15T07:19:04Z</time>
      </trkpt>
      <trkpt lat="44.78679" lon="1.68126">
        <ele>303.43</ele>
        <time>2026-05-15T07:19:24Z</time>
      </trkpt>
      <trkpt lat="44.78672" lon="1.68161">
        <ele>303.43</ele>
        <time>2026-05-15T07:19:44Z</time>
      </trkpt>
      <trkpt lat="44.78667" lon="1.68192">
        <ele>303.91</ele>
        <time>2026-05-15T07:20:01Z</time>
      </trkpt>
      <trkpt lat="44.78665" lon="1.6823">
        <ele>305.36</ele>
        <time>2026-05-15T07:20:20Z</time>
      </trkpt>
      <trkpt lat="44.78662" lon="1.68264">
        <ele>306.8</ele>
        <time>2026-05-15T07:20:40Z</time>
      </trkpt>
      <trkpt lat="44.78661" lon="1.68284">
        <ele>307.76</ele>
        <time>2026-05-15T07:20:52Z</time>
      </trkpt>
      <trkpt lat="44.78661" lon="1.68289">
        <ele>307.76</ele>
        <time>2026-05-15T07:20:54Z</time>
      </trkpt>
      <trkpt lat="44.78654" lon="1.68326">
        <ele>308.72</ele>
        <time>2026-05-15T07:21:16Z</time>
      </trkpt>
      <trkpt lat="44.78649" lon="1.68362">
        <ele>310.16</ele>
        <time>2026-05-15T07:21:38Z</time>
      </trkpt>
      <trkpt lat="44.78641" lon="1.684">
        <ele>311.12</ele>
        <time>2026-05-15T07:21:57Z</time>
      </trkpt>
      <trkpt lat="44.78629" lon="1.68434">
        <ele>311.6</ele>
        <time>2026-05-15T07:22:17Z</time>
      </trkpt>
      <trkpt lat="44.78616" lon="1.68462">
        <ele>311.6</ele>
        <time>2026-05-15T07:22:37Z</time>
      </trkpt>
      <trkpt lat="44.78605" lon="1.68493">
        <ele>312.09</ele>
        <time>2026-05-15T07:22:55Z</time>
      </trkpt>
      <trkpt lat="44.78588" lon="1.68522">
        <ele>312.09</ele>
        <time>2026-05-15T07:23:13Z</time>
      </trkpt>
      <trkpt lat="44.78572" lon="1.68539">
        <ele>311.12</ele>
        <time>2026-05-15T07:23:30Z</time>
      </trkpt>
      <trkpt lat="44.78556" lon="1.68554">
        <ele>311.12</ele>
        <time>2026-05-15T07:23:46Z</time>
      </trkpt>
      <trkpt lat="44.78539" lon="1.68572">
        <ele>311.12</ele>
        <time>2026-05-15T07:24:03Z</time>
      </trkpt>
      <trkpt lat="44.78522" lon="1.68589">
        <ele>311.12</ele>
        <time>2026-05-15T07:24:19Z</time>
      </trkpt>
      <trkpt lat="44.78507" lon="1.68603">
        <ele>310.64</ele>
        <time>2026-05-15T07:24:31Z</time>
      </trkpt>
      <trkpt lat="44.78485" lon="1.68632">
        <ele>310.16</ele>
        <time>2026-05-15T07:24:50Z</time>
      </trkpt>
      <trkpt lat="44.78469" lon="1.68664">
        <ele>309.68</ele>
        <time>2026-05-15T07:25:08Z</time>
      </trkpt>
      <trkpt lat="44.78455" lon="1.6868">
        <ele>309.2</ele>
        <time>2026-05-15T07:25:23Z</time>
      </trkpt>
      <trkpt lat="44.7845" lon="1.68699">
        <ele>307.76</ele>
        <time>2026-05-15T07:25:40Z</time>
      </trkpt>
      <trkpt lat="44.78451" lon="1.68698">
        <ele>309.68</ele>
        <time>2026-05-15T07:26:14Z</time>
      </trkpt>
      <trkpt lat="44.78447" lon="1.68712">
        <ele>307.76</ele>
        <time>2026-05-15T07:26:34Z</time>
      </trkpt>
      <trkpt lat="44.78437" lon="1.68738">
        <ele>307.28</ele>
        <time>2026-05-15T07:26:53Z</time>
      </trkpt>
      <trkpt lat="44.78423" lon="1.68751">
        <ele>305.84</ele>
        <time>2026-05-15T07:27:09Z</time>
      </trkpt>
      <trkpt lat="44.78402" lon="1.68771">
        <ele>304.88</ele>
        <time>2026-05-15T07:27:26Z</time>
      </trkpt>
      <trkpt lat="44.78386" lon="1.6879">
        <ele>303.91</ele>
        <time>2026-05-15T07:27:41Z</time>
      </trkpt>
      <trkpt lat="44.78369" lon="1.68812">
        <ele>302.95</ele>
        <time>2026-05-15T07:28:00Z</time>
      </trkpt>
      <trkpt lat="44.78359" lon="1.68842">
        <ele>301.51</ele>
        <time>2026-05-15T07:28:17Z</time>
      </trkpt>
      <trkpt lat="44.78348" lon="1.68871">
        <ele>300.07</ele>
        <time>2026-05-15T07:28:36Z</time>
      </trkpt>
      <trkpt lat="44.78327" lon="1.68889">
        <ele>298.63</ele>
        <time>2026-05-15T07:28:54Z</time>
      </trkpt>
      <trkpt lat="44.78307" lon="1.68907">
        <ele>298.15</ele>
        <time>2026-05-15T07:29:13Z</time>
      </trkpt>
      <trkpt lat="44.78292" lon="1.68919">
        <ele>297.67</ele>
        <time>2026-05-15T07:29:30Z</time>
      </trkpt>
      <trkpt lat="44.78279" lon="1.68923">
        <ele>296.7</ele>
        <time>2026-05-15T07:29:46Z</time>
      </trkpt>
      <trkpt lat="44.78258" lon="1.68941">
        <ele>295.26</ele>
        <time>2026-05-15T07:30:05Z</time>
      </trkpt>
      <trkpt lat="44.78243" lon="1.68965">
        <ele>293.82</ele>
        <time>2026-05-15T07:30:23Z</time>
      </trkpt>
      <trkpt lat="44.78223" lon="1.68979">
        <ele>292.38</ele>
        <time>2026-05-15T07:30:39Z</time>
      </trkpt>
      <trkpt lat="44.78201" lon="1.68989">
        <ele>290.94</ele>
        <time>2026-05-15T07:30:58Z</time>
      </trkpt>
      <trkpt lat="44.78189" lon="1.69019">
        <ele>289.49</ele>
        <time>2026-05-15T07:31:15Z</time>
      </trkpt>
      <trkpt lat="44.78187" lon="1.69054">
        <ele>288.53</ele>
        <time>2026-05-15T07:31:35Z</time>
      </trkpt>
      <trkpt lat="44.78182" lon="1.69087">
        <ele>288.53</ele>
        <time>2026-05-15T07:31:54Z</time>
      </trkpt>
      <trkpt lat="44.78182" lon="1.69114">
        <ele>288.53</ele>
        <time>2026-05-15T07:32:12Z</time>
      </trkpt>
      <trkpt lat="44.78183" lon="1.69137">
        <ele>289.97</ele>
        <time>2026-05-15T07:32:26Z</time>
      </trkpt>
      <trkpt lat="44.78187" lon="1.69165">
        <ele>290.94</ele>
        <time>2026-05-15T07:32:43Z</time>
      </trkpt>
      <trkpt lat="44.78189" lon="1.69187">
        <ele>291.42</ele>
        <time>2026-05-15T07:32:55Z</time>
      </trkpt>
      <trkpt lat="44.7819" lon="1.69216">
        <ele>292.38</ele>
        <time>2026-05-15T07:33:13Z</time>
      </trkpt>
      <trkpt lat="44.78188" lon="1.69244">
        <ele>293.34</ele>
        <time>2026-05-15T07:33:31Z</time>
      </trkpt>
      <trkpt lat="44.78179" lon="1.69277">
        <ele>294.3</ele>
        <time>2026-05-15T07:33:54Z</time>
      </trkpt>
      <trkpt lat="44.78162" lon="1.69308">
        <ele>294.3</ele>
        <time>2026-05-15T07:34:15Z</time>
      </trkpt>
      <trkpt lat="44.78154" lon="1.69317">
        <ele>294.78</ele>
        <time>2026-05-15T07:34:32Z</time>
      </trkpt>
      <trkpt lat="44.78137" lon="1.69345">
        <ele>295.74</ele>
        <time>2026-05-15T07:34:54Z</time>
      </trkpt>
      <trkpt lat="44.78129" lon="1.69371">
        <ele>294.3</ele>
        <time>2026-05-15T07:35:08Z</time>
      </trkpt>
      <trkpt lat="44.78115" lon="1.694">
        <ele>294.3</ele>
        <time>2026-05-15T07:35:27Z</time>
      </trkpt>
      <trkpt lat="44.78099" lon="1.69428">
        <ele>292.86</ele>
        <time>2026-05-15T07:35:48Z</time>
      </trkpt>
      <trkpt lat="44.78092" lon="1.69462">
        <ele>291.42</ele>
        <time>2026-05-15T07:36:07Z</time>
      </trkpt>
      <trkpt lat="44.7809" lon="1.69489">
        <ele>290.46</ele>
        <time>2026-05-15T07:36:23Z</time>
      </trkpt>
      <trkpt lat="44.78081" lon="1.69525">
        <ele>290.46</ele>
        <time>2026-05-15T07:36:44Z</time>
      </trkpt>
      <trkpt lat="44.78067" lon="1.69556">
        <ele>289.97</ele>
        <time>2026-05-15T07:37:05Z</time>
      </trkpt>
      <trkpt lat="44.78051" lon="1.69583">
        <ele>289.97</ele>
        <time>2026-05-15T07:37:25Z</time>
      </trkpt>
      <trkpt lat="44.7804" lon="1.69611">
        <ele>289.97</ele>
        <time>2026-05-15T07:37:44Z</time>
      </trkpt>
      <trkpt lat="44.78026" lon="1.69641">
        <ele>289.97</ele>
        <time>2026-05-15T07:38:04Z</time>
      </trkpt>
      <trkpt lat="44.78009" lon="1.69675">
        <ele>291.9</ele>
        <time>2026-05-15T07:38:29Z</time>
      </trkpt>
      <trkpt lat="44.77994" lon="1.69707">
        <ele>293.34</ele>
        <time>2026-05-15T07:38:51Z</time>
      </trkpt>
      <trkpt lat="44.77992" lon="1.69712">
        <ele>291.9</ele>
        <time>2026-05-15T07:38:54Z</time>
      </trkpt>
      <trkpt lat="44.77991" lon="1.69715">
        <ele>291.42</ele>
        <time>2026-05-15T07:38:57Z</time>
      </trkpt>
      <trkpt lat="44.7798" lon="1.69733">
        <ele>292.86</ele>
        <time>2026-05-15T07:39:12Z</time>
      </trkpt>
      <trkpt lat="44.77971" lon="1.69756">
        <ele>292.86</ele>
        <time>2026-05-15T07:39:30Z</time>
      </trkpt>
      <trkpt lat="44.7796" lon="1.69787">
        <ele>293.34</ele>
        <time>2026-05-15T07:39:48Z</time>
      </trkpt>
      <trkpt lat="44.77959" lon="1.69797">
        <ele>293.34</ele>
        <time>2026-05-15T07:39:53Z</time>
      </trkpt>
      <trkpt lat="44.77952" lon="1.69828">
        <ele>293.82</ele>
        <time>2026-05-15T07:40:11Z</time>
      </trkpt>
      <trkpt lat="44.77944" lon="1.6985">
        <ele>294.3</ele>
        <time>2026-05-15T07:40:24Z</time>
      </trkpt>
      <trkpt lat="44.77935" lon="1.69875">
        <ele>294.3</ele>
        <time>2026-05-15T07:40:41Z</time>
      </trkpt>
      <trkpt lat="44.77923" lon="1.69904">
        <ele>294.3</ele>
        <time>2026-05-15T07:41:00Z</time>
      </trkpt>
      <trkpt lat="44.77912" lon="1.69935">
        <ele>294.3</ele>
        <time>2026-05-15T07:41:20Z</time>
      </trkpt>
      <trkpt lat="44.77892" lon="1.69967">
        <ele>294.78</ele>
        <time>2026-05-15T07:41:41Z</time>
      </trkpt>
      <trkpt lat="44.77873" lon="1.69987">
        <ele>295.74</ele>
        <time>2026-05-15T07:42:00Z</time>
      </trkpt>
      <trkpt lat="44.77855" lon="1.70014">
        <ele>296.22</ele>
        <time>2026-05-15T07:42:20Z</time>
      </trkpt>
      <trkpt lat="44.77851" lon="1.70043">
        <ele>296.22</ele>
        <time>2026-05-15T07:42:36Z</time>
      </trkpt>
      <trkpt lat="44.77854" lon="1.70075">
        <ele>297.18</ele>
        <time>2026-05-15T07:42:54Z</time>
      </trkpt>
      <trkpt lat="44.7786" lon="1.70075">
        <ele>297.67</ele>
        <time>2026-05-15T07:43:15Z</time>
      </trkpt>
      <trkpt lat="44.77862" lon="1.70076">
        <ele>297.67</ele>
        <time>2026-05-15T07:43:47Z</time>
      </trkpt>
      <trkpt lat="44.77867" lon="1.701">
        <ele>297.67</ele>
        <time>2026-05-15T07:44:05Z</time>
      </trkpt>
      <trkpt lat="44.77876" lon="1.70132">
        <ele>297.67</ele>
        <time>2026-05-15T07:44:25Z</time>
      </trkpt>
      <trkpt lat="44.77883" lon="1.7015">
        <ele>298.15</ele>
        <time>2026-05-15T07:44:41Z</time>
      </trkpt>
      <trkpt lat="44.77901" lon="1.70166">
        <ele>299.11</ele>
        <time>2026-05-15T07:44:59Z</time>
      </trkpt>
      <trkpt lat="44.77915" lon="1.70198">
        <ele>298.15</ele>
        <time>2026-05-15T07:45:21Z</time>
      </trkpt>
      <trkpt lat="44.77932" lon="1.70233">
        <ele>297.18</ele>
        <time>2026-05-15T07:45:41Z</time>
      </trkpt>
      <trkpt lat="44.77938" lon="1.70261">
        <ele>296.7</ele>
        <time>2026-05-15T07:45:59Z</time>
      </trkpt>
      <trkpt lat="44.77942" lon="1.70294">
        <ele>296.22</ele>
        <time>2026-05-15T07:46:17Z</time>
      </trkpt>
      <trkpt lat="44.77949" lon="1.70333">
        <ele>294.78</ele>
        <time>2026-05-15T07:46:39Z</time>
      </trkpt>
      <trkpt lat="44.77954" lon="1.70363">
        <ele>294.3</ele>
        <time>2026-05-15T07:46:58Z</time>
      </trkpt>
      <trkpt lat="44.77956" lon="1.70405">
        <ele>292.86</ele>
        <time>2026-05-15T07:47:19Z</time>
      </trkpt>
      <trkpt lat="44.77954" lon="1.70433">
        <ele>292.86</ele>
        <time>2026-05-15T07:47:36Z</time>
      </trkpt>
      <trkpt lat="44.77953" lon="1.70462">
        <ele>292.86</ele>
        <time>2026-05-15T07:47:52Z</time>
      </trkpt>
      <trkpt lat="44.77954" lon="1.7049">
        <ele>291.9</ele>
        <time>2026-05-15T07:48:08Z</time>
      </trkpt>
      <trkpt lat="44.77968" lon="1.70522">
        <ele>291.9</ele>
        <time>2026-05-15T07:48:27Z</time>
      </trkpt>
      <trkpt lat="44.77977" lon="1.70555">
        <ele>291.9</ele>
        <time>2026-05-15T07:48:46Z</time>
      </trkpt>
      <trkpt lat="44.7798" lon="1.7058">
        <ele>292.86</ele>
        <time>2026-05-15T07:49:02Z</time>
      </trkpt>
      <trkpt lat="44.77982" lon="1.70609">
        <ele>293.82</ele>
        <time>2026-05-15T07:49:20Z</time>
      </trkpt>
      <trkpt lat="44.77985" lon="1.70631">
        <ele>294.3</ele>
        <time>2026-05-15T07:49:37Z</time>
      </trkpt>
      <trkpt lat="44.77988" lon="1.70659">
        <ele>293.34</ele>
        <time>2026-05-15T07:49:56Z</time>
      </trkpt>
      <trkpt lat="44.77988" lon="1.7066">
        <ele>293.34</ele>
        <time>2026-05-15T07:50:26Z</time>
      </trkpt>
      <trkpt lat="44.77987" lon="1.70677">
        <ele>293.34</ele>
        <time>2026-05-15T07:50:49Z</time>
      </trkpt>
      <trkpt lat="44.77979" lon="1.70703">
        <ele>294.3</ele>
        <time>2026-05-15T07:51:06Z</time>
      </trkpt>
      <trkpt lat="44.7798" lon="1.70714">
        <ele>294.78</ele>
        <time>2026-05-15T07:51:12Z</time>
      </trkpt>
      <trkpt lat="44.77982" lon="1.70743">
        <ele>294.78</ele>
        <time>2026-05-15T07:51:29Z</time>
      </trkpt>
      <trkpt lat="44.77991" lon="1.70769">
        <ele>293.34</ele>
        <time>2026-05-15T07:51:48Z</time>
      </trkpt>
      <trkpt lat="44.77998" lon="1.708">
        <ele>292.86</ele>
        <time>2026-05-15T07:52:07Z</time>
      </trkpt>
      <trkpt lat="44.78003" lon="1.70824">
        <ele>292.86</ele>
        <time>2026-05-15T07:52:24Z</time>
      </trkpt>
      <trkpt lat="44.78006" lon="1.70834">
        <ele>293.34</ele>
        <time>2026-05-15T07:52:45Z</time>
      </trkpt>
      <trkpt lat="44.78006" lon="1.70844">
        <ele>292.38</ele>
        <time>2026-05-15T07:53:08Z</time>
      </trkpt>
      <trkpt lat="44.7801" lon="1.70871">
        <ele>293.34</ele>
        <time>2026-05-15T07:53:27Z</time>
      </trkpt>
      <trkpt lat="44.78012" lon="1.70898">
        <ele>293.34</ele>
        <time>2026-05-15T07:53:45Z</time>
      </trkpt>
      <trkpt lat="44.7802" lon="1.70924">
        <ele>294.3</ele>
        <time>2026-05-15T07:54:04Z</time>
      </trkpt>
      <trkpt lat="44.78029" lon="1.70923">
        <ele>292.38</ele>
        <time>2026-05-15T07:54:21Z</time>
      </trkpt>
      <trkpt lat="44.78033" lon="1.70898">
        <ele>289.97</ele>
        <time>2026-05-15T07:54:41Z</time>
      </trkpt>
      <trkpt lat="44.78036" lon="1.70888">
        <ele>290.94</ele>
        <time>2026-05-15T07:54:48Z</time>
      </trkpt>
      <trkpt lat="44.78039" lon="1.70878">
        <ele>290.94</ele>
        <time>2026-05-15T07:55:17Z</time>
      </trkpt>
      <trkpt lat="44.78037" lon="1.70877">
        <ele>290.94</ele>
        <time>2026-05-15T07:55:20Z</time>
      </trkpt>
      <trkpt lat="44.78041" lon="1.70873">
        <ele>288.53</ele>
        <time>2026-05-15T07:55:32Z</time>
      </trkpt>
      <trkpt lat="44.78054" lon="1.70889">
        <ele>285.65</ele>
        <time>2026-05-15T07:55:50Z</time>
      </trkpt>
      <trkpt lat="44.78071" lon="1.70901">
        <ele>283.73</ele>
        <time>2026-05-15T07:56:09Z</time>
      </trkpt>
      <trkpt lat="44.78083" lon="1.70904">
        <ele>282.77</ele>
        <time>2026-05-15T07:56:13Z</time>
      </trkpt>
      <trkpt lat="44.78097" lon="1.70906">
        <ele>282.28</ele>
        <time>2026-05-15T07:56:21Z</time>
      </trkpt>
      <trkpt lat="44.78125" lon="1.70909">
        <ele>278.44</ele>
        <time>2026-05-15T07:56:41Z</time>
      </trkpt>
      <trkpt lat="44.78137" lon="1.70912">
        <ele>277</ele>
        <time>2026-05-15T07:56:50Z</time>
      </trkpt>
      <trkpt lat="44.78155" lon="1.70927">
        <ele>275.56</ele>
        <time>2026-05-15T07:57:06Z</time>
      </trkpt>
      <trkpt lat="44.78149" lon="1.70941">
        <ele>273.15</ele>
        <time>2026-05-15T07:57:18Z</time>
      </trkpt>
      <trkpt lat="44.7814" lon="1.70957">
        <ele>271.71</ele>
        <time>2026-05-15T07:57:29Z</time>
      </trkpt>
      <trkpt lat="44.78143" lon="1.70992">
        <ele>272.19</ele>
        <time>2026-05-15T07:57:48Z</time>
      </trkpt>
      <trkpt lat="44.78149" lon="1.71024">
        <ele>272.19</ele>
        <time>2026-05-15T07:58:06Z</time>
      </trkpt>
      <trkpt lat="44.78152" lon="1.71048">
        <ele>275.07</ele>
        <time>2026-05-15T07:58:25Z</time>
      </trkpt>
      <trkpt lat="44.78149" lon="1.71074">
        <ele>277.96</ele>
        <time>2026-05-15T07:58:43Z</time>
      </trkpt>
      <trkpt lat="44.78146" lon="1.71099">
        <ele>279.88</ele>
        <time>2026-05-15T07:59:04Z</time>
      </trkpt>
      <trkpt lat="44.78154" lon="1.71127">
        <ele>278.44</ele>
        <time>2026-05-15T07:59:21Z</time>
      </trkpt>
      <trkpt lat="44.7816" lon="1.71145">
        <ele>277.48</ele>
        <time>2026-05-15T07:59:34Z</time>
      </trkpt>
      <trkpt lat="44.78166" lon="1.71162">
        <ele>276.52</ele>
        <time>2026-05-15T07:59:47Z</time>
      </trkpt>
      <trkpt lat="44.78168" lon="1.71167">
        <ele>276.52</ele>
        <time>2026-05-15T07:59:51Z</time>
      </trkpt>
      <trkpt lat="44.78171" lon="1.71203">
        <ele>276.52</ele>
        <time>2026-05-15T08:00:09Z</time>
      </trkpt>
      <trkpt lat="44.78172" lon="1.71221">
        <ele>276.52</ele>
        <time>2026-05-15T08:00:19Z</time>
      </trkpt>
      <trkpt lat="44.78164" lon="1.71251">
        <ele>276.04</ele>
        <time>2026-05-15T08:00:35Z</time>
      </trkpt>
      <trkpt lat="44.78155" lon="1.71271">
        <ele>277</ele>
        <time>2026-05-15T08:00:49Z</time>
      </trkpt>
      <trkpt lat="44.78141" lon="1.71286">
        <ele>277.48</ele>
        <time>2026-05-15T08:01:05Z</time>
      </trkpt>
      <trkpt lat="44.78127" lon="1.71301">
        <ele>277.96</ele>
        <time>2026-05-15T08:01:22Z</time>
      </trkpt>
      <trkpt lat="44.7811" lon="1.7132">
        <ele>277.96</ele>
        <time>2026-05-15T08:01:38Z</time>
      </trkpt>
      <trkpt lat="44.78094" lon="1.71338">
        <ele>277</ele>
        <time>2026-05-15T08:01:55Z</time>
      </trkpt>
      <trkpt lat="44.78077" lon="1.71354">
        <ele>278.44</ele>
        <time>2026-05-15T08:02:12Z</time>
      </trkpt>
      <trkpt lat="44.7806" lon="1.7137">
        <ele>278.92</ele>
        <time>2026-05-15T08:02:29Z</time>
      </trkpt>
      <trkpt lat="44.78048" lon="1.71384">
        <ele>279.88</ele>
        <time>2026-05-15T08:02:41Z</time>
      </trkpt>
      <trkpt lat="44.78045" lon="1.71394">
        <ele>280.36</ele>
        <time>2026-05-15T08:02:47Z</time>
      </trkpt>
      <trkpt lat="44.78046" lon="1.71413">
        <ele>282.28</ele>
        <time>2026-05-15T08:03:02Z</time>
      </trkpt>
      <trkpt lat="44.78048" lon="1.71423">
        <ele>283.73</ele>
        <time>2026-05-15T08:03:11Z</time>
      </trkpt>
      <trkpt lat="44.78048" lon="1.71446">
        <ele>287.09</ele>
        <time>2026-05-15T08:03:27Z</time>
      </trkpt>
      <trkpt lat="44.78053" lon="1.71467">
        <ele>289.01</ele>
        <time>2026-05-15T08:03:45Z</time>
      </trkpt>
      <trkpt lat="44.7806" lon="1.71506">
        <ele>291.42</ele>
        <time>2026-05-15T08:04:07Z</time>
      </trkpt>
      <trkpt lat="44.78059" lon="1.71527">
        <ele>294.78</ele>
        <time>2026-05-15T08:04:25Z</time>
      </trkpt>
      <trkpt lat="44.78051" lon="1.71549">
        <ele>296.22</ele>
        <time>2026-05-15T08:04:42Z</time>
      </trkpt>
      <trkpt lat="44.78047" lon="1.71554">
        <ele>297.18</ele>
        <time>2026-05-15T08:04:47Z</time>
      </trkpt>
      <trkpt lat="44.7803" lon="1.71569">
        <ele>297.18</ele>
        <time>2026-05-15T08:05:04Z</time>
      </trkpt>
      <trkpt lat="44.78022" lon="1.71578">
        <ele>298.63</ele>
        <time>2026-05-15T08:05:11Z</time>
      </trkpt>
      <trkpt lat="44.78016" lon="1.71585">
        <ele>298.63</ele>
        <time>2026-05-15T08:05:17Z</time>
      </trkpt>
      <trkpt lat="44.78003" lon="1.71609">
        <ele>297.18</ele>
        <time>2026-05-15T08:05:33Z</time>
      </trkpt>
      <trkpt lat="44.77992" lon="1.71631">
        <ele>297.18</ele>
        <time>2026-05-15T08:05:49Z</time>
      </trkpt>
      <trkpt lat="44.77984" lon="1.71645">
        <ele>297.67</ele>
        <time>2026-05-15T08:06:08Z</time>
      </trkpt>
      <trkpt lat="44.7797" lon="1.71677">
        <ele>296.22</ele>
        <time>2026-05-15T08:06:27Z</time>
      </trkpt>
      <trkpt lat="44.77958" lon="1.71708">
        <ele>294.3</ele>
        <time>2026-05-15T08:06:46Z</time>
      </trkpt>
      <trkpt lat="44.77944" lon="1.71738">
        <ele>293.82</ele>
        <time>2026-05-15T08:07:03Z</time>
      </trkpt>
      <trkpt lat="44.7793" lon="1.71768">
        <ele>290.94</ele>
        <time>2026-05-15T08:07:21Z</time>
      </trkpt>
      <trkpt lat="44.77915" lon="1.71802">
        <ele>289.01</ele>
        <time>2026-05-15T08:07:43Z</time>
      </trkpt>
      <trkpt lat="44.77901" lon="1.71839">
        <ele>288.05</ele>
        <time>2026-05-15T08:08:03Z</time>
      </trkpt>
      <trkpt lat="44.77882" lon="1.7188">
        <ele>287.57</ele>
        <time>2026-05-15T08:08:25Z</time>
      </trkpt>
      <trkpt lat="44.77872" lon="1.71912">
        <ele>289.01</ele>
        <time>2026-05-15T08:08:43Z</time>
      </trkpt>
      <trkpt lat="44.77865" lon="1.71944">
        <ele>290.94</ele>
        <time>2026-05-15T08:09:01Z</time>
      </trkpt>
      <trkpt lat="44.77881" lon="1.71976">
        <ele>291.42</ele>
        <time>2026-05-15T08:09:20Z</time>
      </trkpt>
      <trkpt lat="44.77892" lon="1.72002">
        <ele>291.9</ele>
        <time>2026-05-15T08:09:39Z</time>
      </trkpt>
      <trkpt lat="44.77904" lon="1.72045">
        <ele>293.82</ele>
        <time>2026-05-15T08:10:01Z</time>
      </trkpt>
      <trkpt lat="44.77902" lon="1.72078">
        <ele>294.78</ele>
        <time>2026-05-15T08:10:20Z</time>
      </trkpt>
      <trkpt lat="44.77897" lon="1.72092">
        <ele>293.34</ele>
        <time>2026-05-15T08:10:28Z</time>
      </trkpt>
      <trkpt lat="44.77886" lon="1.72117">
        <ele>292.38</ele>
        <time>2026-05-15T08:10:44Z</time>
      </trkpt>
      <trkpt lat="44.77869" lon="1.72147">
        <ele>290.46</ele>
        <time>2026-05-15T08:11:02Z</time>
      </trkpt>
      <trkpt lat="44.77851" lon="1.72171">
        <ele>289.01</ele>
        <time>2026-05-15T08:11:20Z</time>
      </trkpt>
      <trkpt lat="44.77837" lon="1.72187">
        <ele>289.01</ele>
        <time>2026-05-15T08:11:35Z</time>
      </trkpt>
      <trkpt lat="44.77822" lon="1.72207">
        <ele>289.01</ele>
        <time>2026-05-15T08:11:54Z</time>
      </trkpt>
      <trkpt lat="44.77795" lon="1.72216">
        <ele>287.57</ele>
        <time>2026-05-15T08:12:13Z</time>
      </trkpt>
      <trkpt lat="44.77773" lon="1.72231">
        <ele>287.09</ele>
        <time>2026-05-15T08:12:32Z</time>
      </trkpt>
      <trkpt lat="44.77762" lon="1.72249">
        <ele>286.61</ele>
        <time>2026-05-15T08:12:45Z</time>
      </trkpt>
      <trkpt lat="44.77753" lon="1.72273">
        <ele>288.05</ele>
        <time>2026-05-15T08:13:02Z</time>
      </trkpt>
      <trkpt lat="44.77746" lon="1.72283">
        <ele>288.05</ele>
        <time>2026-05-15T08:13:11Z</time>
      </trkpt>
      <trkpt lat="44.77727" lon="1.72278">
        <ele>284.21</ele>
        <time>2026-05-15T08:13:27Z</time>
      </trkpt>
      <trkpt lat="44.77716" lon="1.72269">
        <ele>281.32</ele>
        <time>2026-05-15T08:13:41Z</time>
      </trkpt>
      <trkpt lat="44.77691" lon="1.72268">
        <ele>279.4</ele>
        <time>2026-05-15T08:13:58Z</time>
      </trkpt>
      <trkpt lat="44.77667" lon="1.72261">
        <ele>279.4</ele>
        <time>2026-05-15T08:14:18Z</time>
      </trkpt>
      <trkpt lat="44.77665" lon="1.72261">
        <ele>279.4</ele>
        <time>2026-05-15T08:14:20Z</time>
      </trkpt>
      <trkpt lat="44.77658" lon="1.72292">
        <ele>279.4</ele>
        <time>2026-05-15T08:14:39Z</time>
      </trkpt>
      <trkpt lat="44.77657" lon="1.72326">
        <ele>279.4</ele>
        <time>2026-05-15T08:14:56Z</time>
      </trkpt>
      <trkpt lat="44.77656" lon="1.72363">
        <ele>279.4</ele>
        <time>2026-05-15T08:15:16Z</time>
      </trkpt>
      <trkpt lat="44.77657" lon="1.72386">
        <ele>278.92</ele>
        <time>2026-05-15T08:15:31Z</time>
      </trkpt>
      <trkpt lat="44.77658" lon="1.72398">
        <ele>278.92</ele>
        <time>2026-05-15T08:15:38Z</time>
      </trkpt>
      <trkpt lat="44.77662" lon="1.72434">
        <ele>280.36</ele>
        <time>2026-05-15T08:15:58Z</time>
      </trkpt>
      <trkpt lat="44.77669" lon="1.72462">
        <ele>280.36</ele>
        <time>2026-05-15T08:16:16Z</time>
      </trkpt>
      <trkpt lat="44.77674" lon="1.72476">
        <ele>278.92</ele>
        <time>2026-05-15T08:16:24Z</time>
      </trkpt>
      <trkpt lat="44.77663" lon="1.72519">
        <ele>278.92</ele>
        <time>2026-05-15T08:16:40Z</time>
      </trkpt>
      <trkpt lat="44.77659" lon="1.72528">
        <ele>278.92</ele>
        <time>2026-05-15T08:16:46Z</time>
      </trkpt>
      <trkpt lat="44.77657" lon="1.72533">
        <ele>280.36</ele>
        <time>2026-05-15T08:16:49Z</time>
      </trkpt>
      <trkpt lat="44.77633" lon="1.72554">
        <ele>280.36</ele>
        <time>2026-05-15T08:17:09Z</time>
      </trkpt>
      <trkpt lat="44.77619" lon="1.72561">
        <ele>280.84</ele>
        <time>2026-05-15T08:17:19Z</time>
      </trkpt>
      <trkpt lat="44.77595" lon="1.72577">
        <ele>281.32</ele>
        <time>2026-05-15T08:17:38Z</time>
      </trkpt>
      <trkpt lat="44.77579" lon="1.72595">
        <ele>282.28</ele>
        <time>2026-05-15T08:17:54Z</time>
      </trkpt>
      <trkpt lat="44.77567" lon="1.7261">
        <ele>280.84</ele>
        <time>2026-05-15T08:18:07Z</time>
      </trkpt>
      <trkpt lat="44.77558" lon="1.72618">
        <ele>281.32</ele>
        <time>2026-05-15T08:18:23Z</time>
      </trkpt>
      <trkpt lat="44.77535" lon="1.72635">
        <ele>280.36</ele>
        <time>2026-05-15T08:18:44Z</time>
      </trkpt>
      <trkpt lat="44.77518" lon="1.72643">
        <ele>280.36</ele>
        <time>2026-05-15T08:18:59Z</time>
      </trkpt>
      <trkpt lat="44.775" lon="1.72664">
        <ele>280.36</ele>
        <time>2026-05-15T08:19:17Z</time>
      </trkpt>
      <trkpt lat="44.77484" lon="1.7268">
        <ele>280.36</ele>
        <time>2026-05-15T08:19:37Z</time>
      </trkpt>
      <trkpt lat="44.77484" lon="1.72679">
        <ele>281.8</ele>
        <time>2026-05-15T08:19:40Z</time>
      </trkpt>
      <trkpt lat="44.77482" lon="1.72682">
        <ele>280.36</ele>
        <time>2026-05-15T08:19:47Z</time>
      </trkpt>
      <trkpt lat="44.77479" lon="1.72687">
        <ele>280.36</ele>
        <time>2026-05-15T08:19:50Z</time>
      </trkpt>
      <trkpt lat="44.77463" lon="1.72715">
        <ele>279.88</ele>
        <time>2026-05-15T08:20:12Z</time>
      </trkpt>
      <trkpt lat="44.77451" lon="1.72724">
        <ele>280.36</ele>
        <time>2026-05-15T08:20:36Z</time>
      </trkpt>
      <trkpt lat="44.77446" lon="1.7274">
        <ele>281.8</ele>
        <time>2026-05-15T08:20:47Z</time>
      </trkpt>
      <trkpt lat="44.77442" lon="1.72748">
        <ele>280.36</ele>
        <time>2026-05-15T08:20:52Z</time>
      </trkpt>
      <trkpt lat="44.77439" lon="1.72751">
        <ele>281.8</ele>
        <time>2026-05-15T08:20:55Z</time>
      </trkpt>
      <trkpt lat="44.77434" lon="1.72774">
        <ele>283.25</ele>
        <time>2026-05-15T08:21:14Z</time>
      </trkpt>
      <trkpt lat="44.77448" lon="1.72797">
        <ele>286.61</ele>
        <time>2026-05-15T08:21:33Z</time>
      </trkpt>
      <trkpt lat="44.77452" lon="1.72826">
        <ele>289.97</ele>
        <time>2026-05-15T08:21:52Z</time>
      </trkpt>
      <trkpt lat="44.77449" lon="1.72854">
        <ele>291.9</ele>
        <time>2026-05-15T08:22:09Z</time>
      </trkpt>
      <trkpt lat="44.77451" lon="1.72874">
        <ele>294.78</ele>
        <time>2026-05-15T08:22:24Z</time>
      </trkpt>
      <trkpt lat="44.77456" lon="1.72904">
        <ele>296.7</ele>
        <time>2026-05-15T08:22:44Z</time>
      </trkpt>
      <trkpt lat="44.77457" lon="1.72932">
        <ele>298.15</ele>
        <time>2026-05-15T08:23:03Z</time>
      </trkpt>
      <trkpt lat="44.77455" lon="1.72961">
        <ele>300.07</ele>
        <time>2026-05-15T08:23:21Z</time>
      </trkpt>
      <trkpt lat="44.77448" lon="1.72983">
        <ele>299.59</ele>
        <time>2026-05-15T08:23:38Z</time>
      </trkpt>
      <trkpt lat="44.77442" lon="1.72993">
        <ele>295.26</ele>
        <time>2026-05-15T08:23:54Z</time>
      </trkpt>
      <trkpt lat="44.77441" lon="1.72994">
        <ele>295.26</ele>
        <time>2026-05-15T08:23:55Z</time>
      </trkpt>
      <trkpt lat="44.77431" lon="1.7301">
        <ele>292.86</ele>
        <time>2026-05-15T08:24:14Z</time>
      </trkpt>
      <trkpt lat="44.77449" lon="1.73006">
        <ele>294.78</ele>
        <time>2026-05-15T08:24:35Z</time>
      </trkpt>
      <trkpt lat="44.77452" lon="1.73008">
        <ele>294.3</ele>
        <time>2026-05-15T08:24:38Z</time>
      </trkpt>
      <trkpt lat="44.77454" lon="1.73009">
        <ele>292.86</ele>
        <time>2026-05-15T08:24:40Z</time>
      </trkpt>
      <trkpt lat="44.77431" lon="1.73022">
        <ele>289.49</ele>
        <time>2026-05-15T08:24:51Z</time>
      </trkpt>
      <trkpt lat="44.77417" lon="1.7303">
        <ele>288.53</ele>
        <time>2026-05-15T08:24:58Z</time>
      </trkpt>
      <trkpt lat="44.77389" lon="1.73044">
        <ele>286.13</ele>
        <time>2026-05-15T08:25:20Z</time>
      </trkpt>
      <trkpt lat="44.77371" lon="1.73076">
        <ele>284.69</ele>
        <time>2026-05-15T08:25:44Z</time>
      </trkpt>
      <trkpt lat="44.77368" lon="1.73079">
        <ele>284.69</ele>
        <time>2026-05-15T08:25:46Z</time>
      </trkpt>
      <trkpt lat="44.77341" lon="1.73107">
        <ele>284.21</ele>
        <time>2026-05-15T08:26:11Z</time>
      </trkpt>
      <trkpt lat="44.77323" lon="1.73125">
        <ele>284.21</ele>
        <time>2026-05-15T08:26:32Z</time>
      </trkpt>
      <trkpt lat="44.77317" lon="1.73127">
        <ele>283.25</ele>
        <time>2026-05-15T08:26:56Z</time>
      </trkpt>
      <trkpt lat="44.7729" lon="1.73132">
        <ele>283.25</ele>
        <time>2026-05-15T08:27:20Z</time>
      </trkpt>
      <trkpt lat="44.77286" lon="1.73133">
        <ele>284.69</ele>
        <time>2026-05-15T08:27:24Z</time>
      </trkpt>
      <trkpt lat="44.77254" lon="1.73138">
        <ele>286.13</ele>
        <time>2026-05-15T08:27:47Z</time>
      </trkpt>
      <trkpt lat="44.77234" lon="1.73135">
        <ele>287.09</ele>
        <time>2026-05-15T08:28:08Z</time>
      </trkpt>
      <trkpt lat="44.77231" lon="1.73135">
        <ele>288.53</ele>
        <time>2026-05-15T08:28:12Z</time>
      </trkpt>
      <trkpt lat="44.77208" lon="1.73129">
        <ele>289.97</ele>
        <time>2026-05-15T08:28:34Z</time>
      </trkpt>
      <trkpt lat="44.77189" lon="1.73131">
        <ele>291.9</ele>
        <time>2026-05-15T08:28:54Z</time>
      </trkpt>
      <trkpt lat="44.77177" lon="1.7314">
        <ele>289.97</ele>
        <time>2026-05-15T08:29:09Z</time>
      </trkpt>
      <trkpt lat="44.77169" lon="1.73146">
        <ele>289.49</ele>
        <time>2026-05-15T08:29:18Z</time>
      </trkpt>
      <trkpt lat="44.77161" lon="1.73151">
        <ele>290.46</ele>
        <time>2026-05-15T08:29:24Z</time>
      </trkpt>
      <trkpt lat="44.7715" lon="1.73156">
        <ele>289.01</ele>
        <time>2026-05-15T08:29:31Z</time>
      </trkpt>
      <trkpt lat="44.7714" lon="1.7316">
        <ele>290.46</ele>
        <time>2026-05-15T08:29:39Z</time>
      </trkpt>
      <trkpt lat="44.77104" lon="1.73161">
        <ele>292.38</ele>
        <time>2026-05-15T08:30:03Z</time>
      </trkpt>
      <trkpt lat="44.77085" lon="1.73176">
        <ele>295.26</ele>
        <time>2026-05-15T08:30:26Z</time>
      </trkpt>
      <trkpt lat="44.77066" lon="1.73202">
        <ele>296.7</ele>
        <time>2026-05-15T08:30:47Z</time>
      </trkpt>
      <trkpt lat="44.77046" lon="1.73224">
        <ele>294.78</ele>
        <time>2026-05-15T08:31:09Z</time>
      </trkpt>
      <trkpt lat="44.77018" lon="1.73256">
        <ele>292.86</ele>
        <time>2026-05-15T08:31:33Z</time>
      </trkpt>
      <trkpt lat="44.76998" lon="1.73279">
        <ele>289.97</ele>
        <time>2026-05-15T08:31:53Z</time>
      </trkpt>
      <trkpt lat="44.76985" lon="1.73295">
        <ele>286.61</ele>
        <time>2026-05-15T08:32:09Z</time>
      </trkpt>
      <trkpt lat="44.76966" lon="1.73324">
        <ele>284.21</ele>
        <time>2026-05-15T08:32:31Z</time>
      </trkpt>
      <trkpt lat="44.7695" lon="1.73347">
        <ele>283.73</ele>
        <time>2026-05-15T08:32:52Z</time>
      </trkpt>
      <trkpt lat="44.7692" lon="1.7338">
        <ele>286.13</ele>
        <time>2026-05-15T08:33:18Z</time>
      </trkpt>
      <trkpt lat="44.76899" lon="1.73402">
        <ele>288.05</ele>
        <time>2026-05-15T08:33:40Z</time>
      </trkpt>
      <trkpt lat="44.76875" lon="1.7342">
        <ele>288.05</ele>
        <time>2026-05-15T08:34:04Z</time>
      </trkpt>
      <trkpt lat="44.76847" lon="1.73434">
        <ele>288.05</ele>
        <time>2026-05-15T08:34:30Z</time>
      </trkpt>
      <trkpt lat="44.76841" lon="1.73438">
        <ele>286.61</ele>
        <time>2026-05-15T08:34:38Z</time>
      </trkpt>
      <trkpt lat="44.76814" lon="1.73474">
        <ele>284.21</ele>
        <time>2026-05-15T08:35:04Z</time>
      </trkpt>
      <trkpt lat="44.76799" lon="1.73503">
        <ele>284.69</ele>
        <time>2026-05-15T08:35:27Z</time>
      </trkpt>
      <trkpt lat="44.76792" lon="1.73514">
        <ele>284.69</ele>
        <time>2026-05-15T08:35:48Z</time>
      </trkpt>
      <trkpt lat="44.76789" lon="1.73514">
        <ele>283.73</ele>
        <time>2026-05-15T08:36:11Z</time>
      </trkpt>
      <trkpt lat="44.76787" lon="1.73517">
        <ele>283.73</ele>
        <time>2026-05-15T08:36:35Z</time>
      </trkpt>
      <trkpt lat="44.76778" lon="1.73516">
        <ele>283.73</ele>
        <time>2026-05-15T08:37:03Z</time>
      </trkpt>
      <trkpt lat="44.76777" lon="1.73517">
        <ele>284.69</ele>
        <time>2026-05-15T08:37:26Z</time>
      </trkpt>
      <trkpt lat="44.76775" lon="1.73522">
        <ele>283.73</ele>
        <time>2026-05-15T08:37:47Z</time>
      </trkpt>
      <trkpt lat="44.76782" lon="1.7352">
        <ele>285.17</ele>
        <time>2026-05-15T08:38:10Z</time>
      </trkpt>
      <trkpt lat="44.76782" lon="1.73519">
        <ele>285.17</ele>
        <time>2026-05-15T08:38:11Z</time>
      </trkpt>
      <trkpt lat="44.76779" lon="1.73518">
        <ele>283.73</ele>
        <time>2026-05-15T08:38:35Z</time>
      </trkpt>
      <trkpt lat="44.76775" lon="1.73523">
        <ele>285.17</ele>
        <time>2026-05-15T08:39:05Z</time>
      </trkpt>
      <trkpt lat="44.76758" lon="1.73552">
        <ele>286.13</ele>
        <time>2026-05-15T08:39:29Z</time>
      </trkpt>
      <trkpt lat="44.76758" lon="1.73556">
        <ele>286.13</ele>
        <time>2026-05-15T08:39:48Z</time>
      </trkpt>
      <trkpt lat="44.76747" lon="1.73559">
        <ele>286.61</ele>
        <time>2026-05-15T08:40:02Z</time>
      </trkpt>
      <trkpt lat="44.76727" lon="1.73566">
        <ele>286.61</ele>
        <time>2026-05-15T08:40:20Z</time>
      </trkpt>
      <trkpt lat="44.76703" lon="1.73577">
        <ele>286.61</ele>
        <time>2026-05-15T08:40:42Z</time>
      </trkpt>
      <trkpt lat="44.76676" lon="1.7359">
        <ele>286.61</ele>
        <time>2026-05-15T08:41:02Z</time>
      </trkpt>
      <trkpt lat="44.76655" lon="1.73598">
        <ele>286.61</ele>
        <time>2026-05-15T08:41:22Z</time>
      </trkpt>
      <trkpt lat="44.76628" lon="1.73605">
        <ele>288.05</ele>
        <time>2026-05-15T08:41:42Z</time>
      </trkpt>
      <trkpt lat="44.76604" lon="1.73617">
        <ele>289.01</ele>
        <time>2026-05-15T08:42:00Z</time>
      </trkpt>
      <trkpt lat="44.7658" lon="1.73634">
        <ele>290.94</ele>
        <time>2026-05-15T08:42:21Z</time>
      </trkpt>
      <trkpt lat="44.76559" lon="1.73648">
        <ele>292.38</ele>
        <time>2026-05-15T08:42:41Z</time>
      </trkpt>
      <trkpt lat="44.76545" lon="1.73662">
        <ele>293.34</ele>
        <time>2026-05-15T08:42:59Z</time>
      </trkpt>
      <trkpt lat="44.76535" lon="1.7367">
        <ele>294.3</ele>
        <time>2026-05-15T08:43:13Z</time>
      </trkpt>
      <trkpt lat="44.76531" lon="1.73682">
        <ele>294.78</ele>
        <time>2026-05-15T08:43:20Z</time>
      </trkpt>
      <trkpt lat="44.7652" lon="1.7371">
        <ele>296.22</ele>
        <time>2026-05-15T08:43:35Z</time>
      </trkpt>
      <trkpt lat="44.76513" lon="1.73727">
        <ele>296.7</ele>
        <time>2026-05-15T08:43:47Z</time>
      </trkpt>
      <trkpt lat="44.76494" lon="1.73748">
        <ele>297.18</ele>
        <time>2026-05-15T08:44:08Z</time>
      </trkpt>
      <trkpt lat="44.76485" lon="1.73756">
        <ele>297.67</ele>
        <time>2026-05-15T08:44:32Z</time>
      </trkpt>
      <trkpt lat="44.76479" lon="1.73765">
        <ele>297.67</ele>
        <time>2026-05-15T08:44:57Z</time>
      </trkpt>
      <trkpt lat="44.76469" lon="1.73784">
        <ele>298.15</ele>
        <time>2026-05-15T08:45:12Z</time>
      </trkpt>
      <trkpt lat="44.76458" lon="1.73816">
        <ele>298.15</ele>
        <time>2026-05-15T08:45:29Z</time>
      </trkpt>
      <trkpt lat="44.76449" lon="1.73843">
        <ele>298.15</ele>
        <time>2026-05-15T08:45:44Z</time>
      </trkpt>
      <trkpt lat="44.76444" lon="1.73876">
        <ele>298.63</ele>
        <time>2026-05-15T08:46:01Z</time>
      </trkpt>
      <trkpt lat="44.76436" lon="1.73898">
        <ele>297.18</ele>
        <time>2026-05-15T08:46:15Z</time>
      </trkpt>
      <trkpt lat="44.76423" lon="1.73925">
        <ele>295.74</ele>
        <time>2026-05-15T08:46:30Z</time>
      </trkpt>
      <trkpt lat="44.76406" lon="1.73954">
        <ele>294.78</ele>
        <time>2026-05-15T08:46:49Z</time>
      </trkpt>
      <trkpt lat="44.76385" lon="1.73972">
        <ele>293.82</ele>
        <time>2026-05-15T08:47:08Z</time>
      </trkpt>
      <trkpt lat="44.76361" lon="1.73988">
        <ele>292.86</ele>
        <time>2026-05-15T08:47:27Z</time>
      </trkpt>
      <trkpt lat="44.76338" lon="1.74003">
        <ele>292.86</ele>
        <time>2026-05-15T08:47:47Z</time>
      </trkpt>
      <trkpt lat="44.76308" lon="1.74017">
        <ele>294.3</ele>
        <time>2026-05-15T08:48:10Z</time>
      </trkpt>
      <trkpt lat="44.7628" lon="1.74031">
        <ele>295.26</ele>
        <time>2026-05-15T08:48:34Z</time>
      </trkpt>
      <trkpt lat="44.76249" lon="1.74041">
        <ele>295.74</ele>
        <time>2026-05-15T08:48:57Z</time>
      </trkpt>
      <trkpt lat="44.76222" lon="1.74059">
        <ele>297.18</ele>
        <time>2026-05-15T08:49:21Z</time>
      </trkpt>
      <trkpt lat="44.76212" lon="1.74067">
        <ele>298.15</ele>
        <time>2026-05-15T08:49:30Z</time>
      </trkpt>
      <trkpt lat="44.76185" lon="1.74084">
        <ele>299.11</ele>
        <time>2026-05-15T08:49:52Z</time>
      </trkpt>
      <trkpt lat="44.76164" lon="1.74101">
        <ele>299.11</ele>
        <time>2026-05-15T08:50:11Z</time>
      </trkpt>
      <trkpt lat="44.76141" lon="1.74124">
        <ele>299.11</ele>
        <time>2026-05-15T08:50:35Z</time>
      </trkpt>
      <trkpt lat="44.76115" lon="1.74144">
        <ele>298.63</ele>
        <time>2026-05-15T08:50:57Z</time>
      </trkpt>
      <trkpt lat="44.76088" lon="1.7415">
        <ele>297.67</ele>
        <time>2026-05-15T08:51:18Z</time>
      </trkpt>
      <trkpt lat="44.76063" lon="1.74166">
        <ele>296.22</ele>
        <time>2026-05-15T08:51:37Z</time>
      </trkpt>
      <trkpt lat="44.76048" lon="1.74168">
        <ele>295.74</ele>
        <time>2026-05-15T08:51:56Z</time>
      </trkpt>
      <trkpt lat="44.76049" lon="1.74169">
        <ele>296.7</ele>
        <time>2026-05-15T08:52:01Z</time>
      </trkpt>
      <trkpt lat="44.7605" lon="1.74168">
        <ele>295.74</ele>
        <time>2026-05-15T08:52:07Z</time>
      </trkpt>
      <trkpt lat="44.76051" lon="1.74169">
        <ele>296.7</ele>
        <time>2026-05-15T08:52:36Z</time>
      </trkpt>
      <trkpt lat="44.76035" lon="1.74196">
        <ele>296.7</ele>
        <time>2026-05-15T08:52:55Z</time>
      </trkpt>
      <trkpt lat="44.76027" lon="1.74208">
        <ele>295.26</ele>
        <time>2026-05-15T08:53:03Z</time>
      </trkpt>
      <trkpt lat="44.76017" lon="1.74244">
        <ele>295.26</ele>
        <time>2026-05-15T08:53:25Z</time>
      </trkpt>
      <trkpt lat="44.7601" lon="1.74272">
        <ele>295.26</ele>
        <time>2026-05-15T08:53:42Z</time>
      </trkpt>
      <trkpt lat="44.76004" lon="1.74308">
        <ele>295.26</ele>
        <time>2026-05-15T08:54:02Z</time>
      </trkpt>
      <trkpt lat="44.75994" lon="1.74348">
        <ele>295.26</ele>
        <time>2026-05-15T08:54:26Z</time>
      </trkpt>
      <trkpt lat="44.75968" lon="1.74375">
        <ele>293.82</ele>
        <time>2026-05-15T08:54:47Z</time>
      </trkpt>
      <trkpt lat="44.75949" lon="1.74405">
        <ele>292.86</ele>
        <time>2026-05-15T08:55:10Z</time>
      </trkpt>
      <trkpt lat="44.7593" lon="1.74436">
        <ele>292.38</ele>
        <time>2026-05-15T08:55:34Z</time>
      </trkpt>
      <trkpt lat="44.7591" lon="1.7447">
        <ele>293.82</ele>
        <time>2026-05-15T08:55:57Z</time>
      </trkpt>
      <trkpt lat="44.75893" lon="1.74491">
        <ele>295.74</ele>
        <time>2026-05-15T08:56:19Z</time>
      </trkpt>
      <trkpt lat="44.75891" lon="1.74497">
        <ele>296.22</ele>
        <time>2026-05-15T08:56:40Z</time>
      </trkpt>
      <trkpt lat="44.7589" lon="1.74492">
        <ele>297.67</ele>
        <time>2026-05-15T08:57:00Z</time>
      </trkpt>
      <trkpt lat="44.75884" lon="1.74502">
        <ele>297.67</ele>
        <time>2026-05-15T08:57:19Z</time>
      </trkpt>
      <trkpt lat="44.75861" lon="1.74531">
        <ele>298.63</ele>
        <time>2026-05-15T08:57:43Z</time>
      </trkpt>
      <trkpt lat="44.75841" lon="1.74554">
        <ele>300.07</ele>
        <time>2026-05-15T08:58:03Z</time>
      </trkpt>
      <trkpt lat="44.7582" lon="1.7458">
        <ele>301.51</ele>
        <time>2026-05-15T08:58:26Z</time>
      </trkpt>
      <trkpt lat="44.75796" lon="1.746">
        <ele>303.43</ele>
        <time>2026-05-15T08:58:49Z</time>
      </trkpt>
      <trkpt lat="44.75767" lon="1.74617">
        <ele>304.39</ele>
        <time>2026-05-15T08:59:12Z</time>
      </trkpt>
      <trkpt lat="44.75742" lon="1.74627">
        <ele>305.36</ele>
        <time>2026-05-15T08:59:32Z</time>
      </trkpt>
      <trkpt lat="44.75717" lon="1.74633">
        <ele>306.8</ele>
        <time>2026-05-15T08:59:53Z</time>
      </trkpt>
      <trkpt lat="44.75691" lon="1.7464">
        <ele>307.28</ele>
        <time>2026-05-15T09:00:12Z</time>
      </trkpt>
      <trkpt lat="44.75665" lon="1.74651">
        <ele>308.24</ele>
        <time>2026-05-15T09:00:35Z</time>
      </trkpt>
      <trkpt lat="44.75651" lon="1.74677">
        <ele>308.72</ele>
        <time>2026-05-15T09:00:56Z</time>
      </trkpt>
      <trkpt lat="44.75645" lon="1.74697">
        <ele>309.2</ele>
        <time>2026-05-15T09:01:16Z</time>
      </trkpt>
      <trkpt lat="44.75636" lon="1.74717">
        <ele>309.2</ele>
        <time>2026-05-15T09:01:37Z</time>
      </trkpt>
      <trkpt lat="44.75621" lon="1.74752">
        <ele>310.16</ele>
        <time>2026-05-15T09:01:59Z</time>
      </trkpt>
      <trkpt lat="44.75614" lon="1.74787">
        <ele>309.68</ele>
        <time>2026-05-15T09:02:19Z</time>
      </trkpt>
      <trkpt lat="44.75605" lon="1.74819">
        <ele>308.24</ele>
        <time>2026-05-15T09:02:38Z</time>
      </trkpt>
      <trkpt lat="44.75601" lon="1.74853">
        <ele>308.24</ele>
        <time>2026-05-15T09:02:56Z</time>
      </trkpt>
      <trkpt lat="44.75599" lon="1.74869">
        <ele>307.28</ele>
        <time>2026-05-15T09:03:05Z</time>
      </trkpt>
      <trkpt lat="44.75595" lon="1.74896">
        <ele>303.91</ele>
        <time>2026-05-15T09:03:22Z</time>
      </trkpt>
      <trkpt lat="44.75588" lon="1.74925">
        <ele>300.55</ele>
        <time>2026-05-15T09:03:40Z</time>
      </trkpt>
      <trkpt lat="44.75575" lon="1.74957">
        <ele>297.18</ele>
        <time>2026-05-15T09:04:00Z</time>
      </trkpt>
      <trkpt lat="44.75544" lon="1.74976">
        <ele>294.78</ele>
        <time>2026-05-15T09:04:25Z</time>
      </trkpt>
      <trkpt lat="44.75542" lon="1.74977">
        <ele>294.78</ele>
        <time>2026-05-15T09:04:26Z</time>
      </trkpt>
      <trkpt lat="44.75525" lon="1.74986">
        <ele>297.18</ele>
        <time>2026-05-15T09:04:40Z</time>
      </trkpt>
      <trkpt lat="44.7552" lon="1.74991">
        <ele>297.18</ele>
        <time>2026-05-15T09:04:43Z</time>
      </trkpt>
      <trkpt lat="44.75498" lon="1.7501">
        <ele>299.11</ele>
        <time>2026-05-15T09:05:04Z</time>
      </trkpt>
      <trkpt lat="44.75489" lon="1.75019">
        <ele>300.55</ele>
        <time>2026-05-15T09:05:12Z</time>
      </trkpt>
      <trkpt lat="44.75488" lon="1.75021">
        <ele>300.55</ele>
        <time>2026-05-15T09:05:14Z</time>
      </trkpt>
      <trkpt lat="44.75481" lon="1.75032">
        <ele>301.99</ele>
        <time>2026-05-15T09:05:23Z</time>
      </trkpt>
      <trkpt lat="44.75467" lon="1.75051">
        <ele>303.91</ele>
        <time>2026-05-15T09:05:43Z</time>
      </trkpt>
      <trkpt lat="44.75451" lon="1.75065">
        <ele>305.36</ele>
        <time>2026-05-15T09:06:01Z</time>
      </trkpt>
      <trkpt lat="44.75426" lon="1.75067">
        <ele>307.28</ele>
        <time>2026-05-15T09:06:21Z</time>
      </trkpt>
      <trkpt lat="44.75403" lon="1.75077">
        <ele>308.24</ele>
        <time>2026-05-15T09:06:41Z</time>
      </trkpt>
      <trkpt lat="44.754" lon="1.7508">
        <ele>306.8</ele>
        <time>2026-05-15T09:06:44Z</time>
      </trkpt>
      <trkpt lat="44.75394" lon="1.75088">
        <ele>307.76</ele>
        <time>2026-05-15T09:06:50Z</time>
      </trkpt>
      <trkpt lat="44.75382" lon="1.75096">
        <ele>308.72</ele>
        <time>2026-05-15T09:07:01Z</time>
      </trkpt>
      <trkpt lat="44.75379" lon="1.75094">
        <ele>307.76</ele>
        <time>2026-05-15T09:07:06Z</time>
      </trkpt>
      <trkpt lat="44.7536" lon="1.7508">
        <ele>306.8</ele>
        <time>2026-05-15T09:07:26Z</time>
      </trkpt>
      <trkpt lat="44.7536" lon="1.7508">
        <ele>306.8</ele>
        <time>2026-05-15T09:07:27Z</time>
      </trkpt>
      <trkpt lat="44.75359" lon="1.75088">
        <ele>306.8</ele>
        <time>2026-05-15T09:07:59Z</time>
      </trkpt>
      <trkpt lat="44.75341" lon="1.75058">
        <ele>305.84</ele>
        <time>2026-05-15T09:08:21Z</time>
      </trkpt>
      <trkpt lat="44.75316" lon="1.75038">
        <ele>303.91</ele>
        <time>2026-05-15T09:08:42Z</time>
      </trkpt>
      <trkpt lat="44.75301" lon="1.75023">
        <ele>301.03</ele>
        <time>2026-05-15T09:09:05Z</time>
      </trkpt>
      <trkpt lat="44.75281" lon="1.75019">
        <ele>300.55</ele>
        <time>2026-05-15T09:09:25Z</time>
      </trkpt>
      <trkpt lat="44.75245" lon="1.75031">
        <ele>302.47</ele>
        <time>2026-05-15T09:09:47Z</time>
      </trkpt>
      <trkpt lat="44.75219" lon="1.75043">
        <ele>303.91</ele>
        <time>2026-05-15T09:10:09Z</time>
      </trkpt>
      <trkpt lat="44.75199" lon="1.75066">
        <ele>305.36</ele>
        <time>2026-05-15T09:10:30Z</time>
      </trkpt>
      <trkpt lat="44.75173" lon="1.75085">
        <ele>305.36</ele>
        <time>2026-05-15T09:10:52Z</time>
      </trkpt>
      <trkpt lat="44.75146" lon="1.75098">
        <ele>304.88</ele>
        <time>2026-05-15T09:11:14Z</time>
      </trkpt>
      <trkpt lat="44.7512" lon="1.75102">
        <ele>303.91</ele>
        <time>2026-05-15T09:11:34Z</time>
      </trkpt>
      <trkpt lat="44.75094" lon="1.75095">
        <ele>300.55</ele>
        <time>2026-05-15T09:11:54Z</time>
      </trkpt>
      <trkpt lat="44.75073" lon="1.75086">
        <ele>298.63</ele>
        <time>2026-05-15T09:12:14Z</time>
      </trkpt>
      <trkpt lat="44.75044" lon="1.75072">
        <ele>296.7</ele>
        <time>2026-05-15T09:12:36Z</time>
      </trkpt>
      <trkpt lat="44.7502" lon="1.75058">
        <ele>295.74</ele>
        <time>2026-05-15T09:12:57Z</time>
      </trkpt>
      <trkpt lat="44.74995" lon="1.75057">
        <ele>295.74</ele>
        <time>2026-05-15T09:13:14Z</time>
      </trkpt>
      <trkpt lat="44.74967" lon="1.75071">
        <ele>297.18</ele>
        <time>2026-05-15T09:13:38Z</time>
      </trkpt>
      <trkpt lat="44.74962" lon="1.7508">
        <ele>298.15</ele>
        <time>2026-05-15T09:13:45Z</time>
      </trkpt>
      <trkpt lat="44.74946" lon="1.75108">
        <ele>298.15</ele>
        <time>2026-05-15T09:14:07Z</time>
      </trkpt>
      <trkpt lat="44.74935" lon="1.7514">
        <ele>297.67</ele>
        <time>2026-05-15T09:14:26Z</time>
      </trkpt>
      <trkpt lat="44.74934" lon="1.75149">
        <ele>296.7</ele>
        <time>2026-05-15T09:14:32Z</time>
      </trkpt>
      <trkpt lat="44.74923" lon="1.7519">
        <ele>295.74</ele>
        <time>2026-05-15T09:14:56Z</time>
      </trkpt>
      <trkpt lat="44.74917" lon="1.75213">
        <ele>295.26</ele>
        <time>2026-05-15T09:15:08Z</time>
      </trkpt>
      <trkpt lat="44.74908" lon="1.75246">
        <ele>294.78</ele>
        <time>2026-05-15T09:15:28Z</time>
      </trkpt>
      <trkpt lat="44.749" lon="1.75284">
        <ele>293.82</ele>
        <time>2026-05-15T09:15:51Z</time>
      </trkpt>
      <trkpt lat="44.74875" lon="1.75301">
        <ele>292.86</ele>
        <time>2026-05-15T09:16:12Z</time>
      </trkpt>
      <trkpt lat="44.74847" lon="1.75314">
        <ele>291.9</ele>
        <time>2026-05-15T09:16:32Z</time>
      </trkpt>
      <trkpt lat="44.74821" lon="1.75319">
        <ele>293.34</ele>
        <time>2026-05-15T09:16:51Z</time>
      </trkpt>
      <trkpt lat="44.74809" lon="1.7534">
        <ele>294.78</ele>
        <time>2026-05-15T09:17:08Z</time>
      </trkpt>
      <trkpt lat="44.74805" lon="1.7537">
        <ele>296.7</ele>
        <time>2026-05-15T09:17:28Z</time>
      </trkpt>
      <trkpt lat="44.74809" lon="1.75386">
        <ele>295.26</ele>
        <time>2026-05-15T09:17:46Z</time>
      </trkpt>
      <trkpt lat="44.7481" lon="1.75392">
        <ele>294.3</ele>
        <time>2026-05-15T09:17:50Z</time>
      </trkpt>
      <trkpt lat="44.74812" lon="1.75431">
        <ele>295.74</ele>
        <time>2026-05-15T09:18:11Z</time>
      </trkpt>
      <trkpt lat="44.74801" lon="1.75451">
        <ele>297.67</ele>
        <time>2026-05-15T09:18:27Z</time>
      </trkpt>
      <trkpt lat="44.74795" lon="1.7546">
        <ele>298.63</ele>
        <time>2026-05-15T09:18:36Z</time>
      </trkpt>
      <trkpt lat="44.74784" lon="1.7548">
        <ele>300.07</ele>
        <time>2026-05-15T09:18:52Z</time>
      </trkpt>
      <trkpt lat="44.7478" lon="1.75492">
        <ele>300.55</ele>
        <time>2026-05-15T09:18:59Z</time>
      </trkpt>
      <trkpt lat="44.74773" lon="1.75522">
        <ele>301.51</ele>
        <time>2026-05-15T09:19:19Z</time>
      </trkpt>
      <trkpt lat="44.74764" lon="1.75549">
        <ele>301.99</ele>
        <time>2026-05-15T09:19:36Z</time>
      </trkpt>
      <trkpt lat="44.74761" lon="1.75558">
        <ele>301.51</ele>
        <time>2026-05-15T09:19:40Z</time>
      </trkpt>
      <trkpt lat="44.74759" lon="1.75565">
        <ele>302.95</ele>
        <time>2026-05-15T09:19:45Z</time>
      </trkpt>
      <trkpt lat="44.74755" lon="1.75575">
        <ele>301.99</ele>
        <time>2026-05-15T09:19:51Z</time>
      </trkpt>
      <trkpt lat="44.74753" lon="1.75582">
        <ele>303.43</ele>
        <time>2026-05-15T09:19:55Z</time>
      </trkpt>
      <trkpt lat="44.74743" lon="1.75618">
        <ele>302.47</ele>
        <time>2026-05-15T09:20:16Z</time>
      </trkpt>
      <trkpt lat="44.7474" lon="1.75639">
        <ele>301.99</ele>
        <time>2026-05-15T09:20:36Z</time>
      </trkpt>
      <trkpt lat="44.74737" lon="1.75663">
        <ele>301.51</ele>
        <time>2026-05-15T09:20:51Z</time>
      </trkpt>
      <trkpt lat="44.74727" lon="1.75697">
        <ele>301.03</ele>
        <time>2026-05-15T09:21:14Z</time>
      </trkpt>
      <trkpt lat="44.74726" lon="1.75704">
        <ele>299.59</ele>
        <time>2026-05-15T09:21:18Z</time>
      </trkpt>
      <trkpt lat="44.74735" lon="1.75727">
        <ele>300.07</ele>
        <time>2026-05-15T09:21:35Z</time>
      </trkpt>
      <trkpt lat="44.74747" lon="1.75766">
        <ele>301.03</ele>
        <time>2026-05-15T09:21:58Z</time>
      </trkpt>
      <trkpt lat="44.74751" lon="1.7578">
        <ele>301.03</ele>
        <time>2026-05-15T09:22:16Z</time>
      </trkpt>
      <trkpt lat="44.7475" lon="1.75797">
        <ele>301.99</ele>
        <time>2026-05-15T09:22:45Z</time>
      </trkpt>
      <trkpt lat="44.74749" lon="1.75801">
        <ele>300.55</ele>
        <time>2026-05-15T09:22:49Z</time>
      </trkpt>
      <trkpt lat="44.74749" lon="1.75804">
        <ele>302.47</ele>
        <time>2026-05-15T09:22:52Z</time>
      </trkpt>
      <trkpt lat="44.74749" lon="1.75807">
        <ele>302.95</ele>
        <time>2026-05-15T09:22:56Z</time>
      </trkpt>
      <trkpt lat="44.74745" lon="1.75839">
        <ele>303.91</ele>
        <time>2026-05-15T09:23:21Z</time>
      </trkpt>
      <trkpt lat="44.74766" lon="1.75857">
        <ele>302.47</ele>
        <time>2026-05-15T09:23:44Z</time>
      </trkpt>
      <trkpt lat="44.74788" lon="1.75868">
        <ele>300.55</ele>
        <time>2026-05-15T09:24:05Z</time>
      </trkpt>
      <trkpt lat="44.74796" lon="1.75871">
        <ele>299.11</ele>
        <time>2026-05-15T09:24:16Z</time>
      </trkpt>
      <trkpt lat="44.74818" lon="1.75895">
        <ele>297.18</ele>
        <time>2026-05-15T09:24:37Z</time>
      </trkpt>
      <trkpt lat="44.74847" lon="1.75927">
        <ele>295.74</ele>
        <time>2026-05-15T09:25:03Z</time>
      </trkpt>
      <trkpt lat="44.74865" lon="1.75962">
        <ele>294.3</ele>
        <time>2026-05-15T09:25:25Z</time>
      </trkpt>
      <trkpt lat="44.74882" lon="1.76002">
        <ele>293.82</ele>
        <time>2026-05-15T09:25:51Z</time>
      </trkpt>
      <trkpt lat="44.74888" lon="1.7601">
        <ele>291.9</ele>
        <time>2026-05-15T09:25:57Z</time>
      </trkpt>
      <trkpt lat="44.7489" lon="1.76012">
        <ele>293.82</ele>
        <time>2026-05-15T09:25:59Z</time>
      </trkpt>
      <trkpt lat="44.74892" lon="1.76015">
        <ele>292.38</ele>
        <time>2026-05-15T09:26:02Z</time>
      </trkpt>
      <trkpt lat="44.74906" lon="1.76043">
        <ele>293.82</ele>
        <time>2026-05-15T09:26:19Z</time>
      </trkpt>
      <trkpt lat="44.74917" lon="1.76058">
        <ele>293.82</ele>
        <time>2026-05-15T09:26:40Z</time>
      </trkpt>
      <trkpt lat="44.74919" lon="1.76061">
        <ele>295.74</ele>
        <time>2026-05-15T09:26:43Z</time>
      </trkpt>
      <trkpt lat="44.74933" lon="1.76082">
        <ele>298.15</ele>
        <time>2026-05-15T09:27:04Z</time>
      </trkpt>
      <trkpt lat="44.74952" lon="1.76107">
        <ele>301.03</ele>
        <time>2026-05-15T09:27:31Z</time>
      </trkpt>
      <trkpt lat="44.74975" lon="1.76129">
        <ele>302.95</ele>
        <time>2026-05-15T09:27:56Z</time>
      </trkpt>
      <trkpt lat="44.74987" lon="1.7614">
        <ele>303.91</ele>
        <time>2026-05-15T09:28:08Z</time>
      </trkpt>
      <trkpt lat="44.74989" lon="1.76149">
        <ele>303.43</ele>
        <time>2026-05-15T09:28:32Z</time>
      </trkpt>
      <trkpt lat="44.74985" lon="1.76145">
        <ele>303.43</ele>
        <time>2026-05-15T09:28:56Z</time>
      </trkpt>
      <trkpt lat="44.74984" lon="1.76149">
        <ele>303.43</ele>
        <time>2026-05-15T09:29:21Z</time>
      </trkpt>
      <trkpt lat="44.74985" lon="1.76143">
        <ele>302.47</ele>
        <time>2026-05-15T09:29:46Z</time>
      </trkpt>
      <trkpt lat="44.74986" lon="1.76142">
        <ele>302.47</ele>
        <time>2026-05-15T09:30:03Z</time>
      </trkpt>
      <trkpt lat="44.74986" lon="1.76144">
        <ele>301.99</ele>
        <time>2026-05-15T09:30:25Z</time>
      </trkpt>
      <trkpt lat="44.74987" lon="1.76144">
        <ele>301.99</ele>
        <time>2026-05-15T09:30:43Z</time>
      </trkpt>
      <trkpt lat="44.74988" lon="1.76142">
        <ele>302.47</ele>
        <time>2026-05-15T09:31:09Z</time>
      </trkpt>
      <trkpt lat="44.74991" lon="1.76145">
        <ele>302.47</ele>
        <time>2026-05-15T09:31:40Z</time>
      </trkpt>
      <trkpt lat="44.74989" lon="1.76145">
        <ele>302.47</ele>
        <time>2026-05-15T09:32:03Z</time>
      </trkpt>
      <trkpt lat="44.7499" lon="1.76147">
        <ele>302.47</ele>
        <time>2026-05-15T09:32:30Z</time>
      </trkpt>
      <trkpt lat="44.74986" lon="1.76153">
        <ele>302.47</ele>
        <time>2026-05-15T09:32:54Z</time>
      </trkpt>
      <trkpt lat="44.74988" lon="1.76148">
        <ele>303.43</ele>
        <time>2026-05-15T09:33:14Z</time>
      </trkpt>
      <trkpt lat="44.74988" lon="1.76147">
        <ele>303.91</ele>
        <time>2026-05-15T09:33:42Z</time>
      </trkpt>
      <trkpt lat="44.74989" lon="1.76143">
        <ele>303.43</ele>
        <time>2026-05-15T09:34:10Z</time>
      </trkpt>
      <trkpt lat="44.74987" lon="1.76143">
        <ele>303.91</ele>
        <time>2026-05-15T09:34:39Z</time>
      </trkpt>
      <trkpt lat="44.74987" lon="1.76143">
        <ele>303.91</ele>
        <time>2026-05-15T09:35:11Z</time>
      </trkpt>
      <trkpt lat="44.74986" lon="1.76143">
        <ele>303.91</ele>
        <time>2026-05-15T09:35:42Z</time>
      </trkpt>
      <trkpt lat="44.74985" lon="1.76143">
        <ele>304.39</ele>
        <time>2026-05-15T09:36:16Z</time>
      </trkpt>
      <trkpt lat="44.74984" lon="1.76143">
        <ele>302.95</ele>
        <time>2026-05-15T09:36:20Z</time>
      </trkpt>
      <trkpt lat="44.74984" lon="1.76144">
        <ele>302.95</ele>
        <time>2026-05-15T09:36:50Z</time>
      </trkpt>
      <trkpt lat="44.74986" lon="1.76142">
        <ele>302.95</ele>
        <time>2026-05-15T09:37:12Z</time>
      </trkpt>
      <trkpt lat="44.74987" lon="1.76146">
        <ele>302.95</ele>
        <time>2026-05-15T09:37:46Z</time>
      </trkpt>
      <trkpt lat="44.74983" lon="1.76151">
        <ele>303.43</ele>
        <time>2026-05-15T09:38:16Z</time>
      </trkpt>
      <trkpt lat="44.74985" lon="1.76147">
        <ele>307.28</ele>
        <time>2026-05-15T09:38:38Z</time>
      </trkpt>
      <trkpt lat="44.74985" lon="1.76147">
        <ele>305.36</ele>
        <time>2026-05-15T09:38:39Z</time>
      </trkpt>
      <trkpt lat="44.74987" lon="1.76145">
        <ele>303.43</ele>
        <time>2026-05-15T09:38:55Z</time>
      </trkpt>
      <trkpt lat="44.74988" lon="1.76144">
        <ele>302.95</ele>
        <time>2026-05-15T09:39:09Z</time>
      </trkpt>
      <trkpt lat="44.74989" lon="1.76143">
        <ele>302.47</ele>
        <time>2026-05-15T09:39:29Z</time>
      </trkpt>
      <trkpt lat="44.74987" lon="1.76144">
        <ele>302.47</ele>
        <time>2026-05-15T09:39:55Z</time>
      </trkpt>
      <trkpt lat="44.74988" lon="1.76144">
        <ele>302.95</ele>
        <time>2026-05-15T09:40:16Z</time>
      </trkpt>
      <trkpt lat="44.74984" lon="1.76142">
        <ele>303.43</ele>
        <time>2026-05-15T09:40:38Z</time>
      </trkpt>
      <trkpt lat="44.74985" lon="1.76143">
        <ele>302.47</ele>
        <time>2026-05-15T09:40:49Z</time>
      </trkpt>
      <trkpt lat="44.74983" lon="1.76142">
        <ele>302.47</ele>
        <time>2026-05-15T09:41:04Z</time>
      </trkpt>
      <trkpt lat="44.74982" lon="1.76144">
        <ele>301.99</ele>
        <time>2026-05-15T09:41:30Z</time>
      </trkpt>
      <trkpt lat="44.74982" lon="1.76143">
        <ele>301.99</ele>
        <time>2026-05-15T09:41:46Z</time>
      </trkpt>
      <trkpt lat="44.74983" lon="1.76145">
        <ele>302.95</ele>
        <time>2026-05-15T09:41:56Z</time>
      </trkpt>
      <trkpt lat="44.74982" lon="1.76149">
        <ele>303.91</ele>
        <time>2026-05-15T09:42:14Z</time>
      </trkpt>
      <trkpt lat="44.74984" lon="1.76147">
        <ele>302.95</ele>
        <time>2026-05-15T09:42:32Z</time>
      </trkpt>
      <trkpt lat="44.74986" lon="1.76148">
        <ele>302.95</ele>
        <time>2026-05-15T09:42:51Z</time>
      </trkpt>
      <trkpt lat="44.74991" lon="1.76151">
        <ele>302.95</ele>
        <time>2026-05-15T09:43:09Z</time>
      </trkpt>
      <trkpt lat="44.75005" lon="1.76164">
        <ele>302.95</ele>
        <time>2026-05-15T09:43:26Z</time>
      </trkpt>
      <trkpt lat="44.75018" lon="1.76181">
        <ele>302.47</ele>
        <time>2026-05-15T09:43:41Z</time>
      </trkpt>
      <trkpt lat="44.7502" lon="1.76186">
        <ele>301.99</ele>
        <time>2026-05-15T09:43:44Z</time>
      </trkpt>
      <trkpt lat="44.75022" lon="1.7619">
        <ele>301.51</ele>
        <time>2026-05-15T09:43:46Z</time>
      </trkpt>
      <trkpt lat="44.75035" lon="1.76211">
        <ele>300.55</ele>
        <time>2026-05-15T09:44:01Z</time>
      </trkpt>
      <trkpt lat="44.75046" lon="1.76234">
        <ele>300.55</ele>
        <time>2026-05-15T09:44:17Z</time>
      </trkpt>
      <trkpt lat="44.75049" lon="1.76257">
        <ele>300.55</ele>
        <time>2026-05-15T09:44:30Z</time>
      </trkpt>
      <trkpt lat="44.7505" lon="1.76262">
        <ele>301.51</ele>
        <time>2026-05-15T09:44:33Z</time>
      </trkpt>
      <trkpt lat="44.75056" lon="1.76286">
        <ele>301.99</ele>
        <time>2026-05-15T09:44:49Z</time>
      </trkpt>
      <trkpt lat="44.75061" lon="1.76308">
        <ele>303.43</ele>
        <time>2026-05-15T09:45:02Z</time>
      </trkpt>
      <trkpt lat="44.75067" lon="1.76329">
        <ele>304.39</ele>
        <time>2026-05-15T09:45:16Z</time>
      </trkpt>
      <trkpt lat="44.75067" lon="1.7634">
        <ele>304.39</ele>
        <time>2026-05-15T09:45:28Z</time>
      </trkpt>
      <trkpt lat="44.75067" lon="1.76351">
        <ele>304.39</ele>
        <time>2026-05-15T09:45:33Z</time>
      </trkpt>
      <trkpt lat="44.75067" lon="1.76355">
        <ele>302.47</ele>
        <time>2026-05-15T09:45:35Z</time>
      </trkpt>
      <trkpt lat="44.75068" lon="1.76379">
        <ele>301.99</ele>
        <time>2026-05-15T09:45:52Z</time>
      </trkpt>
      <trkpt lat="44.75069" lon="1.76416">
        <ele>300.55</ele>
        <time>2026-05-15T09:46:12Z</time>
      </trkpt>
      <trkpt lat="44.7507" lon="1.76448">
        <ele>300.07</ele>
        <time>2026-05-15T09:46:29Z</time>
      </trkpt>
      <trkpt lat="44.75069" lon="1.7647">
        <ele>299.59</ele>
        <time>2026-05-15T09:46:45Z</time>
      </trkpt>
      <trkpt lat="44.7507" lon="1.76467">
        <ele>300.07</ele>
        <time>2026-05-15T09:47:21Z</time>
      </trkpt>
      <trkpt lat="44.75073" lon="1.76469">
        <ele>300.07</ele>
        <time>2026-05-15T09:48:00Z</time>
      </trkpt>
      <trkpt lat="44.75074" lon="1.76485">
        <ele>300.55</ele>
        <time>2026-05-15T09:48:30Z</time>
      </trkpt>
      <trkpt lat="44.75074" lon="1.76518">
        <ele>300.07</ele>
        <time>2026-05-15T09:48:47Z</time>
      </trkpt>
      <trkpt lat="44.75073" lon="1.7655">
        <ele>300.07</ele>
        <time>2026-05-15T09:49:04Z</time>
      </trkpt>
      <trkpt lat="44.75075" lon="1.76581">
        <ele>301.51</ele>
        <time>2026-05-15T09:49:22Z</time>
      </trkpt>
      <trkpt lat="44.75077" lon="1.76605">
        <ele>302.95</ele>
        <time>2026-05-15T09:49:37Z</time>
      </trkpt>
      <trkpt lat="44.75077" lon="1.76637">
        <ele>305.84</ele>
        <time>2026-05-15T09:49:57Z</time>
      </trkpt>
      <trkpt lat="44.75079" lon="1.76666">
        <ele>307.28</ele>
        <time>2026-05-15T09:50:14Z</time>
      </trkpt>
      <trkpt lat="44.75078" lon="1.76681">
        <ele>308.72</ele>
        <time>2026-05-15T09:50:22Z</time>
      </trkpt>
      <trkpt lat="44.75077" lon="1.76708">
        <ele>309.68</ele>
        <time>2026-05-15T09:50:37Z</time>
      </trkpt>
      <trkpt lat="44.75078" lon="1.76729">
        <ele>311.12</ele>
        <time>2026-05-15T09:50:50Z</time>
      </trkpt>
      <trkpt lat="44.75079" lon="1.76755">
        <ele>313.05</ele>
        <time>2026-05-15T09:51:06Z</time>
      </trkpt>
      <trkpt lat="44.7508" lon="1.76778">
        <ele>314.97</ele>
        <time>2026-05-15T09:51:24Z</time>
      </trkpt>
      <trkpt lat="44.75081" lon="1.76801">
        <ele>317.37</ele>
        <time>2026-05-15T09:51:42Z</time>
      </trkpt>
      <trkpt lat="44.75078" lon="1.76839">
        <ele>318.81</ele>
        <time>2026-05-15T09:51:59Z</time>
      </trkpt>
      <trkpt lat="44.75076" lon="1.76873">
        <ele>320.74</ele>
        <time>2026-05-15T09:52:20Z</time>
      </trkpt>
      <trkpt lat="44.75073" lon="1.76905">
        <ele>321.7</ele>
        <time>2026-05-15T09:52:38Z</time>
      </trkpt>
      <trkpt lat="44.75069" lon="1.76918">
        <ele>322.18</ele>
        <time>2026-05-15T09:52:45Z</time>
      </trkpt>
      <trkpt lat="44.75066" lon="1.76927">
        <ele>322.66</ele>
        <time>2026-05-15T09:52:51Z</time>
      </trkpt>
      <trkpt lat="44.75057" lon="1.76958">
        <ele>323.62</ele>
        <time>2026-05-15T09:53:08Z</time>
      </trkpt>
      <trkpt lat="44.75049" lon="1.76983">
        <ele>325.06</ele>
        <time>2026-05-15T09:53:23Z</time>
      </trkpt>
      <trkpt lat="44.75048" lon="1.76986">
        <ele>325.06</ele>
        <time>2026-05-15T09:53:25Z</time>
      </trkpt>
      <trkpt lat="44.75048" lon="1.76989">
        <ele>325.06</ele>
        <time>2026-05-15T09:53:27Z</time>
      </trkpt>
      <trkpt lat="44.75045" lon="1.77006">
        <ele>326.02</ele>
        <time>2026-05-15T09:53:39Z</time>
      </trkpt>
      <trkpt lat="44.75042" lon="1.77027">
        <ele>326.99</ele>
        <time>2026-05-15T09:53:52Z</time>
      </trkpt>
      <trkpt lat="44.75041" lon="1.77034">
        <ele>327.47</ele>
        <time>2026-05-15T09:53:55Z</time>
      </trkpt>
      <trkpt lat="44.75039" lon="1.77049">
        <ele>327.95</ele>
        <time>2026-05-15T09:54:03Z</time>
      </trkpt>
      <trkpt lat="44.75039" lon="1.77056">
        <ele>328.43</ele>
        <time>2026-05-15T09:54:07Z</time>
      </trkpt>
      <trkpt lat="44.75039" lon="1.77089">
        <ele>328.91</ele>
        <time>2026-05-15T09:54:27Z</time>
      </trkpt>
      <trkpt lat="44.75039" lon="1.77116">
        <ele>330.35</ele>
        <time>2026-05-15T09:54:43Z</time>
      </trkpt>
      <trkpt lat="44.7504" lon="1.77137">
        <ele>330.35</ele>
        <time>2026-05-15T09:54:56Z</time>
      </trkpt>
      <trkpt lat="44.7504" lon="1.7715">
        <ele>330.83</ele>
        <time>2026-05-15T09:55:09Z</time>
      </trkpt>
      <trkpt lat="44.75046" lon="1.7717">
        <ele>331.79</ele>
        <time>2026-05-15T09:55:24Z</time>
      </trkpt>
      <trkpt lat="44.75047" lon="1.77173">
        <ele>331.79</ele>
        <time>2026-05-15T09:55:36Z</time>
      </trkpt>
      <trkpt lat="44.75048" lon="1.77174">
        <ele>331.79</ele>
        <time>2026-05-15T09:55:59Z</time>
      </trkpt>
      <trkpt lat="44.75048" lon="1.77179">
        <ele>331.79</ele>
        <time>2026-05-15T09:56:03Z</time>
      </trkpt>
      <trkpt lat="44.75046" lon="1.77199">
        <ele>331.79</ele>
        <time>2026-05-15T09:56:13Z</time>
      </trkpt>
      <trkpt lat="44.7504" lon="1.77227">
        <ele>332.27</ele>
        <time>2026-05-15T09:56:29Z</time>
      </trkpt>
      <trkpt lat="44.75036" lon="1.77241">
        <ele>332.75</ele>
        <time>2026-05-15T09:56:46Z</time>
      </trkpt>
      <trkpt lat="44.75035" lon="1.77261">
        <ele>332.75</ele>
        <time>2026-05-15T09:56:55Z</time>
      </trkpt>
      <trkpt lat="44.75035" lon="1.77274">
        <ele>333.23</ele>
        <time>2026-05-15T09:57:02Z</time>
      </trkpt>
      <trkpt lat="44.75036" lon="1.77306">
        <ele>333.71</ele>
        <time>2026-05-15T09:57:20Z</time>
      </trkpt>
      <trkpt lat="44.75037" lon="1.77317">
        <ele>334.2</ele>
        <time>2026-05-15T09:57:36Z</time>
      </trkpt>
      <trkpt lat="44.75035" lon="1.77329">
        <ele>334.2</ele>
        <time>2026-05-15T09:57:59Z</time>
      </trkpt>
      <trkpt lat="44.75039" lon="1.77352">
        <ele>334.68</ele>
        <time>2026-05-15T09:58:12Z</time>
      </trkpt>
      <trkpt lat="44.75039" lon="1.77373">
        <ele>335.64</ele>
        <time>2026-05-15T09:58:26Z</time>
      </trkpt>
      <trkpt lat="44.75041" lon="1.77383">
        <ele>336.12</ele>
        <time>2026-05-15T09:58:32Z</time>
      </trkpt>
      <trkpt lat="44.75042" lon="1.77412">
        <ele>337.08</ele>
        <time>2026-05-15T09:58:48Z</time>
      </trkpt>
      <trkpt lat="44.7504" lon="1.77427">
        <ele>337.56</ele>
        <time>2026-05-15T09:58:56Z</time>
      </trkpt>
      <trkpt lat="44.75036" lon="1.77452">
        <ele>338.52</ele>
        <time>2026-05-15T09:59:12Z</time>
      </trkpt>
      <trkpt lat="44.75029" lon="1.77475">
        <ele>338.52</ele>
        <time>2026-05-15T09:59:26Z</time>
      </trkpt>
      <trkpt lat="44.75025" lon="1.77498">
        <ele>338.52</ele>
        <time>2026-05-15T09:59:42Z</time>
      </trkpt>
      <trkpt lat="44.75016" lon="1.77526">
        <ele>336.6</ele>
        <time>2026-05-15T09:59:58Z</time>
      </trkpt>
      <trkpt lat="44.75007" lon="1.77555">
        <ele>336.12</ele>
        <time>2026-05-15T10:00:14Z</time>
      </trkpt>
      <trkpt lat="44.75001" lon="1.77584">
        <ele>336.6</ele>
        <time>2026-05-15T10:00:31Z</time>
      </trkpt>
      <trkpt lat="44.7499" lon="1.77608">
        <ele>336.6</ele>
        <time>2026-05-15T10:00:47Z</time>
      </trkpt>
      <trkpt lat="44.74981" lon="1.7763">
        <ele>336.6</ele>
        <time>2026-05-15T10:01:01Z</time>
      </trkpt>
      <trkpt lat="44.74973" lon="1.77649">
        <ele>338.04</ele>
        <time>2026-05-15T10:01:16Z</time>
      </trkpt>
      <trkpt lat="44.74958" lon="1.77678">
        <ele>339</ele>
        <time>2026-05-15T10:01:34Z</time>
      </trkpt>
      <trkpt lat="44.74948" lon="1.7769">
        <ele>339.96</ele>
        <time>2026-05-15T10:01:46Z</time>
      </trkpt>
      <trkpt lat="44.74936" lon="1.77694">
        <ele>340.92</ele>
        <time>2026-05-15T10:01:54Z</time>
      </trkpt>
      <trkpt lat="44.74922" lon="1.77708">
        <ele>340.92</ele>
        <time>2026-05-15T10:02:10Z</time>
      </trkpt>
      <trkpt lat="44.74911" lon="1.77731">
        <ele>340.92</ele>
        <time>2026-05-15T10:02:26Z</time>
      </trkpt>
      <trkpt lat="44.749" lon="1.77755">
        <ele>340.92</ele>
        <time>2026-05-15T10:02:43Z</time>
      </trkpt>
      <trkpt lat="44.74888" lon="1.77777">
        <ele>340.92</ele>
        <time>2026-05-15T10:02:57Z</time>
      </trkpt>
      <trkpt lat="44.74868" lon="1.77791">
        <ele>340.92</ele>
        <time>2026-05-15T10:03:13Z</time>
      </trkpt>
      <trkpt lat="44.74847" lon="1.77797">
        <ele>341.41</ele>
        <time>2026-05-15T10:03:30Z</time>
      </trkpt>
      <trkpt lat="44.74835" lon="1.77815">
        <ele>341.41</ele>
        <time>2026-05-15T10:03:47Z</time>
      </trkpt>
      <trkpt lat="44.74819" lon="1.77832">
        <ele>341.41</ele>
        <time>2026-05-15T10:04:03Z</time>
      </trkpt>
      <trkpt lat="44.74799" lon="1.77853">
        <ele>341.89</ele>
        <time>2026-05-15T10:04:20Z</time>
      </trkpt>
      <trkpt lat="44.74788" lon="1.77872">
        <ele>342.85</ele>
        <time>2026-05-15T10:04:37Z</time>
      </trkpt>
      <trkpt lat="44.74775" lon="1.77895">
        <ele>344.29</ele>
        <time>2026-05-15T10:04:54Z</time>
      </trkpt>
      <trkpt lat="44.74764" lon="1.77917">
        <ele>345.73</ele>
        <time>2026-05-15T10:05:11Z</time>
      </trkpt>
      <trkpt lat="44.74743" lon="1.77935">
        <ele>345.73</ele>
        <time>2026-05-15T10:05:28Z</time>
      </trkpt>
      <trkpt lat="44.74718" lon="1.77935">
        <ele>343.81</ele>
        <time>2026-05-15T10:05:47Z</time>
      </trkpt>
      <trkpt lat="44.74699" lon="1.77938">
        <ele>343.81</ele>
        <time>2026-05-15T10:06:03Z</time>
      </trkpt>
      <trkpt lat="44.74676" lon="1.77937">
        <ele>343.81</ele>
        <time>2026-05-15T10:06:19Z</time>
      </trkpt>
      <trkpt lat="44.74655" lon="1.77939">
        <ele>345.25</ele>
        <time>2026-05-15T10:06:36Z</time>
      </trkpt>
      <trkpt lat="44.74645" lon="1.7794">
        <ele>345.73</ele>
        <time>2026-05-15T10:06:46Z</time>
      </trkpt>
      <trkpt lat="44.74639" lon="1.77941">
        <ele>346.21</ele>
        <time>2026-05-15T10:06:52Z</time>
      </trkpt>
      <trkpt lat="44.74619" lon="1.77928">
        <ele>347.17</ele>
        <time>2026-05-15T10:07:07Z</time>
      </trkpt>
      <trkpt lat="44.74618" lon="1.77921">
        <ele>347.65</ele>
        <time>2026-05-15T10:07:28Z</time>
      </trkpt>
      <trkpt lat="44.74621" lon="1.77925">
        <ele>347.65</ele>
        <time>2026-05-15T10:07:57Z</time>
      </trkpt>
      <trkpt lat="44.74617" lon="1.77929">
        <ele>347.65</ele>
        <time>2026-05-15T10:08:01Z</time>
      </trkpt>
      <trkpt lat="44.74596" lon="1.77925">
        <ele>347.65</ele>
        <time>2026-05-15T10:08:19Z</time>
      </trkpt>
      <trkpt lat="44.74575" lon="1.77917">
        <ele>347.65</ele>
        <time>2026-05-15T10:08:37Z</time>
      </trkpt>
      <trkpt lat="44.7457" lon="1.77915">
        <ele>347.65</ele>
        <time>2026-05-15T10:08:51Z</time>
      </trkpt>
      <trkpt lat="44.74553" lon="1.77914">
        <ele>347.65</ele>
        <time>2026-05-15T10:09:07Z</time>
      </trkpt>
      <trkpt lat="44.74524" lon="1.77922">
        <ele>345.25</ele>
        <time>2026-05-15T10:09:30Z</time>
      </trkpt>
      <trkpt lat="44.74492" lon="1.77937">
        <ele>343.81</ele>
        <time>2026-05-15T10:09:53Z</time>
      </trkpt>
      <trkpt lat="44.74469" lon="1.7795">
        <ele>341.89</ele>
        <time>2026-05-15T10:10:12Z</time>
      </trkpt>
      <trkpt lat="44.74456" lon="1.77956">
        <ele>341.41</ele>
        <time>2026-05-15T10:10:32Z</time>
      </trkpt>
      <trkpt lat="44.74444" lon="1.77964">
        <ele>340.44</ele>
        <time>2026-05-15T10:10:47Z</time>
      </trkpt>
      <trkpt lat="44.74438" lon="1.7797">
        <ele>340.44</ele>
        <time>2026-05-15T10:10:52Z</time>
      </trkpt>
      <trkpt lat="44.74423" lon="1.77994">
        <ele>339.48</ele>
        <time>2026-05-15T10:11:09Z</time>
      </trkpt>
      <trkpt lat="44.74424" lon="1.78013">
        <ele>339.48</ele>
        <time>2026-05-15T10:11:26Z</time>
      </trkpt>
      <trkpt lat="44.74428" lon="1.78047">
        <ele>341.89</ele>
        <time>2026-05-15T10:11:43Z</time>
      </trkpt>
      <trkpt lat="44.74424" lon="1.78066">
        <ele>341.89</ele>
        <time>2026-05-15T10:12:04Z</time>
      </trkpt>
      <trkpt lat="44.74424" lon="1.78067">
        <ele>341.89</ele>
        <time>2026-05-15T10:12:28Z</time>
      </trkpt>
      <trkpt lat="44.74418" lon="1.78064">
        <ele>340.92</ele>
        <time>2026-05-15T10:12:59Z</time>
      </trkpt>
      <trkpt lat="44.74417" lon="1.78064">
        <ele>340.92</ele>
        <time>2026-05-15T10:13:00Z</time>
      </trkpt>
      <trkpt lat="44.74399" lon="1.78057">
        <ele>339.48</ele>
        <time>2026-05-15T10:13:19Z</time>
      </trkpt>
      <trkpt lat="44.74391" lon="1.78054">
        <ele>339.48</ele>
        <time>2026-05-15T10:13:27Z</time>
      </trkpt>
      <trkpt lat="44.74366" lon="1.7805">
        <ele>338.52</ele>
        <time>2026-05-15T10:13:46Z</time>
      </trkpt>
      <trkpt lat="44.74361" lon="1.7805">
        <ele>339.96</ele>
        <time>2026-05-15T10:13:50Z</time>
      </trkpt>
      <trkpt lat="44.74336" lon="1.78046">
        <ele>341.41</ele>
        <time>2026-05-15T10:14:09Z</time>
      </trkpt>
      <trkpt lat="44.74313" lon="1.78048">
        <ele>342.37</ele>
        <time>2026-05-15T10:14:26Z</time>
      </trkpt>
      <trkpt lat="44.74293" lon="1.78057">
        <ele>342.37</ele>
        <time>2026-05-15T10:14:43Z</time>
      </trkpt>
      <trkpt lat="44.74269" lon="1.78074">
        <ele>342.37</ele>
        <time>2026-05-15T10:15:02Z</time>
      </trkpt>
      <trkpt lat="44.74251" lon="1.78101">
        <ele>342.37</ele>
        <time>2026-05-15T10:15:20Z</time>
      </trkpt>
      <trkpt lat="44.74238" lon="1.78121">
        <ele>341.89</ele>
        <time>2026-05-15T10:15:38Z</time>
      </trkpt>
      <trkpt lat="44.74224" lon="1.78152">
        <ele>343.33</ele>
        <time>2026-05-15T10:15:58Z</time>
      </trkpt>
      <trkpt lat="44.74219" lon="1.78183">
        <ele>344.77</ele>
        <time>2026-05-15T10:16:14Z</time>
      </trkpt>
      <trkpt lat="44.7421" lon="1.78219">
        <ele>345.73</ele>
        <time>2026-05-15T10:16:33Z</time>
      </trkpt>
      <trkpt lat="44.74202" lon="1.78244">
        <ele>345.73</ele>
        <time>2026-05-15T10:16:50Z</time>
      </trkpt>
      <trkpt lat="44.74196" lon="1.78262">
        <ele>344.77</ele>
        <time>2026-05-15T10:17:02Z</time>
      </trkpt>
      <trkpt lat="44.74192" lon="1.78285">
        <ele>343.33</ele>
        <time>2026-05-15T10:17:16Z</time>
      </trkpt>
      <trkpt lat="44.74184" lon="1.78326">
        <ele>342.37</ele>
        <time>2026-05-15T10:17:35Z</time>
      </trkpt>
      <trkpt lat="44.74178" lon="1.78365">
        <ele>341.89</ele>
        <time>2026-05-15T10:17:56Z</time>
      </trkpt>
      <trkpt lat="44.74178" lon="1.78394">
        <ele>341.89</ele>
        <time>2026-05-15T10:18:13Z</time>
      </trkpt>
      <trkpt lat="44.74173" lon="1.78436">
        <ele>343.81</ele>
        <time>2026-05-15T10:18:37Z</time>
      </trkpt>
      <trkpt lat="44.74169" lon="1.78469">
        <ele>344.77</ele>
        <time>2026-05-15T10:18:56Z</time>
      </trkpt>
      <trkpt lat="44.74164" lon="1.785">
        <ele>345.73</ele>
        <time>2026-05-15T10:19:13Z</time>
      </trkpt>
      <trkpt lat="44.74167" lon="1.7853">
        <ele>345.73</ele>
        <time>2026-05-15T10:19:28Z</time>
      </trkpt>
      <trkpt lat="44.74168" lon="1.78567">
        <ele>344.29</ele>
        <time>2026-05-15T10:19:45Z</time>
      </trkpt>
      <trkpt lat="44.74165" lon="1.78597">
        <ele>343.81</ele>
        <time>2026-05-15T10:20:02Z</time>
      </trkpt>
      <trkpt lat="44.74162" lon="1.78619">
        <ele>343.81</ele>
        <time>2026-05-15T10:20:18Z</time>
      </trkpt>
      <trkpt lat="44.74161" lon="1.78652">
        <ele>343.81</ele>
        <time>2026-05-15T10:20:34Z</time>
      </trkpt>
      <trkpt lat="44.74165" lon="1.78665">
        <ele>343.33</ele>
        <time>2026-05-15T10:20:42Z</time>
      </trkpt>
      <trkpt lat="44.74174" lon="1.78692">
        <ele>341.89</ele>
        <time>2026-05-15T10:20:56Z</time>
      </trkpt>
      <trkpt lat="44.74191" lon="1.78707">
        <ele>339.48</ele>
        <time>2026-05-15T10:21:14Z</time>
      </trkpt>
      <trkpt lat="44.74203" lon="1.78712">
        <ele>339</ele>
        <time>2026-05-15T10:21:30Z</time>
      </trkpt>
      <trkpt lat="44.74218" lon="1.78715">
        <ele>339</ele>
        <time>2026-05-15T10:21:49Z</time>
      </trkpt>
      <trkpt lat="44.74217" lon="1.78714">
        <ele>335.64</ele>
        <time>2026-05-15T10:21:50Z</time>
      </trkpt>
      <trkpt lat="44.74218" lon="1.78713">
        <ele>340.44</ele>
        <time>2026-05-15T10:21:51Z</time>
      </trkpt>
      <trkpt lat="44.74226" lon="1.78716">
        <ele>338.04</ele>
        <time>2026-05-15T10:22:05Z</time>
      </trkpt>
      <trkpt lat="44.74236" lon="1.78722">
        <ele>337.56</ele>
        <time>2026-05-15T10:22:17Z</time>
      </trkpt>
      <trkpt lat="44.74257" lon="1.7873">
        <ele>336.12</ele>
        <time>2026-05-15T10:22:35Z</time>
      </trkpt>
      <trkpt lat="44.7427" lon="1.78727">
        <ele>335.16</ele>
        <time>2026-05-15T10:22:44Z</time>
      </trkpt>
      <trkpt lat="44.74292" lon="1.78723">
        <ele>332.75</ele>
        <time>2026-05-15T10:23:04Z</time>
      </trkpt>
      <trkpt lat="44.74303" lon="1.78731">
        <ele>332.75</ele>
        <time>2026-05-15T10:23:15Z</time>
      </trkpt>
      <trkpt lat="44.74313" lon="1.78734">
        <ele>331.79</ele>
        <time>2026-05-15T10:23:23Z</time>
      </trkpt>
      <trkpt lat="44.74337" lon="1.7875">
        <ele>331.31</ele>
        <time>2026-05-15T10:23:42Z</time>
      </trkpt>
      <trkpt lat="44.74358" lon="1.78765">
        <ele>330.83</ele>
        <time>2026-05-15T10:24:02Z</time>
      </trkpt>
      <trkpt lat="44.74381" lon="1.78774">
        <ele>330.35</ele>
        <time>2026-05-15T10:24:18Z</time>
      </trkpt>
      <trkpt lat="44.74401" lon="1.78786">
        <ele>330.35</ele>
        <time>2026-05-15T10:24:34Z</time>
      </trkpt>
      <trkpt lat="44.74408" lon="1.78796">
        <ele>330.35</ele>
        <time>2026-05-15T10:24:46Z</time>
      </trkpt>
      <trkpt lat="44.74409" lon="1.78797">
        <ele>330.35</ele>
        <time>2026-05-15T10:24:47Z</time>
      </trkpt>
      <trkpt lat="44.74411" lon="1.78802">
        <ele>330.35</ele>
        <time>2026-05-15T10:24:51Z</time>
      </trkpt>
      <trkpt lat="44.7441" lon="1.78831">
        <ele>331.79</ele>
        <time>2026-05-15T10:25:09Z</time>
      </trkpt>
      <trkpt lat="44.74404" lon="1.78861">
        <ele>332.75</ele>
        <time>2026-05-15T10:25:27Z</time>
      </trkpt>
      <trkpt lat="44.74398" lon="1.78887">
        <ele>333.71</ele>
        <time>2026-05-15T10:25:43Z</time>
      </trkpt>
      <trkpt lat="44.74397" lon="1.78897">
        <ele>333.71</ele>
        <time>2026-05-15T10:25:50Z</time>
      </trkpt>
      <trkpt lat="44.74397" lon="1.789">
        <ele>334.2</ele>
        <time>2026-05-15T10:25:52Z</time>
      </trkpt>
      <trkpt lat="44.74397" lon="1.78905">
        <ele>334.2</ele>
        <time>2026-05-15T10:25:55Z</time>
      </trkpt>
      <trkpt lat="44.74397" lon="1.78936">
        <ele>335.16</ele>
        <time>2026-05-15T10:26:12Z</time>
      </trkpt>
      <trkpt lat="44.74403" lon="1.78955">
        <ele>336.12</ele>
        <time>2026-05-15T10:26:25Z</time>
      </trkpt>
      <trkpt lat="44.74413" lon="1.78981">
        <ele>336.6</ele>
        <time>2026-05-15T10:26:42Z</time>
      </trkpt>
      <trkpt lat="44.74424" lon="1.79">
        <ele>338.04</ele>
        <time>2026-05-15T10:26:57Z</time>
      </trkpt>
      <trkpt lat="44.74429" lon="1.79025">
        <ele>339</ele>
        <time>2026-05-15T10:27:10Z</time>
      </trkpt>
      <trkpt lat="44.74442" lon="1.79049">
        <ele>340.92</ele>
        <time>2026-05-15T10:27:29Z</time>
      </trkpt>
      <trkpt lat="44.74453" lon="1.79066">
        <ele>341.41</ele>
        <time>2026-05-15T10:27:44Z</time>
      </trkpt>
      <trkpt lat="44.74464" lon="1.79092">
        <ele>342.37</ele>
        <time>2026-05-15T10:28:01Z</time>
      </trkpt>
      <trkpt lat="44.74467" lon="1.79099">
        <ele>342.85</ele>
        <time>2026-05-15T10:28:05Z</time>
      </trkpt>
      <trkpt lat="44.74479" lon="1.79123">
        <ele>343.33</ele>
        <time>2026-05-15T10:28:22Z</time>
      </trkpt>
      <trkpt lat="44.74488" lon="1.79145">
        <ele>343.33</ele>
        <time>2026-05-15T10:28:38Z</time>
      </trkpt>
      <trkpt lat="44.7449" lon="1.79154">
        <ele>343.33</ele>
        <time>2026-05-15T10:28:43Z</time>
      </trkpt>
      <trkpt lat="44.74494" lon="1.79161">
        <ele>343.33</ele>
        <time>2026-05-15T10:28:47Z</time>
      </trkpt>
      <trkpt lat="44.74512" lon="1.79189">
        <ele>343.33</ele>
        <time>2026-05-15T10:29:06Z</time>
      </trkpt>
      <trkpt lat="44.74522" lon="1.79202">
        <ele>341.41</ele>
        <time>2026-05-15T10:29:17Z</time>
      </trkpt>
      <trkpt lat="44.74531" lon="1.79218">
        <ele>341.41</ele>
        <time>2026-05-15T10:29:28Z</time>
      </trkpt>
      <trkpt lat="44.74544" lon="1.79236">
        <ele>340.92</ele>
        <time>2026-05-15T10:29:44Z</time>
      </trkpt>
      <trkpt lat="44.7456" lon="1.79253">
        <ele>339.48</ele>
        <time>2026-05-15T10:29:59Z</time>
      </trkpt>
      <trkpt lat="44.74562" lon="1.79255">
        <ele>339.48</ele>
        <time>2026-05-15T10:30:01Z</time>
      </trkpt>
      <trkpt lat="44.74567" lon="1.79261">
        <ele>339.48</ele>
        <time>2026-05-15T10:30:05Z</time>
      </trkpt>
      <trkpt lat="44.74582" lon="1.79285">
        <ele>338.52</ele>
        <time>2026-05-15T10:30:21Z</time>
      </trkpt>
      <trkpt lat="44.74595" lon="1.79294">
        <ele>338.04</ele>
        <time>2026-05-15T10:30:32Z</time>
      </trkpt>
      <trkpt lat="44.74598" lon="1.79297">
        <ele>337.56</ele>
        <time>2026-05-15T10:30:35Z</time>
      </trkpt>
      <trkpt lat="44.74623" lon="1.7931">
        <ele>335.64</ele>
        <time>2026-05-15T10:30:52Z</time>
      </trkpt>
      <trkpt lat="44.74631" lon="1.79312">
        <ele>335.16</ele>
        <time>2026-05-15T10:30:59Z</time>
      </trkpt>
      <trkpt lat="44.74648" lon="1.79313">
        <ele>333.71</ele>
        <time>2026-05-15T10:31:12Z</time>
      </trkpt>
      <trkpt lat="44.74671" lon="1.79325">
        <ele>332.75</ele>
        <time>2026-05-15T10:31:30Z</time>
      </trkpt>
      <trkpt lat="44.74692" lon="1.79339">
        <ele>332.27</ele>
        <time>2026-05-15T10:31:46Z</time>
      </trkpt>
      <trkpt lat="44.74715" lon="1.79352">
        <ele>332.27</ele>
        <time>2026-05-15T10:32:07Z</time>
      </trkpt>
      <trkpt lat="44.7473" lon="1.79371">
        <ele>332.27</ele>
        <time>2026-05-15T10:32:24Z</time>
      </trkpt>
      <trkpt lat="44.74746" lon="1.79382">
        <ele>330.83</ele>
        <time>2026-05-15T10:32:40Z</time>
      </trkpt>
      <trkpt lat="44.74762" lon="1.79394">
        <ele>329.39</ele>
        <time>2026-05-15T10:32:53Z</time>
      </trkpt>
      <trkpt lat="44.74789" lon="1.79406">
        <ele>329.39</ele>
        <time>2026-05-15T10:33:07Z</time>
      </trkpt>
      <trkpt lat="44.74798" lon="1.79417">
        <ele>329.39</ele>
        <time>2026-05-15T10:33:14Z</time>
      </trkpt>
      <trkpt lat="44.74819" lon="1.79435">
        <ele>329.39</ele>
        <time>2026-05-15T10:33:33Z</time>
      </trkpt>
      <trkpt lat="44.74837" lon="1.79445">
        <ele>329.39</ele>
        <time>2026-05-15T10:33:49Z</time>
      </trkpt>
      <trkpt lat="44.74854" lon="1.79458">
        <ele>330.35</ele>
        <time>2026-05-15T10:34:05Z</time>
      </trkpt>
      <trkpt lat="44.74864" lon="1.79471">
        <ele>331.31</ele>
        <time>2026-05-15T10:34:16Z</time>
      </trkpt>
      <trkpt lat="44.74879" lon="1.79495">
        <ele>331.31</ele>
        <time>2026-05-15T10:34:33Z</time>
      </trkpt>
      <trkpt lat="44.74889" lon="1.79511">
        <ele>331.79</ele>
        <time>2026-05-15T10:34:53Z</time>
      </trkpt>
      <trkpt lat="44.74893" lon="1.79515">
        <ele>332.27</ele>
        <time>2026-05-15T10:35:13Z</time>
      </trkpt>
      <trkpt lat="44.74913" lon="1.79537">
        <ele>332.75</ele>
        <time>2026-05-15T10:35:32Z</time>
      </trkpt>
      <trkpt lat="44.74931" lon="1.79564">
        <ele>333.23</ele>
        <time>2026-05-15T10:35:56Z</time>
      </trkpt>
      <trkpt lat="44.74944" lon="1.79578">
        <ele>334.2</ele>
        <time>2026-05-15T10:36:12Z</time>
      </trkpt>
      <trkpt lat="44.74946" lon="1.79581">
        <ele>334.2</ele>
        <time>2026-05-15T10:36:16Z</time>
      </trkpt>
      <trkpt lat="44.74959" lon="1.79597">
        <ele>334.2</ele>
        <time>2026-05-15T10:36:32Z</time>
      </trkpt>
      <trkpt lat="44.74963" lon="1.79628">
        <ele>334.2</ele>
        <time>2026-05-15T10:36:52Z</time>
      </trkpt>
      <trkpt lat="44.74964" lon="1.79641">
        <ele>334.2</ele>
        <time>2026-05-15T10:36:59Z</time>
      </trkpt>
      <trkpt lat="44.74966" lon="1.79672">
        <ele>332.75</ele>
        <time>2026-05-15T10:37:14Z</time>
      </trkpt>
      <trkpt lat="44.74972" lon="1.79708">
        <ele>331.31</ele>
        <time>2026-05-15T10:37:34Z</time>
      </trkpt>
      <trkpt lat="44.74971" lon="1.79714">
        <ele>330.83</ele>
        <time>2026-05-15T10:37:38Z</time>
      </trkpt>
      <trkpt lat="44.74949" lon="1.79732">
        <ele>330.35</ele>
        <time>2026-05-15T10:37:55Z</time>
      </trkpt>
      <trkpt lat="44.74927" lon="1.79738">
        <ele>329.39</ele>
        <time>2026-05-15T10:38:13Z</time>
      </trkpt>
      <trkpt lat="44.74924" lon="1.79738">
        <ele>329.39</ele>
        <time>2026-05-15T10:38:16Z</time>
      </trkpt>
      <trkpt lat="44.74913" lon="1.79738">
        <ele>329.39</ele>
        <time>2026-05-15T10:38:36Z</time>
      </trkpt>
      <trkpt lat="44.74912" lon="1.7974">
        <ele>329.39</ele>
        <time>2026-05-15T10:39:02Z</time>
      </trkpt>
      <trkpt lat="44.74911" lon="1.79743">
        <ele>329.87</ele>
        <time>2026-05-15T10:39:31Z</time>
      </trkpt>
      <trkpt lat="44.74911" lon="1.79741">
        <ele>329.87</ele>
        <time>2026-05-15T10:40:01Z</time>
      </trkpt>
      <trkpt lat="44.7491" lon="1.79748">
        <ele>329.87</ele>
        <time>2026-05-15T10:40:22Z</time>
      </trkpt>
      <trkpt lat="44.74906" lon="1.7975">
        <ele>329.87</ele>
        <time>2026-05-15T10:40:25Z</time>
      </trkpt>
      <trkpt lat="44.74889" lon="1.79776">
        <ele>327.47</ele>
        <time>2026-05-15T10:40:44Z</time>
      </trkpt>
      <trkpt lat="44.74887" lon="1.7978">
        <ele>329.39</ele>
        <time>2026-05-15T10:40:47Z</time>
      </trkpt>
      <trkpt lat="44.74874" lon="1.79801">
        <ele>327.95</ele>
        <time>2026-05-15T10:41:05Z</time>
      </trkpt>
      <trkpt lat="44.7487" lon="1.79809">
        <ele>329.39</ele>
        <time>2026-05-15T10:41:12Z</time>
      </trkpt>
      <trkpt lat="44.7487" lon="1.7981">
        <ele>327.95</ele>
        <time>2026-05-15T10:41:15Z</time>
      </trkpt>
      <trkpt lat="44.7486" lon="1.79826">
        <ele>327.47</ele>
        <time>2026-05-15T10:41:30Z</time>
      </trkpt>
      <trkpt lat="44.74861" lon="1.79826">
        <ele>327.95</ele>
        <time>2026-05-15T10:41:44Z</time>
      </trkpt>
      <trkpt lat="44.7486" lon="1.79828">
        <ele>326.5</ele>
        <time>2026-05-15T10:41:51Z</time>
      </trkpt>
      <trkpt lat="44.7486" lon="1.7983">
        <ele>326.5</ele>
        <time>2026-05-15T10:42:08Z</time>
      </trkpt>
      <trkpt lat="44.74856" lon="1.79836">
        <ele>326.5</ele>
        <time>2026-05-15T10:42:13Z</time>
      </trkpt>
      <trkpt lat="44.74847" lon="1.79857">
        <ele>326.5</ele>
        <time>2026-05-15T10:42:28Z</time>
      </trkpt>
      <trkpt lat="44.74835" lon="1.79885">
        <ele>325.54</ele>
        <time>2026-05-15T10:42:45Z</time>
      </trkpt>
      <trkpt lat="44.74824" lon="1.79913">
        <ele>324.58</ele>
        <time>2026-05-15T10:43:02Z</time>
      </trkpt>
      <trkpt lat="44.74808" lon="1.79939">
        <ele>324.1</ele>
        <time>2026-05-15T10:43:20Z</time>
      </trkpt>
      <trkpt lat="44.74796" lon="1.79952">
        <ele>325.06</ele>
        <time>2026-05-15T10:43:36Z</time>
      </trkpt>
      <trkpt lat="44.74793" lon="1.79956">
        <ele>325.06</ele>
        <time>2026-05-15T10:43:56Z</time>
      </trkpt>
      <trkpt lat="44.74788" lon="1.79961">
        <ele>323.62</ele>
        <time>2026-05-15T10:44:12Z</time>
      </trkpt>
      <trkpt lat="44.74782" lon="1.79969">
        <ele>325.06</ele>
        <time>2026-05-15T10:44:26Z</time>
      </trkpt>
      <trkpt lat="44.74789" lon="1.79985">
        <ele>323.62</ele>
        <time>2026-05-15T10:44:41Z</time>
      </trkpt>
      <trkpt lat="44.74803" lon="1.80001">
        <ele>324.1</ele>
        <time>2026-05-15T10:44:57Z</time>
      </trkpt>
      <trkpt lat="44.74811" lon="1.80012">
        <ele>323.62</ele>
        <time>2026-05-15T10:45:05Z</time>
      </trkpt>
      <trkpt lat="44.74825" lon="1.8004">
        <ele>322.66</ele>
        <time>2026-05-15T10:45:24Z</time>
      </trkpt>
      <trkpt lat="44.7484" lon="1.80062">
        <ele>321.7</ele>
        <time>2026-05-15T10:45:41Z</time>
      </trkpt>
      <trkpt lat="44.74859" lon="1.80097">
        <ele>321.7</ele>
        <time>2026-05-15T10:46:04Z</time>
      </trkpt>
      <trkpt lat="44.74872" lon="1.80127">
        <ele>321.7</ele>
        <time>2026-05-15T10:46:28Z</time>
      </trkpt>
      <trkpt lat="44.74867" lon="1.80144">
        <ele>321.22</ele>
        <time>2026-05-15T10:46:46Z</time>
      </trkpt>
      <trkpt lat="44.74845" lon="1.80167">
        <ele>321.22</ele>
        <time>2026-05-15T10:47:06Z</time>
      </trkpt>
      <trkpt lat="44.74818" lon="1.80192">
        <ele>321.22</ele>
        <time>2026-05-15T10:47:30Z</time>
      </trkpt>
      <trkpt lat="44.74795" lon="1.80219">
        <ele>321.22</ele>
        <time>2026-05-15T10:47:52Z</time>
      </trkpt>
      <trkpt lat="44.74788" lon="1.80248">
        <ele>321.7</ele>
        <time>2026-05-15T10:48:11Z</time>
      </trkpt>
      <trkpt lat="44.7478" lon="1.80279">
        <ele>322.66</ele>
        <time>2026-05-15T10:48:30Z</time>
      </trkpt>
      <trkpt lat="44.74786" lon="1.803">
        <ele>324.1</ele>
        <time>2026-05-15T10:48:47Z</time>
      </trkpt>
      <trkpt lat="44.74787" lon="1.80336">
        <ele>323.14</ele>
        <time>2026-05-15T10:49:08Z</time>
      </trkpt>
      <trkpt lat="44.74796" lon="1.80355">
        <ele>322.18</ele>
        <time>2026-05-15T10:49:20Z</time>
      </trkpt>
      <trkpt lat="44.74822" lon="1.80389">
        <ele>319.78</ele>
        <time>2026-05-15T10:49:47Z</time>
      </trkpt>
      <trkpt lat="44.74852" lon="1.80413">
        <ele>318.33</ele>
        <time>2026-05-15T10:50:12Z</time>
      </trkpt>
      <trkpt lat="44.74857" lon="1.80419">
        <ele>317.85</ele>
        <time>2026-05-15T10:50:18Z</time>
      </trkpt>
      <trkpt lat="44.74864" lon="1.80457">
        <ele>317.85</ele>
        <time>2026-05-15T10:50:40Z</time>
      </trkpt>
      <trkpt lat="44.74871" lon="1.80494">
        <ele>318.81</ele>
        <time>2026-05-15T10:51:04Z</time>
      </trkpt>
      <trkpt lat="44.7487" lon="1.80522">
        <ele>322.18</ele>
        <time>2026-05-15T10:51:24Z</time>
      </trkpt>
      <trkpt lat="44.74867" lon="1.80545">
        <ele>325.54</ele>
        <time>2026-05-15T10:51:41Z</time>
      </trkpt>
      <trkpt lat="44.74854" lon="1.80583">
        <ele>327.95</ele>
        <time>2026-05-15T10:52:06Z</time>
      </trkpt>
      <trkpt lat="44.74846" lon="1.80626">
        <ele>328.91</ele>
        <time>2026-05-15T10:52:32Z</time>
      </trkpt>
      <trkpt lat="44.74848" lon="1.80665">
        <ele>328.91</ele>
        <time>2026-05-15T10:52:56Z</time>
      </trkpt>
      <trkpt lat="44.74848" lon="1.80691">
        <ele>328.91</ele>
        <time>2026-05-15T10:53:10Z</time>
      </trkpt>
      <trkpt lat="44.74849" lon="1.80733">
        <ele>328.91</ele>
        <time>2026-05-15T10:53:33Z</time>
      </trkpt>
      <trkpt lat="44.74858" lon="1.8077">
        <ele>327.47</ele>
        <time>2026-05-15T10:53:53Z</time>
      </trkpt>
      <trkpt lat="44.7487" lon="1.80801">
        <ele>325.06</ele>
        <time>2026-05-15T10:54:13Z</time>
      </trkpt>
      <trkpt lat="44.74872" lon="1.80844">
        <ele>324.1</ele>
        <time>2026-05-15T10:54:37Z</time>
      </trkpt>
      <trkpt lat="44.74863" lon="1.80887">
        <ele>324.1</ele>
        <time>2026-05-15T10:55:01Z</time>
      </trkpt>
      <trkpt lat="44.74852" lon="1.80925">
        <ele>324.58</ele>
        <time>2026-05-15T10:55:25Z</time>
      </trkpt>
      <trkpt lat="44.7485" lon="1.80934">
        <ele>326.02</ele>
        <time>2026-05-15T10:55:31Z</time>
      </trkpt>
      <trkpt lat="44.74843" lon="1.80973">
        <ele>327.47</ele>
        <time>2026-05-15T10:55:53Z</time>
      </trkpt>
      <trkpt lat="44.74833" lon="1.81003">
        <ele>328.43</ele>
        <time>2026-05-15T10:56:15Z</time>
      </trkpt>
      <trkpt lat="44.74819" lon="1.80995">
        <ele>328.43</ele>
        <time>2026-05-15T10:56:28Z</time>
      </trkpt>
      <trkpt lat="44.7481" lon="1.81">
        <ele>327.47</ele>
        <time>2026-05-15T10:56:36Z</time>
      </trkpt>
      <trkpt lat="44.74804" lon="1.81004">
        <ele>326.5</ele>
        <time>2026-05-15T10:56:42Z</time>
      </trkpt>
      <trkpt lat="44.74783" lon="1.81013">
        <ele>323.62</ele>
        <time>2026-05-15T10:56:59Z</time>
      </trkpt>
      <trkpt lat="44.74782" lon="1.81013">
        <ele>323.14</ele>
        <time>2026-05-15T10:57:00Z</time>
      </trkpt>
      <trkpt lat="44.74777" lon="1.81016">
        <ele>322.66</ele>
        <time>2026-05-15T10:57:03Z</time>
      </trkpt>
      <trkpt lat="44.74768" lon="1.81043">
        <ele>321.22</ele>
        <time>2026-05-15T10:57:20Z</time>
      </trkpt>
      <trkpt lat="44.74768" lon="1.81063">
        <ele>318.81</ele>
        <time>2026-05-15T10:57:33Z</time>
      </trkpt>
      <trkpt lat="44.74771" lon="1.81094">
        <ele>315.45</ele>
        <time>2026-05-15T10:57:50Z</time>
      </trkpt>
      <trkpt lat="44.74764" lon="1.81112">
        <ele>312.09</ele>
        <time>2026-05-15T10:58:04Z</time>
      </trkpt>
      <trkpt lat="44.74754" lon="1.81121">
        <ele>311.6</ele>
        <time>2026-05-15T10:58:12Z</time>
      </trkpt>
      <trkpt lat="44.74738" lon="1.81126">
        <ele>310.64</ele>
        <time>2026-05-15T10:58:28Z</time>
      </trkpt>
      <trkpt lat="44.74734" lon="1.81123">
        <ele>310.64</ele>
        <time>2026-05-15T10:58:34Z</time>
      </trkpt>
      <trkpt lat="44.74712" lon="1.81105">
        <ele>312.09</ele>
        <time>2026-05-15T10:58:52Z</time>
      </trkpt>
      <trkpt lat="44.74699" lon="1.81116">
        <ele>313.05</ele>
        <time>2026-05-15T10:59:08Z</time>
      </trkpt>
      <trkpt lat="44.74698" lon="1.8112">
        <ele>313.05</ele>
        <time>2026-05-15T10:59:10Z</time>
      </trkpt>
      <trkpt lat="44.74692" lon="1.81151">
        <ele>315.93</ele>
        <time>2026-05-15T10:59:28Z</time>
      </trkpt>
      <trkpt lat="44.747" lon="1.81177">
        <ele>317.85</ele>
        <time>2026-05-15T10:59:45Z</time>
      </trkpt>
      <trkpt lat="44.74705" lon="1.81194">
        <ele>319.78</ele>
        <time>2026-05-15T11:00:00Z</time>
      </trkpt>
      <trkpt lat="44.74694" lon="1.81189">
        <ele>323.14</ele>
        <time>2026-05-15T11:00:17Z</time>
      </trkpt>
      <trkpt lat="44.74672" lon="1.81187">
        <ele>325.06</ele>
        <time>2026-05-15T11:00:35Z</time>
      </trkpt>
      <trkpt lat="44.74664" lon="1.81209">
        <ele>327.95</ele>
        <time>2026-05-15T11:00:53Z</time>
      </trkpt>
      <trkpt lat="44.74666" lon="1.81228">
        <ele>328.91</ele>
        <time>2026-05-15T11:01:08Z</time>
      </trkpt>
      <trkpt lat="44.74675" lon="1.81256">
        <ele>329.39</ele>
        <time>2026-05-15T11:01:24Z</time>
      </trkpt>
      <trkpt lat="44.74679" lon="1.81264">
        <ele>329.39</ele>
        <time>2026-05-15T11:01:29Z</time>
      </trkpt>
      <trkpt lat="44.7469" lon="1.81286">
        <ele>329.87</ele>
        <time>2026-05-15T11:01:44Z</time>
      </trkpt>
      <trkpt lat="44.747" lon="1.81298">
        <ele>329.87</ele>
        <time>2026-05-15T11:01:55Z</time>
      </trkpt>
      <trkpt lat="44.74703" lon="1.813">
        <ele>329.87</ele>
        <time>2026-05-15T11:01:57Z</time>
      </trkpt>
      <trkpt lat="44.74711" lon="1.81308">
        <ele>329.87</ele>
        <time>2026-05-15T11:02:04Z</time>
      </trkpt>
      <trkpt lat="44.74728" lon="1.81327">
        <ele>330.35</ele>
        <time>2026-05-15T11:02:22Z</time>
      </trkpt>
      <trkpt lat="44.74744" lon="1.81343">
        <ele>330.35</ele>
        <time>2026-05-15T11:02:38Z</time>
      </trkpt>
      <trkpt lat="44.7476" lon="1.81364">
        <ele>330.83</ele>
        <time>2026-05-15T11:02:55Z</time>
      </trkpt>
      <trkpt lat="44.74776" lon="1.8138">
        <ele>331.31</ele>
        <time>2026-05-15T11:03:10Z</time>
      </trkpt>
      <trkpt lat="44.74791" lon="1.81389">
        <ele>331.31</ele>
        <time>2026-05-15T11:03:22Z</time>
      </trkpt>
      <trkpt lat="44.7481" lon="1.81404">
        <ele>331.31</ele>
        <time>2026-05-15T11:03:40Z</time>
      </trkpt>
      <trkpt lat="44.74815" lon="1.81422">
        <ele>331.31</ele>
        <time>2026-05-15T11:03:54Z</time>
      </trkpt>
      <trkpt lat="44.74814" lon="1.81435">
        <ele>331.31</ele>
        <time>2026-05-15T11:04:02Z</time>
      </trkpt>
      <trkpt lat="44.74808" lon="1.81471">
        <ele>331.79</ele>
        <time>2026-05-15T11:04:19Z</time>
      </trkpt>
      <trkpt lat="44.74804" lon="1.81478">
        <ele>331.79</ele>
        <time>2026-05-15T11:04:24Z</time>
      </trkpt>
      <trkpt lat="44.74786" lon="1.81502">
        <ele>332.75</ele>
        <time>2026-05-15T11:04:42Z</time>
      </trkpt>
      <trkpt lat="44.74775" lon="1.81531">
        <ele>333.23</ele>
        <time>2026-05-15T11:05:00Z</time>
      </trkpt>
      <trkpt lat="44.74762" lon="1.8155">
        <ele>333.23</ele>
        <time>2026-05-15T11:05:15Z</time>
      </trkpt>
      <trkpt lat="44.7474" lon="1.81572">
        <ele>332.27</ele>
        <time>2026-05-15T11:05:33Z</time>
      </trkpt>
      <trkpt lat="44.74728" lon="1.81595">
        <ele>331.79</ele>
        <time>2026-05-15T11:05:49Z</time>
      </trkpt>
      <trkpt lat="44.74724" lon="1.81626">
        <ele>331.79</ele>
        <time>2026-05-15T11:06:08Z</time>
      </trkpt>
      <trkpt lat="44.74721" lon="1.81655">
        <ele>331.79</ele>
        <time>2026-05-15T11:06:24Z</time>
      </trkpt>
      <trkpt lat="44.74717" lon="1.81678">
        <ele>331.79</ele>
        <time>2026-05-15T11:06:37Z</time>
      </trkpt>
      <trkpt lat="44.74713" lon="1.81709">
        <ele>331.79</ele>
        <time>2026-05-15T11:06:54Z</time>
      </trkpt>
      <trkpt lat="44.74709" lon="1.81743">
        <ele>331.79</ele>
        <time>2026-05-15T11:07:14Z</time>
      </trkpt>
      <trkpt lat="44.74704" lon="1.81768">
        <ele>331.79</ele>
        <time>2026-05-15T11:07:29Z</time>
      </trkpt>
      <trkpt lat="44.74697" lon="1.81802">
        <ele>332.75</ele>
        <time>2026-05-15T11:07:49Z</time>
      </trkpt>
      <trkpt lat="44.74692" lon="1.8183">
        <ele>333.71</ele>
        <time>2026-05-15T11:08:07Z</time>
      </trkpt>
      <trkpt lat="44.74688" lon="1.81855">
        <ele>335.64</ele>
        <time>2026-05-15T11:08:24Z</time>
      </trkpt>
      <trkpt lat="44.74685" lon="1.81878">
        <ele>337.56</ele>
        <time>2026-05-15T11:08:40Z</time>
      </trkpt>
      <trkpt lat="44.74684" lon="1.81897">
        <ele>338.04</ele>
        <time>2026-05-15T11:08:47Z</time>
      </trkpt>
      <trkpt lat="44.74691" lon="1.81918">
        <ele>339</ele>
        <time>2026-05-15T11:09:05Z</time>
      </trkpt>
      <trkpt lat="44.74701" lon="1.81937">
        <ele>340.44</ele>
        <time>2026-05-15T11:09:21Z</time>
      </trkpt>
      <trkpt lat="44.74712" lon="1.81967">
        <ele>341.41</ele>
        <time>2026-05-15T11:09:37Z</time>
      </trkpt>
      <trkpt lat="44.74715" lon="1.81976">
        <ele>341.41</ele>
        <time>2026-05-15T11:09:41Z</time>
      </trkpt>
      <trkpt lat="44.7473" lon="1.81996">
        <ele>341.89</ele>
        <time>2026-05-15T11:09:57Z</time>
      </trkpt>
      <trkpt lat="44.74739" lon="1.82013">
        <ele>342.37</ele>
        <time>2026-05-15T11:10:10Z</time>
      </trkpt>
      <trkpt lat="44.74746" lon="1.82033">
        <ele>342.85</ele>
        <time>2026-05-15T11:10:24Z</time>
      </trkpt>
      <trkpt lat="44.74749" lon="1.82059">
        <ele>342.85</ele>
        <time>2026-05-15T11:10:40Z</time>
      </trkpt>
      <trkpt lat="44.74755" lon="1.82083">
        <ele>341.89</ele>
        <time>2026-05-15T11:10:57Z</time>
      </trkpt>
      <trkpt lat="44.74754" lon="1.82113">
        <ele>340.44</ele>
        <time>2026-05-15T11:11:10Z</time>
      </trkpt>
      <trkpt lat="44.74753" lon="1.82117">
        <ele>340.44</ele>
        <time>2026-05-15T11:11:12Z</time>
      </trkpt>
      <trkpt lat="44.74747" lon="1.82154">
        <ele>339.96</ele>
        <time>2026-05-15T11:11:31Z</time>
      </trkpt>
      <trkpt lat="44.74744" lon="1.82189">
        <ele>339.48</ele>
        <time>2026-05-15T11:11:50Z</time>
      </trkpt>
      <trkpt lat="44.74743" lon="1.82223">
        <ele>340.44</ele>
        <time>2026-05-15T11:12:10Z</time>
      </trkpt>
      <trkpt lat="44.74746" lon="1.82242">
        <ele>341.41</ele>
        <time>2026-05-15T11:12:21Z</time>
      </trkpt>
      <trkpt lat="44.74759" lon="1.82269">
        <ele>341.89</ele>
        <time>2026-05-15T11:12:40Z</time>
      </trkpt>
      <trkpt lat="44.74775" lon="1.82294">
        <ele>343.81</ele>
        <time>2026-05-15T11:12:59Z</time>
      </trkpt>
      <trkpt lat="44.74788" lon="1.82308">
        <ele>344.77</ele>
        <time>2026-05-15T11:13:14Z</time>
      </trkpt>
      <trkpt lat="44.74801" lon="1.82322">
        <ele>345.73</ele>
        <time>2026-05-15T11:13:28Z</time>
      </trkpt>
      <trkpt lat="44.74819" lon="1.82338">
        <ele>346.21</ele>
        <time>2026-05-15T11:13:45Z</time>
      </trkpt>
      <trkpt lat="44.74837" lon="1.82359">
        <ele>346.21</ele>
        <time>2026-05-15T11:14:03Z</time>
      </trkpt>
      <trkpt lat="44.74846" lon="1.82377">
        <ele>346.21</ele>
        <time>2026-05-15T11:14:18Z</time>
      </trkpt>
      <trkpt lat="44.74835" lon="1.82405">
        <ele>346.21</ele>
        <time>2026-05-15T11:14:34Z</time>
      </trkpt>
      <trkpt lat="44.74826" lon="1.82419">
        <ele>346.21</ele>
        <time>2026-05-15T11:14:45Z</time>
      </trkpt>
      <trkpt lat="44.74825" lon="1.82422">
        <ele>346.21</ele>
        <time>2026-05-15T11:14:47Z</time>
      </trkpt>
      <trkpt lat="44.74814" lon="1.82434">
        <ele>346.69</ele>
        <time>2026-05-15T11:14:55Z</time>
      </trkpt>
      <trkpt lat="44.74806" lon="1.82441">
        <ele>346.21</ele>
        <time>2026-05-15T11:15:02Z</time>
      </trkpt>
      <trkpt lat="44.74792" lon="1.82455">
        <ele>345.25</ele>
        <time>2026-05-15T11:15:18Z</time>
      </trkpt>
      <trkpt lat="44.74791" lon="1.82455">
        <ele>344.77</ele>
        <time>2026-05-15T11:15:35Z</time>
      </trkpt>
      <trkpt lat="44.74791" lon="1.82455">
        <ele>345.73</ele>
        <time>2026-05-15T11:15:39Z</time>
      </trkpt>
      <trkpt lat="44.7479" lon="1.82456">
        <ele>345.25</ele>
        <time>2026-05-15T11:15:52Z</time>
      </trkpt>
      <trkpt lat="44.74781" lon="1.82474">
        <ele>345.25</ele>
        <time>2026-05-15T11:16:06Z</time>
      </trkpt>
      <trkpt lat="44.74777" lon="1.8248">
        <ele>344.77</ele>
        <time>2026-05-15T11:16:15Z</time>
      </trkpt>
      <trkpt lat="44.74767" lon="1.82482">
        <ele>344.77</ele>
        <time>2026-05-15T11:16:24Z</time>
      </trkpt>
      <trkpt lat="44.74756" lon="1.82485">
        <ele>345.73</ele>
        <time>2026-05-15T11:16:33Z</time>
      </trkpt>
      <trkpt lat="44.74749" lon="1.82491">
        <ele>344.77</ele>
        <time>2026-05-15T11:16:48Z</time>
      </trkpt>
      <trkpt lat="44.74726" lon="1.82503">
        <ele>344.77</ele>
        <time>2026-05-15T11:17:08Z</time>
      </trkpt>
      <trkpt lat="44.74703" lon="1.82515">
        <ele>344.77</ele>
        <time>2026-05-15T11:17:28Z</time>
      </trkpt>
      <trkpt lat="44.74673" lon="1.8253">
        <ele>344.77</ele>
        <time>2026-05-15T11:17:52Z</time>
      </trkpt>
      <trkpt lat="44.74651" lon="1.8254">
        <ele>344.77</ele>
        <time>2026-05-15T11:18:14Z</time>
      </trkpt>
      <trkpt lat="44.74617" lon="1.82557">
        <ele>344.77</ele>
        <time>2026-05-15T11:18:36Z</time>
      </trkpt>
      <trkpt lat="44.74594" lon="1.82581">
        <ele>345.73</ele>
        <time>2026-05-15T11:18:58Z</time>
      </trkpt>
      <trkpt lat="44.74585" lon="1.82594">
        <ele>346.69</ele>
        <time>2026-05-15T11:19:17Z</time>
      </trkpt>
      <trkpt lat="44.74554" lon="1.82622">
        <ele>348.13</ele>
        <time>2026-05-15T11:19:43Z</time>
      </trkpt>
      <trkpt lat="44.74537" lon="1.8264">
        <ele>349.58</ele>
        <time>2026-05-15T11:20:03Z</time>
      </trkpt>
      <trkpt lat="44.74535" lon="1.82642">
        <ele>349.58</ele>
        <time>2026-05-15T11:20:05Z</time>
      </trkpt>
      <trkpt lat="44.74505" lon="1.82672">
        <ele>351.5</ele>
        <time>2026-05-15T11:20:35Z</time>
      </trkpt>
      <trkpt lat="44.74481" lon="1.82698">
        <ele>351.98</ele>
        <time>2026-05-15T11:20:59Z</time>
      </trkpt>
      <trkpt lat="44.74458" lon="1.82721">
        <ele>351.02</ele>
        <time>2026-05-15T11:21:21Z</time>
      </trkpt>
      <trkpt lat="44.74438" lon="1.8275">
        <ele>349.58</ele>
        <time>2026-05-15T11:21:43Z</time>
      </trkpt>
      <trkpt lat="44.74421" lon="1.8277">
        <ele>348.62</ele>
        <time>2026-05-15T11:22:01Z</time>
      </trkpt>
      <trkpt lat="44.74394" lon="1.82799">
        <ele>346.69</ele>
        <time>2026-05-15T11:22:26Z</time>
      </trkpt>
      <trkpt lat="44.74369" lon="1.82811">
        <ele>343.33</ele>
        <time>2026-05-15T11:22:47Z</time>
      </trkpt>
      <trkpt lat="44.74346" lon="1.82828">
        <ele>339.48</ele>
        <time>2026-05-15T11:23:12Z</time>
      </trkpt>
      <trkpt lat="44.74315" lon="1.82839">
        <ele>338.04</ele>
        <time>2026-05-15T11:23:35Z</time>
      </trkpt>
      <trkpt lat="44.74296" lon="1.82856">
        <ele>337.56</ele>
        <time>2026-05-15T11:23:53Z</time>
      </trkpt>
      <trkpt lat="44.74263" lon="1.82874">
        <ele>336.6</ele>
        <time>2026-05-15T11:24:19Z</time>
      </trkpt>
      <trkpt lat="44.74245" lon="1.82888">
        <ele>335.64</ele>
        <time>2026-05-15T11:24:35Z</time>
      </trkpt>
      <trkpt lat="44.74214" lon="1.82922">
        <ele>333.71</ele>
        <time>2026-05-15T11:25:02Z</time>
      </trkpt>
      <trkpt lat="44.74192" lon="1.82957">
        <ele>331.79</ele>
        <time>2026-05-15T11:25:27Z</time>
      </trkpt>
      <trkpt lat="44.7417" lon="1.82987">
        <ele>328.91</ele>
        <time>2026-05-15T11:25:49Z</time>
      </trkpt>
      <trkpt lat="44.74154" lon="1.83016">
        <ele>325.54</ele>
        <time>2026-05-15T11:26:11Z</time>
      </trkpt>
      <trkpt lat="44.74144" lon="1.83016">
        <ele>323.14</ele>
        <time>2026-05-15T11:26:27Z</time>
      </trkpt>
      <trkpt lat="44.74141" lon="1.83013">
        <ele>326.02</ele>
        <time>2026-05-15T11:26:29Z</time>
      </trkpt>
      <trkpt lat="44.74132" lon="1.83008">
        <ele>324.58</ele>
        <time>2026-05-15T11:26:38Z</time>
      </trkpt>
      <trkpt lat="44.74124" lon="1.82998">
        <ele>324.1</ele>
        <time>2026-05-15T11:26:49Z</time>
      </trkpt>
      <trkpt lat="44.74106" lon="1.82987">
        <ele>325.06</ele>
        <time>2026-05-15T11:27:02Z</time>
      </trkpt>
      <trkpt lat="44.74104" lon="1.82988">
        <ele>323.62</ele>
        <time>2026-05-15T11:27:04Z</time>
      </trkpt>
      <trkpt lat="44.74097" lon="1.82987">
        <ele>322.18</ele>
        <time>2026-05-15T11:27:17Z</time>
      </trkpt>
      <trkpt lat="44.7409" lon="1.82976">
        <ele>322.18</ele>
        <time>2026-05-15T11:27:28Z</time>
      </trkpt>
      <trkpt lat="44.74082" lon="1.82981">
        <ele>321.22</ele>
        <time>2026-05-15T11:27:34Z</time>
      </trkpt>
      <trkpt lat="44.74077" lon="1.82983">
        <ele>320.74</ele>
        <time>2026-05-15T11:27:38Z</time>
      </trkpt>
      <trkpt lat="44.74058" lon="1.82996">
        <ele>317.85</ele>
        <time>2026-05-15T11:27:55Z</time>
      </trkpt>
      <trkpt lat="44.74053" lon="1.83016">
        <ele>317.37</ele>
        <time>2026-05-15T11:28:10Z</time>
      </trkpt>
      <trkpt lat="44.74053" lon="1.83019">
        <ele>317.37</ele>
        <time>2026-05-15T11:28:25Z</time>
      </trkpt>
      <trkpt lat="44.74053" lon="1.83018">
        <ele>315.93</ele>
        <time>2026-05-15T11:28:26Z</time>
      </trkpt>
      <trkpt lat="44.74044" lon="1.83012">
        <ele>314.49</ele>
        <time>2026-05-15T11:28:34Z</time>
      </trkpt>
      <trkpt lat="44.74036" lon="1.83018">
        <ele>314.01</ele>
        <time>2026-05-15T11:28:40Z</time>
      </trkpt>
      <trkpt lat="44.74033" lon="1.83044">
        <ele>313.53</ele>
        <time>2026-05-15T11:28:59Z</time>
      </trkpt>
      <trkpt lat="44.74037" lon="1.83041">
        <ele>313.53</ele>
        <time>2026-05-15T11:29:15Z</time>
      </trkpt>
      <trkpt lat="44.74044" lon="1.83028">
        <ele>313.53</ele>
        <time>2026-05-15T11:29:22Z</time>
      </trkpt>
      <trkpt lat="44.74042" lon="1.83018">
        <ele>313.53</ele>
        <time>2026-05-15T11:29:28Z</time>
      </trkpt>
      <trkpt lat="44.74041" lon="1.8301">
        <ele>314.01</ele>
        <time>2026-05-15T11:29:33Z</time>
      </trkpt>
      <trkpt lat="44.74034" lon="1.83004">
        <ele>314.01</ele>
        <time>2026-05-15T11:29:38Z</time>
      </trkpt>
      <trkpt lat="44.74032" lon="1.83001">
        <ele>310.16</ele>
        <time>2026-05-15T11:29:40Z</time>
      </trkpt>
      <trkpt lat="44.74031" lon="1.82999">
        <ele>317.37</ele>
        <time>2026-05-15T11:29:41Z</time>
      </trkpt>
      <trkpt lat="44.7403" lon="1.82996">
        <ele>314.01</ele>
        <time>2026-05-15T11:29:43Z</time>
      </trkpt>
      <trkpt lat="44.74018" lon="1.82971">
        <ele>313.53</ele>
        <time>2026-05-15T11:29:59Z</time>
      </trkpt>
      <trkpt lat="44.74018" lon="1.8295">
        <ele>314.01</ele>
        <time>2026-05-15T11:30:12Z</time>
      </trkpt>
      <trkpt lat="44.74017" lon="1.82945">
        <ele>314.01</ele>
        <time>2026-05-15T11:30:16Z</time>
      </trkpt>
      <trkpt lat="44.74014" lon="1.82938">
        <ele>314.01</ele>
        <time>2026-05-15T11:30:21Z</time>
      </trkpt>
      <trkpt lat="44.74012" lon="1.82935">
        <ele>314.97</ele>
        <time>2026-05-15T11:30:23Z</time>
      </trkpt>
      <trkpt lat="44.73992" lon="1.82917">
        <ele>315.93</ele>
        <time>2026-05-15T11:30:42Z</time>
      </trkpt>
      <trkpt lat="44.73983" lon="1.82894">
        <ele>316.41</ele>
        <time>2026-05-15T11:31:00Z</time>
      </trkpt>
      <trkpt lat="44.7398" lon="1.82886">
        <ele>317.85</ele>
        <time>2026-05-15T11:31:13Z</time>
      </trkpt>
      <trkpt lat="44.73967" lon="1.82888">
        <ele>317.85</ele>
        <time>2026-05-15T11:31:35Z</time>
      </trkpt>
    </trkseg>
  </trk>
</gpx>